Time,TemperatureF,DewpointF,PressureIn,WindDirection,WindDirectionDegrees,WindSpeedMPH,WindSpeedGustMPH,Humidity,HourlyPrecipIn,Conditions,Clouds,dailyrainin,SolarRadiationWatts/m^2,SoftwareType,DateUTC
2013-03-19 00:00:00,70.0,40.0,29.47,SSE,164,4.3,5.7,33,-99.99,,,0.00,0,rob ver 1B,2013-03-19 07:00:00,
2013-03-19 00:01:00,70.0,40.0,29.47,South,178,5.5,6.4,33,-99.99,,,0.00,0,rob ver 1B,2013-03-19 07:01:00,
2013-03-19 00:02:00,69.9,39.9,29.47,South,172,5.4,7.0,33,-99.99,,,0.00,0,rob ver 1B,2013-03-19 07:02:00,
2013-03-19 00:03:00,67.0,42.5,29.38,SSW,196,11.2,14.2,40,-99.99,,,0.00,0,rob ver 1A,2013-03-19 07:03:00,
2013-03-19 00:04:00,69.9,39.6,29.47,South,177,6.3,8.2,33,-99.99,,,0.00,0,rob ver 1B,2013-03-19 07:04:00,
2013-03-19 00:05:00,69.9,39.6,29.47,South,171,6.5,8.3,32,-99.99,,,0.00,0,rob ver 1B,2013-03-19 07:05:00,
2013-03-19 00:06:00,69.9,39.5,29.47,SSE,160,5.9,7.4,32,-99.99,,,0.00,0,rob ver 1B,2013-03-19 07:06:00,
2013-03-19 00:07:00,69.9,39.5,29.47,South,173,6.1,7.9,32,-99.99,,,0.00,0,rob ver 1B,2013-03-19 07:07:00,
2013-03-19 00:08:00,66.7,42.4,29.38,SSW,202,10.7,13.5,41,-99.99,,,0.00,0,rob ver 1A,2013-03-19 07:08:00,
2013-03-19 00:09:00,69.7,39.4,29.47,SSE,167,5.4,6.4,33,-99.99,,,0.00,0,rob ver 1B,2013-03-19 07:09:00,
2013-03-19 00:10:00,69.7,39.4,29.47,SSE,166,6.7,8.4,33,-99.99,,,0.00,0,rob ver 1B,2013-03-19 07:10:00,
2013-03-19 00:11:00,69.6,39.4,29.47,SSE,165,5.8,7.2,33,-99.99,,,0.00,0,rob ver 1B,2013-03-19 07:11:00,
2013-03-19 00:12:00,69.5,39.3,29.47,South,170,5.6,6.9,33,-99.99,,,0.00,0,rob ver 1B,2013-03-19 07:12:00,
2013-03-19 00:13:00,66.5,43.0,29.38,SSW,210,12.3,14.0,42,-99.99,,,0.00,0,rob ver 1A,2013-03-19 07:13:00,
2013-03-19 00:14:00,69.5,39.2,29.47,SSE,164,5.3,6.4,33,-99.99,,,0.00,0,rob ver 1B,2013-03-19 07:14:00,
2013-03-19 00:15:00,69.4,39.1,29.47,SSE,162,5.4,6.4,33,-99.99,,,0.00,0,rob ver 1B,2013-03-19 07:15:00,
2013-03-19 00:16:00,69.4,39.1,29.47,SSE,164,5.0,6.3,33,-99.99,,,0.00,0,rob ver 1B,2013-03-19 07:16:00,
2013-03-19 00:17:00,69.3,39.1,29.47,SSE,162,4.3,5.1,32,-99.99,,,0.00,0,rob ver 1B,2013-03-19 07:17:00,
2013-03-19 00:18:00,66.3,43.6,29.38,SSW,211,12.0,14.1,43,-99.99,,,0.00,0,rob ver 1A,2013-03-19 07:18:00,
2013-03-19 00:19:00,69.3,39.0,29.47,SSE,157,3.7,4.7,33,-99.99,,,0.00,0,rob ver 1B,2013-03-19 07:19:00,
2013-03-19 00:20:00,69.2,38.9,29.47,SSE,158,4.4,5.2,32,-99.99,,,0.00,0,rob ver 1B,2013-03-19 07:20:00,
2013-03-19 00:21:00,69.2,38.9,29.47,SSE,153,4.3,5.1,33,-99.99,,,0.00,0,rob ver 1B,2013-03-19 07:21:00,
2013-03-19 00:22:00,69.2,38.9,29.47,SSE,151,5.1,6.0,33,-99.99,,,0.00,0,rob ver 1B,2013-03-19 07:22:00,
2013-03-19 00:23:00,66.2,44.4,29.38,SSW,210,12.1,14.6,45,-99.99,,,0.00,0,rob ver 1A,2013-03-19 07:23:00,
2013-03-19 00:24:00,69.2,38.9,29.47,SSE,149,4.6,5.6,32,-99.99,,,0.00,0,rob ver 1B,2013-03-19 07:24:00,
2013-03-19 00:25:00,69.2,38.9,29.47,SSE,151,4.7,5.9,32,-99.99,,,0.00,0,rob ver 1B,2013-03-19 07:25:00,
2013-03-19 00:26:00,69.3,38.8,29.47,SSE,153,6.0,7.2,32,-99.99,,,0.00,0,rob ver 1B,2013-03-19 07:26:00,
2013-03-19 00:27:00,69.5,38.8,29.47,SSE,155,5.3,6.2,32,-99.99,,,0.00,0,rob ver 1B,2013-03-19 07:27:00,
2013-03-19 00:28:00,65.9,44.8,29.41,SSW,207,8.3,10.2,46,-99.99,,,0.00,0,rob ver 1A,2013-03-19 07:28:00,
2013-03-19 00:29:00,69.4,38.8,29.47,SE,141,5.0,5.8,32,-99.99,,,0.00,0,rob ver 1B,2013-03-19 07:29:00,
2013-03-19 00:30:00,69.4,38.8,29.47,SE,145,5.2,7.0,32,-99.99,,,0.00,0,rob ver 1B,2013-03-19 07:30:00,
2013-03-19 00:31:00,69.3,38.9,29.47,SE,146,5.0,6.2,32,-99.99,,,0.00,0,rob ver 1B,2013-03-19 07:31:00,
2013-03-19 00:32:00,69.1,38.9,29.47,SE,140,5.1,5.8,33,-99.99,,,0.00,0,rob ver 1B,2013-03-19 07:32:00,
2013-03-19 00:33:00,65.7,44.9,29.41,SSW,212,6.6,8.8,47,-99.99,,,0.00,0,rob ver 1A,2013-03-19 07:33:00,
2013-03-19 00:34:00,68.9,38.9,29.47,SE,145,5.1,5.9,33,-99.99,,,0.00,0,rob ver 1B,2013-03-19 07:34:00,
2013-03-19 00:35:00,68.8,38.9,29.47,SE,146,5.6,6.3,33,-99.99,,,0.00,0,rob ver 1B,2013-03-19 07:35:00,
2013-03-19 00:36:00,68.9,38.9,29.47,SSE,149,5.1,6.0,33,-99.99,,,0.00,0,rob ver 1B,2013-03-19 07:36:00,
2013-03-19 00:37:00,68.8,38.9,29.47,SSE,147,5.5,6.9,33,-99.99,,,0.00,0,rob ver 1B,2013-03-19 07:37:00,
2013-03-19 00:38:00,65.5,45.2,29.41,SW,220,4.7,8.7,47,-99.99,,,0.00,0,rob ver 1A,2013-03-19 07:38:00,
2013-03-19 00:39:00,68.8,38.9,29.47,SE,146,5.2,5.9,33,-99.99,,,0.00,0,rob ver 1B,2013-03-19 07:39:00,
2013-03-19 00:40:00,68.9,39.0,29.47,SE,143,5.4,6.2,33,-99.99,,,0.00,0,rob ver 1B,2013-03-19 07:40:00,
2013-03-19 00:41:00,68.9,39.0,29.47,SE,138,4.8,5.4,33,-99.99,,,0.00,0,rob ver 1B,2013-03-19 07:41:00,
2013-03-19 00:42:00,68.8,39.0,29.47,SE,137,4.3,5.2,33,-99.99,,,0.00,0,rob ver 1B,2013-03-19 07:42:00,
2013-03-19 00:43:00,65.4,45.4,29.41,ESE,104,1.2,2.4,48,-99.99,,,0.00,0,rob ver 1A,2013-03-19 07:43:00,
2013-03-19 00:44:00,68.7,39.0,29.47,SE,137,3.9,4.7,33,-99.99,,,0.00,0,rob ver 1B,2013-03-19 07:44:00,
2013-03-19 00:45:00,68.6,38.9,29.47,SE,132,3.6,4.7,33,-99.99,,,0.00,0,rob ver 1B,2013-03-19 07:45:00,
2013-03-19 00:46:00,68.5,39.0,29.47,SE,131,3.3,4.0,33,-99.99,,,0.00,0,rob ver 1B,2013-03-19 07:46:00,
2013-03-19 00:47:00,68.4,38.9,29.47,SE,135,3.2,4.1,34,-99.99,,,0.00,0,rob ver 1B,2013-03-19 07:47:00,
2013-03-19 00:48:00,65.3,45.2,29.41,NE,47,2.8,4.2,47,-99.99,,,0.00,0,rob ver 1A,2013-03-19 07:48:00,
2013-03-19 00:49:00,68.5,39.2,29.47,SSE,147,3.8,4.8,34,-99.99,,,0.00,0,rob ver 1B,2013-03-19 07:49:00,
2013-03-19 00:50:00,68.6,39.2,29.47,SE,143,3.6,4.8,34,-99.99,,,0.00,0,rob ver 1B,2013-03-19 07:50:00,
2013-03-19 00:51:00,68.6,39.2,29.47,SSE,149,4.6,5.6,34,-99.99,,,0.00,0,rob ver 1B,2013-03-19 07:51:00,
2013-03-19 00:52:00,68.6,39.3,29.47,SE,141,4.0,5.3,34,-99.99,,,0.00,0,rob ver 1B,2013-03-19 07:52:00,
2013-03-19 00:53:00,65.3,45.1,29.41,NNW,332,2.6,3.2,47,-99.99,,,0.00,0,rob ver 1A,2013-03-19 07:53:00,
2013-03-19 00:54:00,68.4,39.2,29.47,SE,137,3.9,4.5,34,-99.99,,,0.00,0,rob ver 1B,2013-03-19 07:54:00,
2013-03-19 00:55:00,68.3,39.3,29.47,SE,139,4.2,5.6,34,-99.99,,,0.00,0,rob ver 1B,2013-03-19 07:55:00,
2013-03-19 00:56:00,68.4,39.3,29.47,SE,141,3.7,5.4,34,-99.99,,,0.00,0,rob ver 1B,2013-03-19 07:56:00,
2013-03-19 00:57:00,68.3,39.3,29.47,SE,142,3.4,4.2,34,-99.99,,,0.00,0,rob ver 1B,2013-03-19 07:57:00,
2013-03-19 00:58:00,65.2,45.1,29.41,North,352,3.9,5.2,48,-99.99,,,0.00,0,rob ver 1A,2013-03-19 07:58:00,
2013-03-19 00:59:00,68.2,39.3,29.47,SE,146,3.5,4.1,34,-99.99,,,0.00,0,rob ver 1B,2013-03-19 07:59:00,
2013-03-19 01:00:00,68.2,39.4,29.47,SSE,148,3.7,4.5,34,-99.99,,,0.00,0,rob ver 1B,2013-03-19 08:00:00,
2013-03-19 01:01:00,68.2,39.4,29.47,SSE,154,3.4,4.2,34,-99.99,,,0.00,0,rob ver 1B,2013-03-19 08:01:00,
2013-03-19 01:02:00,68.3,39.4,29.47,SSE,165,3.5,4.3,34,-99.99,,,0.00,0,rob ver 1B,2013-03-19 08:02:00,
2013-03-19 01:03:00,65.3,45.6,29.41,NW,313,1.9,2.9,48,-99.99,,,0.00,0,rob ver 1A,2013-03-19 08:03:00,
2013-03-19 01:04:00,68.4,39.4,29.47,South,174,3.8,4.7,34,-99.99,,,0.00,0,rob ver 1B,2013-03-19 08:04:00,
2013-03-19 01:05:00,68.5,39.4,29.47,South,176,3.8,4.5,34,-99.99,,,0.00,0,rob ver 1B,2013-03-19 08:05:00,
2013-03-19 01:06:00,68.4,39.3,29.47,South,179,4.0,4.6,34,-99.99,,,0.00,0,rob ver 1B,2013-03-19 08:06:00,
2013-03-19 01:07:00,68.4,39.3,29.47,South,180,4.4,5.5,34,-99.99,,,0.00,0,rob ver 1B,2013-03-19 08:07:00,
2013-03-19 01:08:00,68.4,39.2,29.47,South,182,4.2,4.7,34,-99.99,,,0.00,0,rob ver 1B,2013-03-19 08:08:00,
2013-03-19 01:09:00,65.1,45.3,29.41,SSW,196,3.6,6.1,48,-99.99,,,0.00,0,rob ver 1A,2013-03-19 08:09:00,
2013-03-19 01:10:00,68.1,39.1,29.47,South,177,4.3,4.9,34,-99.99,,,0.00,0,rob ver 1B,2013-03-19 08:10:00,
2013-03-19 01:11:00,67.9,39.1,29.47,South,177,4.3,4.9,34,-99.99,,,0.00,0,rob ver 1B,2013-03-19 08:11:00,
2013-03-19 01:12:00,67.8,39.2,29.47,South,176,3.7,4.2,35,-99.99,,,0.00,0,rob ver 1B,2013-03-19 08:12:00,
2013-03-19 01:13:00,67.7,39.4,29.47,South,182,3.7,4.4,35,-99.99,,,0.00,0,rob ver 1B,2013-03-19 08:13:00,
2013-03-19 01:14:00,64.9,45.1,29.41,SSW,200,3.0,4.5,48,-99.99,,,0.00,0,rob ver 1A,2013-03-19 08:14:00,
2013-03-19 01:15:00,67.5,39.7,29.47,South,189,3.4,4.5,36,-99.99,,,0.00,0,rob ver 1B,2013-03-19 08:15:00,
2013-03-19 01:16:00,67.5,39.7,29.47,SSW,196,3.0,4.6,36,-99.99,,,0.00,0,rob ver 1B,2013-03-19 08:16:00,
2013-03-19 01:17:00,67.6,39.8,29.47,SSW,201,2.9,4.0,36,-99.99,,,0.00,0,rob ver 1B,2013-03-19 08:17:00,
2013-03-19 01:18:00,67.6,39.8,29.47,SSW,204,2.8,4.2,35,-99.99,,,0.00,0,rob ver 1B,2013-03-19 08:18:00,
2013-03-19 01:19:00,64.8,45.0,29.41,SSW,210,5.9,7.4,48,-99.99,,,0.00,0,rob ver 1A,2013-03-19 08:19:00,
2013-03-19 01:20:00,67.5,39.5,29.47,SSW,198,2.1,3.1,36,-99.99,,,0.00,0,rob ver 1B,2013-03-19 08:20:00,
2013-03-19 01:21:00,67.5,39.9,29.47,South,180,2.4,3.1,36,-99.99,,,0.00,0,rob ver 1B,2013-03-19 08:21:00,
2013-03-19 01:22:00,67.6,40.0,29.47,SSE,165,1.7,2.6,36,-99.99,,,0.00,0,rob ver 1B,2013-03-19 08:22:00,
2013-03-19 01:23:00,67.7,39.8,29.47,SSE,160,1.6,2.5,36,-99.99,,,0.00,0,rob ver 1B,2013-03-19 08:23:00,
2013-03-19 01:24:00,64.6,44.8,29.41,SSW,210,4.1,5.5,48,-99.99,,,0.00,0,rob ver 1A,2013-03-19 08:24:00,
2013-03-19 01:25:00,67.9,39.6,29.47,ESE,119,2.5,3.4,35,-99.99,,,0.00,0,rob ver 1B,2013-03-19 08:25:00,
2013-03-19 01:26:00,67.9,39.5,29.47,ESE,111,2.4,3.2,35,-99.99,,,0.00,0,rob ver 1B,2013-03-19 08:26:00,
2013-03-19 01:27:00,67.9,39.3,29.47,East,91,2.3,3.0,34,-99.99,,,0.00,0,rob ver 1B,2013-03-19 08:27:00,
2013-03-19 01:28:00,67.8,39.0,29.47,ENE,64,2.6,3.4,34,-99.99,,,0.00,0,rob ver 1B,2013-03-19 08:28:00,
2013-03-19 01:29:00,64.5,44.5,29.41,SSW,201,4.5,6.8,48,-99.99,,,0.00,0,rob ver 1A,2013-03-19 08:29:00,
2013-03-19 01:30:00,67.2,39.1,29.47,NE,54,2.1,2.7,35,-99.99,,,0.00,0,rob ver 1B,2013-03-19 08:30:00,
2013-03-19 01:31:00,67.0,39.5,29.47,ENE,75,1.9,2.9,36,-99.99,,,0.00,0,rob ver 1B,2013-03-19 08:31:00,
2013-03-19 01:32:00,66.9,39.6,29.47,ENE,71,1.6,2.9,36,-99.99,,,0.00,0,rob ver 1B,2013-03-19 08:32:00,
2013-03-19 01:33:00,66.8,39.6,29.47,ENE,65,1.3,1.9,36,-99.99,,,0.00,0,rob ver 1B,2013-03-19 08:33:00,
2013-03-19 01:34:00,64.3,44.2,29.41,WSW,244,5.3,7.0,47,-99.99,,,0.00,0,rob ver 1A,2013-03-19 08:34:00,
2013-03-19 01:35:00,66.9,39.7,29.47,East,97,1.5,2.3,36,-99.99,,,0.00,0,rob ver 1B,2013-03-19 08:35:00,
2013-03-19 01:36:00,67.1,39.7,29.47,ESE,113,1.8,2.6,36,-99.99,,,0.00,0,rob ver 1B,2013-03-19 08:36:00,
2013-03-19 01:37:00,67.3,39.6,29.47,SSE,150,2.2,3.5,36,-99.99,,,0.00,0,rob ver 1B,2013-03-19 08:37:00,
2013-03-19 01:38:00,67.6,39.6,29.47,SSE,151,4.1,5.9,35,-99.99,,,0.00,0,rob ver 1B,2013-03-19 08:38:00,
2013-03-19 01:39:00,64.2,44.0,29.41,SW,235,3.4,4.2,47,-99.99,,,0.00,0,rob ver 1A,2013-03-19 08:39:00,
2013-03-19 01:40:00,68.3,39.4,29.47,SSE,160,4.2,5.1,34,-99.99,,,0.00,0,rob ver 1B,2013-03-19 08:40:00,
2013-03-19 01:41:00,68.4,39.3,29.47,SSE,160,3.7,4.3,34,-99.99,,,0.00,0,rob ver 1B,2013-03-19 08:41:00,
2013-03-19 01:42:00,68.3,39.1,29.47,SSE,157,3.5,4.8,34,-99.99,,,0.00,0,rob ver 1B,2013-03-19 08:42:00,
2013-03-19 01:43:00,68.2,39.1,29.47,SSE,147,3.2,3.6,34,-99.99,,,0.00,0,rob ver 1B,2013-03-19 08:43:00,
2013-03-19 01:44:00,64.1,43.7,29.41,West,259,2.8,3.5,47,-99.99,,,0.00,0,rob ver 1A,2013-03-19 08:44:00,
2013-03-19 01:45:00,67.9,39.0,29.47,SSE,149,2.2,2.6,34,-99.99,,,0.00,0,rob ver 1B,2013-03-19 08:45:00,
2013-03-19 01:46:00,67.8,39.0,29.47,SSE,151,1.8,2.2,34,-99.99,,,0.00,0,rob ver 1B,2013-03-19 08:46:00,
2013-03-19 01:47:00,67.7,39.1,29.47,SSE,154,1.6,2.0,34,-99.99,,,0.00,0,rob ver 1B,2013-03-19 08:47:00,
2013-03-19 01:48:00,67.7,39.1,29.47,SSE,157,1.4,1.7,35,-99.99,,,0.00,0,rob ver 1B,2013-03-19 08:48:00,
2013-03-19 01:49:00,64.1,43.5,29.41,West,275,2.7,3.5,47,-99.99,,,0.00,0,rob ver 1A,2013-03-19 08:49:00,
2013-03-19 01:50:00,67.5,39.2,29.47,SSE,152,1.7,2.4,35,-99.99,,,0.00,0,rob ver 1B,2013-03-19 08:50:00,
2013-03-19 01:51:00,67.4,39.2,29.47,SSE,156,1.7,2.1,35,-99.99,,,0.00,0,rob ver 1B,2013-03-19 08:51:00,
2013-03-19 01:52:00,67.3,39.3,29.47,SSE,158,1.9,2.2,35,-99.99,,,0.00,0,rob ver 1B,2013-03-19 08:52:00,
2013-03-19 01:53:00,67.3,39.4,29.47,SSE,159,2.4,2.8,35,-99.99,,,0.00,0,rob ver 1B,2013-03-19 08:53:00,
2013-03-19 01:54:00,64.1,43.3,29.41,West,274,2.7,3.4,46,-99.99,,,0.00,0,rob ver 1A,2013-03-19 08:54:00,
2013-03-19 01:55:00,67.1,39.5,29.47,SSE,162,3.1,3.3,36,-99.99,,,0.00,0,rob ver 1B,2013-03-19 08:55:00,
2013-03-19 01:56:00,67.0,39.6,29.47,SSE,157,3.0,3.6,36,-99.99,,,0.00,0,rob ver 1B,2013-03-19 08:56:00,
2013-03-19 01:57:00,66.9,39.6,29.47,SSE,156,3.2,3.7,36,-99.99,,,0.00,0,rob ver 1B,2013-03-19 08:57:00,
2013-03-19 01:58:00,66.8,39.6,29.47,SSE,151,2.9,3.2,36,-99.99,,,0.00,0,rob ver 1B,2013-03-19 08:58:00,
2013-03-19 01:59:00,64.1,43.0,29.41,West,279,3.0,3.6,45,-99.99,,,0.00,0,rob ver 1A,2013-03-19 08:59:00,
2013-03-19 02:00:00,66.5,39.4,29.47,SE,146,2.0,2.6,36,-99.99,,,0.00,0,rob ver 1B,2013-03-19 09:00:00,
2013-03-19 02:01:00,66.4,39.3,29.47,SSE,149,1.8,2.6,37,-99.99,,,0.00,0,rob ver 1B,2013-03-19 09:01:00,
2013-03-19 02:02:00,66.3,39.4,29.47,SSE,155,1.8,2.7,37,-99.99,,,0.00,0,rob ver 1B,2013-03-19 09:02:00,
2013-03-19 02:03:00,66.2,39.4,29.47,SSE,150,2.0,2.4,37,-99.99,,,0.00,0,rob ver 1B,2013-03-19 09:03:00,
2013-03-19 02:04:00,64.0,42.5,29.41,WSW,257,3.1,3.7,45,-99.99,,,0.00,0,rob ver 1A,2013-03-19 09:04:00,
2013-03-19 02:05:00,66.1,39.5,29.47,SSE,149,1.9,2.5,37,-99.99,,,0.00,0,rob ver 1B,2013-03-19 09:05:00,
2013-03-19 02:06:00,66.2,39.6,29.47,SSE,149,2.1,2.6,37,-99.99,,,0.00,0,rob ver 1B,2013-03-19 09:06:00,
2013-03-19 02:07:00,66.2,39.6,29.47,SSE,153,2.3,3.0,37,-99.99,,,0.00,0,rob ver 1B,2013-03-19 09:07:00,
2013-03-19 02:08:00,66.3,39.6,29.47,SSE,158,2.7,3.5,37,-99.99,,,0.00,0,rob ver 1B,2013-03-19 09:08:00,
2013-03-19 02:09:00,66.3,39.6,29.47,SSE,159,3.0,3.7,37,-99.99,,,0.00,0,rob ver 1B,2013-03-19 09:09:00,
2013-03-19 02:10:00,64.1,42.4,29.41,West,266,3.5,4.1,45,-99.99,,,0.00,0,rob ver 1A,2013-03-19 09:10:00,
2013-03-19 02:11:00,66.5,39.7,29.47,SSE,166,3.7,4.4,37,-99.99,,,0.00,0,rob ver 1B,2013-03-19 09:11:00,
2013-03-19 02:12:00,66.6,39.6,29.47,SSE,167,3.6,4.2,36,-99.99,,,0.00,0,rob ver 1B,2013-03-19 09:12:00,
2013-03-19 02:13:00,66.6,39.5,29.47,SSE,167,3.6,4.0,37,-99.99,,,0.00,0,rob ver 1B,2013-03-19 09:13:00,
2013-03-19 02:14:00,66.5,39.5,29.47,SSE,164,3.3,3.9,37,-99.99,,,0.00,0,rob ver 1B,2013-03-19 09:14:00,
2013-03-19 02:15:00,64.1,42.1,29.41,West,270,3.3,4.3,44,-99.99,,,0.00,0,rob ver 1A,2013-03-19 09:15:00,
2013-03-19 02:16:00,66.5,39.6,29.47,SSE,154,2.8,3.3,37,-99.99,,,0.00,0,rob ver 1B,2013-03-19 09:16:00,
2013-03-19 02:17:00,66.5,39.7,29.47,SSE,153,2.5,3.2,37,-99.99,,,0.00,0,rob ver 1B,2013-03-19 09:17:00,
2013-03-19 02:18:00,66.5,39.7,29.47,SSE,149,2.3,2.8,37,-99.99,,,0.00,0,rob ver 1B,2013-03-19 09:18:00,
2013-03-19 02:19:00,66.5,39.7,29.47,SSE,147,2.3,2.8,37,-99.99,,,0.00,0,rob ver 1B,2013-03-19 09:19:00,
2013-03-19 02:20:00,63.7,41.7,29.41,WSW,256,2.3,3.8,44,-99.99,,,0.00,0,rob ver 1A,2013-03-19 09:20:00,
2013-03-19 02:21:00,66.4,39.6,29.47,SE,134,2.3,2.8,37,-99.99,,,0.00,0,rob ver 1B,2013-03-19 09:21:00,
2013-03-19 02:22:00,66.3,39.6,29.47,ESE,119,2.2,2.9,37,-99.99,,,0.00,0,rob ver 1B,2013-03-19 09:22:00,
2013-03-19 02:23:00,66.3,39.6,29.44,ESE,117,2.3,2.7,37,-99.99,,,0.00,0,rob ver 1B,2013-03-19 09:23:00,
2013-03-19 02:24:00,66.2,39.5,29.44,East,100,2.0,2.5,37,-99.99,,,0.00,0,rob ver 1B,2013-03-19 09:24:00,
2013-03-19 02:25:00,63.5,41.6,29.41,WSW,237,2.6,3.2,44,-99.99,,,0.00,0,rob ver 1A,2013-03-19 09:25:00,
2013-03-19 02:26:00,66.1,39.5,29.47,East,93,1.7,2.3,37,-99.99,,,0.00,0,rob ver 1B,2013-03-19 09:26:00,
2013-03-19 02:27:00,66.0,39.5,29.47,East,94,1.6,2.0,37,-99.99,,,0.00,0,rob ver 1B,2013-03-19 09:27:00,
2013-03-19 02:28:00,66.0,39.6,29.44,ESE,103,1.5,1.9,37,-99.99,,,0.00,0,rob ver 1B,2013-03-19 09:28:00,
2013-03-19 02:29:00,66.1,39.7,29.44,ESE,119,1.9,2.6,37,-99.99,,,0.00,0,rob ver 1B,2013-03-19 09:29:00,
2013-03-19 02:30:00,63.5,41.5,29.41,SW,223,2.4,3.0,44,-99.99,,,0.00,0,rob ver 1A,2013-03-19 09:30:00,
2013-03-19 02:31:00,66.4,39.8,29.44,SE,136,2.5,3.4,37,-99.99,,,0.00,0,rob ver 1B,2013-03-19 09:31:00,
2013-03-19 02:32:00,66.5,39.7,29.44,SE,135,2.4,3.0,37,-99.99,,,0.00,0,rob ver 1B,2013-03-19 09:32:00,
2013-03-19 02:33:00,66.5,39.7,29.44,SE,136,2.7,3.2,36,-99.99,,,0.00,0,rob ver 1B,2013-03-19 09:33:00,
2013-03-19 02:34:00,66.5,39.6,29.44,SE,134,3.0,3.8,37,-99.99,,,0.00,0,rob ver 1B,2013-03-19 09:34:00,
2013-03-19 02:35:00,63.3,41.2,29.38,SSW,201,5.2,6.4,44,-99.99,,,0.00,0,rob ver 1A,2013-03-19 09:35:00,
2013-03-19 02:36:00,66.4,39.6,29.44,SE,127,2.8,3.1,37,-99.99,,,0.00,0,rob ver 1B,2013-03-19 09:36:00,
2013-03-19 02:37:00,66.3,39.7,29.44,SE,125,2.6,3.1,37,-99.99,,,0.00,0,rob ver 1B,2013-03-19 09:37:00,
2013-03-19 02:38:00,66.4,39.7,29.44,SE,126,2.7,3.0,37,-99.99,,,0.00,0,rob ver 1B,2013-03-19 09:38:00,
2013-03-19 02:39:00,66.3,39.6,29.44,SE,135,2.5,2.7,37,-99.99,,,0.00,0,rob ver 1B,2013-03-19 09:39:00,
2013-03-19 02:40:00,63.8,41.0,29.38,SSW,205,3.7,5.5,43,-99.99,,,0.00,0,rob ver 1A,2013-03-19 09:40:00,
2013-03-19 02:41:00,66.1,39.4,29.44,SSE,147,2.2,3.6,37,-99.99,,,0.00,0,rob ver 1B,2013-03-19 09:41:00,
2013-03-19 02:42:00,66.0,39.7,29.44,SSE,157,2.6,3.2,38,-99.99,,,0.00,0,rob ver 1B,2013-03-19 09:42:00,
2013-03-19 02:43:00,66.1,39.7,29.44,SSE,165,2.6,3.9,37,-99.99,,,0.00,0,rob ver 1B,2013-03-19 09:43:00,
2013-03-19 02:44:00,66.1,39.6,29.44,South,171,2.3,2.9,37,-99.99,,,0.00,0,rob ver 1B,2013-03-19 09:44:00,
2013-03-19 02:45:00,63.8,41.1,29.38,SSW,200,5.1,6.4,43,-99.99,,,0.00,0,rob ver 1A,2013-03-19 09:45:00,
2013-03-19 02:46:00,66.2,39.7,29.44,SSE,163,1.9,3.0,37,-99.99,,,0.00,0,rob ver 1B,2013-03-19 09:46:00,
2013-03-19 02:47:00,66.3,39.8,29.44,SSE,158,1.5,2.0,37,-99.99,,,0.00,0,rob ver 1B,2013-03-19 09:47:00,
2013-03-19 02:48:00,66.3,39.7,29.44,SE,146,1.3,1.8,37,-99.99,,,0.00,0,rob ver 1B,2013-03-19 09:48:00,
2013-03-19 02:49:00,66.4,39.6,29.44,SE,134,1.4,1.8,37,-99.99,,,0.00,0,rob ver 1B,2013-03-19 09:49:00,
2013-03-19 02:50:00,63.7,41.0,29.38,SSW,194,5.7,7.6,43,-99.99,,,0.00,0,rob ver 1A,2013-03-19 09:50:00,
2013-03-19 02:51:00,66.5,39.7,29.44,East,96,1.6,2.5,37,-99.99,,,0.00,0,rob ver 1B,2013-03-19 09:51:00,
2013-03-19 02:52:00,66.6,39.6,29.44,East,83,2.0,2.8,36,-99.99,,,0.00,0,rob ver 1B,2013-03-19 09:52:00,
2013-03-19 02:53:00,66.7,39.5,29.44,ENE,75,2.3,2.8,36,-99.99,,,0.00,0,rob ver 1B,2013-03-19 09:53:00,
2013-03-19 02:54:00,66.7,39.4,29.44,ENE,67,2.7,3.3,36,-99.99,,,0.00,0,rob ver 1B,2013-03-19 09:54:00,
2013-03-19 02:55:00,63.7,41.0,29.38,SSW,194,5.7,7.6,43,-99.99,,,0.00,0,rob ver 1A,2013-03-19 09:55:00,
2013-03-19 02:56:00,66.6,39.5,29.44,NE,49,3.2,3.7,36,-99.99,,,0.00,0,rob ver 1B,2013-03-19 09:56:00,
2013-03-19 02:57:00,66.6,39.4,29.44,NE,54,2.6,3.2,37,-99.99,,,0.00,0,rob ver 1B,2013-03-19 09:57:00,
2013-03-19 02:58:00,66.6,39.3,29.44,NE,56,2.4,3.3,36,-99.99,,,0.00,0,rob ver 1B,2013-03-19 09:58:00,
2013-03-19 02:59:00,66.5,39.3,29.44,ENE,61,2.5,3.0,36,-99.99,,,0.00,0,rob ver 1B,2013-03-19 09:59:00,
2013-03-19 03:00:00,63.8,40.6,29.38,SSW,199,5.2,6.5,41,-99.99,,,0.00,0,rob ver 1A,2013-03-19 10:00:00,
2013-03-19 03:01:00,66.6,39.6,29.44,ENE,72,2.0,2.6,36,-99.99,,,0.00,0,rob ver 1B,2013-03-19 10:01:00,
2013-03-19 03:02:00,66.7,39.5,29.44,ENE,73,1.6,2.5,37,-99.99,,,0.00,0,rob ver 1B,2013-03-19 10:02:00,
2013-03-19 03:03:00,66.9,39.6,29.44,ENE,64,2.0,2.3,36,-99.99,,,0.00,0,rob ver 1B,2013-03-19 10:03:00,
2013-03-19 03:04:00,67.0,39.4,29.44,ENE,63,2.1,2.6,36,-99.99,,,0.00,0,rob ver 1B,2013-03-19 10:04:00,
2013-03-19 03:05:00,64.3,39.8,29.38,South,188,5.2,6.9,40,-99.99,,,0.00,0,rob ver 1A,2013-03-19 10:05:00,
2013-03-19 03:06:00,67.0,39.3,29.44,ENE,58,2.2,2.5,35,-99.99,,,0.00,0,rob ver 1B,2013-03-19 10:06:00,
2013-03-19 03:07:00,67.0,39.3,29.44,ENE,61,2.0,2.4,35,-99.99,,,0.00,0,rob ver 1B,2013-03-19 10:07:00,
2013-03-19 03:08:00,67.0,39.2,29.44,NE,51,2.1,2.4,35,-99.99,,,0.00,0,rob ver 1B,2013-03-19 10:08:00,
2013-03-19 03:09:00,67.0,39.2,29.44,NE,49,2.3,2.6,35,-99.99,,,0.00,0,rob ver 1B,2013-03-19 10:09:00,
2013-03-19 03:10:00,66.8,38.9,29.44,NE,44,2.4,2.8,35,-99.99,,,0.00,0,rob ver 1B,2013-03-19 10:10:00,
2013-03-19 03:11:00,64.2,40.2,29.38,SE,137,3.8,5.7,41,-99.99,,,0.00,0,rob ver 1A,2013-03-19 10:11:00,
2013-03-19 03:12:00,66.5,39.0,29.44,NE,41,2.7,2.9,35,-99.99,,,0.00,0,rob ver 1B,2013-03-19 10:12:00,
2013-03-19 03:13:00,66.4,38.9,29.44,NE,36,2.6,2.8,36,-99.99,,,0.00,0,rob ver 1B,2013-03-19 10:13:00,
2013-03-19 03:14:00,66.2,38.5,29.44,NE,35,2.7,2.9,35,-99.99,,,0.00,0,rob ver 1B,2013-03-19 10:14:00,
2013-03-19 03:15:00,65.9,38.3,29.44,NE,35,2.7,2.9,36,-99.99,,,0.00,0,rob ver 1B,2013-03-19 10:15:00,
2013-03-19 03:16:00,63.8,40.2,29.38,ESE,118,2.3,3.5,41,-99.99,,,0.00,0,rob ver 1A,2013-03-19 10:16:00,
2013-03-19 03:17:00,65.4,39.0,29.44,NE,35,2.4,2.8,37,-99.99,,,0.00,0,rob ver 1B,2013-03-19 10:17:00,
2013-03-19 03:18:00,65.4,38.8,29.44,NE,35,2.0,2.2,37,-99.99,,,0.00,0,rob ver 1B,2013-03-19 10:18:00,
2013-03-19 03:19:00,65.4,38.7,29.44,NNE,22,1.9,2.0,37,-99.99,,,0.00,0,rob ver 1B,2013-03-19 10:19:00,
2013-03-19 03:20:00,65.4,38.7,29.44,North,5,2.0,2.2,37,-99.99,,,0.00,0,rob ver 1B,2013-03-19 10:20:00,
2013-03-19 03:21:00,63.7,40.1,29.38,NE,50,1.4,1.9,41,-99.99,,,0.00,0,rob ver 1A,2013-03-19 10:21:00,
2013-03-19 03:22:00,65.5,39.0,29.44,North,4,1.8,2.0,37,-99.99,,,0.00,0,rob ver 1B,2013-03-19 10:22:00,
2013-03-19 03:23:00,65.6,39.0,29.44,North,3,1.8,2.1,37,-99.99,,,0.00,0,rob ver 1B,2013-03-19 10:23:00,
2013-03-19 03:24:00,65.5,38.9,29.44,North,4,1.7,1.9,37,-99.99,,,0.00,0,rob ver 1B,2013-03-19 10:24:00,
2013-03-19 03:25:00,65.4,38.7,29.44,North,11,1.7,2.0,37,-99.99,,,0.00,0,rob ver 1B,2013-03-19 10:25:00,
2013-03-19 03:26:00,63.5,39.8,29.38,ESE,105,1.4,2.4,41,-99.99,,,0.00,0,rob ver 1A,2013-03-19 10:26:00,
2013-03-19 03:27:00,65.1,38.3,29.44,NNE,13,2.5,2.7,36,-99.99,,,0.00,0,rob ver 1B,2013-03-19 10:27:00,
2013-03-19 03:28:00,64.8,38.0,29.44,NNE,17,2.6,2.9,37,-99.99,,,0.00,0,rob ver 1B,2013-03-19 10:28:00,
2013-03-19 03:29:00,64.6,38.2,29.44,NNE,17,2.6,2.9,38,-99.99,,,0.00,0,rob ver 1B,2013-03-19 10:29:00,
2013-03-19 03:30:00,64.7,38.9,29.44,NNE,27,2.6,3.2,38,-99.99,,,0.00,0,rob ver 1B,2013-03-19 10:30:00,
2013-03-19 03:31:00,63.5,39.8,29.38,SSW,194,1.8,2.9,41,-99.99,,,0.00,0,rob ver 1A,2013-03-19 10:31:00,
2013-03-19 03:32:00,65.2,38.8,29.44,NNE,32,2.0,2.6,37,-99.99,,,0.00,0,rob ver 1B,2013-03-19 10:32:00,
2013-03-19 03:33:00,65.3,39.0,29.44,NE,42,2.2,2.7,38,-99.99,,,0.00,0,rob ver 1B,2013-03-19 10:33:00,
2013-03-19 03:34:00,65.4,39.2,29.44,NE,40,2.4,3.1,37,-99.99,,,0.00,0,rob ver 1B,2013-03-19 10:34:00,
2013-03-19 03:35:00,65.5,39.3,29.44,NE,47,2.4,2.9,38,-99.99,,,0.00,0,rob ver 1B,2013-03-19 10:35:00,
2013-03-19 03:36:00,63.5,39.6,29.38,SSW,192,3.1,4.2,41,-99.99,,,0.00,0,rob ver 1A,2013-03-19 10:36:00,
2013-03-19 03:37:00,65.8,38.9,29.44,NE,48,2.3,2.7,37,-99.99,,,0.00,0,rob ver 1B,2013-03-19 10:37:00,
2013-03-19 03:38:00,65.8,38.9,29.44,NE,47,2.3,2.5,37,-99.99,,,0.00,0,rob ver 1B,2013-03-19 10:38:00,
2013-03-19 03:39:00,65.8,39.3,29.44,NE,42,2.0,2.2,37,-99.99,,,0.00,0,rob ver 1B,2013-03-19 10:39:00,
2013-03-19 03:40:00,65.9,39.1,29.44,NE,51,1.8,2.0,37,-99.99,,,0.00,0,rob ver 1B,2013-03-19 10:40:00,
2013-03-19 03:41:00,63.3,39.4,29.38,SSW,213,4.1,5.0,41,-99.99,,,0.00,0,rob ver 1A,2013-03-19 10:41:00,
2013-03-19 03:42:00,66.2,39.4,29.44,ENE,63,1.3,1.8,37,-99.99,,,0.00,0,rob ver 1B,2013-03-19 10:42:00,
2013-03-19 03:43:00,66.4,39.4,29.44,ENE,61,0.9,1.2,36,-99.99,,,0.00,0,rob ver 1B,2013-03-19 10:43:00,
2013-03-19 03:44:00,66.6,39.4,29.44,ENE,63,0.7,0.9,36,-99.99,,,0.00,0,rob ver 1B,2013-03-19 10:44:00,
2013-03-19 03:45:00,66.7,39.3,29.44,NE,53,0.8,1.2,36,-99.99,,,0.00,0,rob ver 1B,2013-03-19 10:45:00,
2013-03-19 03:46:00,63.1,39.4,29.38,SSW,209,2.9,3.6,41,-99.99,,,0.00,0,rob ver 1A,2013-03-19 10:46:00,
2013-03-19 03:47:00,67.0,39.3,29.44,NE,44,0.6,0.9,36,-99.99,,,0.00,0,rob ver 1B,2013-03-19 10:47:00,
2013-03-19 03:48:00,67.1,39.1,29.44,NNE,33,0.8,1.1,35,-99.99,,,0.00,0,rob ver 1B,2013-03-19 10:48:00,
2013-03-19 03:49:00,67.2,38.9,29.44,NNE,27,1.0,1.1,35,-99.99,,,0.00,0,rob ver 1B,2013-03-19 10:49:00,
2013-03-19 03:50:00,67.2,38.9,29.44,NNE,33,0.9,1.1,35,-99.99,,,0.00,0,rob ver 1B,2013-03-19 10:50:00,
2013-03-19 03:51:00,62.9,39.4,29.38,SSW,205,2.6,3.0,41,-99.99,,,0.00,0,rob ver 1A,2013-03-19 10:51:00,
2013-03-19 03:52:00,67.1,39.1,29.44,NE,37,1.1,1.2,35,-99.99,,,0.00,0,rob ver 1B,2013-03-19 10:52:00,
2013-03-19 03:53:00,67.1,38.9,29.44,NE,40,1.1,1.3,35,-99.99,,,0.00,0,rob ver 1B,2013-03-19 10:53:00,
2013-03-19 03:54:00,67.1,38.5,29.44,NE,41,1.3,1.5,35,-99.99,,,0.00,0,rob ver 1B,2013-03-19 10:54:00,
2013-03-19 03:55:00,66.9,39.2,29.44,NE,40,1.1,1.3,36,-99.99,,,0.00,0,rob ver 1B,2013-03-19 10:55:00,
2013-03-19 03:56:00,62.5,39.4,29.38,South,176,1.2,1.9,42,-99.99,,,0.00,0,rob ver 1A,2013-03-19 10:56:00,
2013-03-19 03:57:00,66.8,39.2,29.44,NNE,24,1.1,1.4,35,-99.99,,,0.00,0,rob ver 1B,2013-03-19 10:57:00,
2013-03-19 03:58:00,66.8,39.1,29.44,NNE,18,1.0,1.2,36,-99.99,,,0.00,0,rob ver 1B,2013-03-19 10:58:00,
2013-03-19 03:59:00,66.8,39.0,29.44,NNE,23,1.1,1.3,34,-99.99,,,0.00,0,rob ver 1B,2013-03-19 10:59:00,
2013-03-19 04:00:00,66.8,39.0,29.44,NNE,31,0.8,1.3,36,-99.99,,,0.00,0,rob ver 1B,2013-03-19 11:00:00,
2013-03-19 04:01:00,62.1,39.4,29.38,SE,132,1.0,1.6,43,-99.99,,,0.00,0,rob ver 1A,2013-03-19 11:01:00,
2013-03-19 04:02:00,66.8,39.3,29.44,East,97,0.8,1.2,36,-99.99,,,0.00,0,rob ver 1B,2013-03-19 11:02:00,
2013-03-19 04:03:00,66.8,39.0,29.44,East,85,0.6,1.3,36,-99.99,,,0.00,0,rob ver 1B,2013-03-19 11:03:00,
2013-03-19 04:04:00,66.7,39.1,29.44,SE,145,0.8,1.6,36,-99.99,,,0.00,0,rob ver 1B,2013-03-19 11:04:00,
2013-03-19 04:05:00,66.7,39.0,29.44,SSE,151,1.1,1.6,34,-99.99,,,0.00,0,rob ver 1B,2013-03-19 11:05:00,
2013-03-19 04:06:00,62.0,39.3,29.38,ESE,112,1.2,1.6,43,-99.99,,,0.00,0,rob ver 1A,2013-03-19 11:06:00,
2013-03-19 04:07:00,66.4,38.4,29.44,SSE,161,1.6,2.5,35,-99.99,,,0.00,0,rob ver 1B,2013-03-19 11:07:00,
2013-03-19 04:08:00,66.1,38.6,29.44,South,189,1.5,1.8,36,-99.99,,,0.00,0,rob ver 1B,2013-03-19 11:08:00,
2013-03-19 04:09:00,65.9,38.6,29.44,South,183,1.2,1.6,36,-99.99,,,0.00,0,rob ver 1B,2013-03-19 11:09:00,
2013-03-19 04:10:00,65.9,39.0,29.44,South,183,1.2,1.9,36,-99.99,,,0.00,0,rob ver 1B,2013-03-19 11:10:00,
2013-03-19 04:11:00,65.8,38.7,29.44,SSW,212,0.7,1.6,36,-99.99,,,0.00,0,rob ver 1B,2013-03-19 11:11:00,
2013-03-19 04:12:00,61.8,39.3,29.38,NE,36,2.0,2.4,43,-99.99,,,0.00,0,rob ver 1A,2013-03-19 11:12:00,
2013-03-19 04:13:00,65.7,39.1,29.44,SSE,168,1.0,1.9,37,-99.99,,,0.00,0,rob ver 1B,2013-03-19 11:13:00,
2013-03-19 04:14:00,65.7,39.2,29.44,SSE,156,1.0,1.8,37,-99.99,,,0.00,0,rob ver 1B,2013-03-19 11:14:00,
2013-03-19 04:15:00,65.7,39.1,29.44,ESE,112,0.3,0.7,36,-99.99,,,0.00,0,rob ver 1B,2013-03-19 11:15:00,
2013-03-19 04:16:00,65.7,39.0,29.44,NE,45,0.9,2.0,37,-99.99,,,0.00,0,rob ver 1B,2013-03-19 11:16:00,
2013-03-19 04:17:00,62.1,39.2,29.38,NE,36,1.9,3.0,42,-99.99,,,0.00,0,rob ver 1A,2013-03-19 11:17:00,
2013-03-19 04:18:00,65.7,38.9,29.44,East,92,0.5,0.8,37,-99.99,,,0.00,0,rob ver 1B,2013-03-19 11:18:00,
2013-03-19 04:19:00,65.6,38.9,29.44,NE,53,1.1,1.7,37,-99.99,,,0.00,0,rob ver 1B,2013-03-19 11:19:00,
2013-03-19 04:20:00,65.5,38.9,29.44,NE,45,1.1,1.5,37,-99.99,,,0.00,0,rob ver 1B,2013-03-19 11:20:00,
2013-03-19 04:21:00,65.4,38.9,29.44,NNE,24,1.3,1.8,37,-99.99,,,0.00,0,rob ver 1B,2013-03-19 11:21:00,
2013-03-19 04:22:00,61.7,38.8,29.38,North,359,2.5,3.0,42,-99.99,,,0.00,0,rob ver 1A,2013-03-19 11:22:00,
2013-03-19 04:23:00,65.1,38.2,29.44,NNE,31,2.0,2.4,35,-99.99,,,0.00,0,rob ver 1B,2013-03-19 11:23:00,
2013-03-19 04:24:00,64.7,37.2,29.44,NNE,23,2.0,3.0,37,-99.99,,,0.00,0,rob ver 1B,2013-03-19 11:24:00,
2013-03-19 04:25:00,64.1,37.7,29.44,NNE,22,2.8,3.1,38,-99.99,,,0.00,0,rob ver 1B,2013-03-19 11:25:00,
2013-03-19 04:26:00,63.6,37.8,29.44,NNE,22,2.9,3.5,38,-99.99,,,0.00,0,rob ver 1B,2013-03-19 11:26:00,
2013-03-19 04:27:00,60.9,39.0,29.38,East,86,1.3,1.5,44,-99.99,,,0.00,0,rob ver 1A,2013-03-19 11:27:00,
2013-03-19 04:28:00,63.1,38.0,29.44,NNE,13,2.8,3.3,39,-99.99,,,0.00,0,rob ver 1B,2013-03-19 11:28:00,
2013-03-19 04:29:00,62.9,38.0,29.44,North,9,2.3,3.2,39,-99.99,,,0.00,0,rob ver 1B,2013-03-19 11:29:00,
2013-03-19 04:30:00,62.7,38.2,29.44,North,5,2.5,2.9,40,-99.99,,,0.00,0,rob ver 1B,2013-03-19 11:30:00,
2013-03-19 04:31:00,62.6,38.3,29.44,NNE,13,2.5,3.0,40,-99.99,,,0.00,0,rob ver 1B,2013-03-19 11:31:00,
2013-03-19 04:32:00,61.0,38.9,29.38,NNW,336,2.8,3.4,43,-99.99,,,0.00,0,rob ver 1A,2013-03-19 11:32:00,
2013-03-19 04:33:00,62.5,38.2,29.44,NNE,20,2.5,2.8,40,-99.99,,,0.00,0,rob ver 1B,2013-03-19 11:33:00,
2013-03-19 04:34:00,62.5,38.2,29.41,NNE,18,2.4,2.6,40,-99.99,,,0.00,0,rob ver 1B,2013-03-19 11:34:00,
2013-03-19 04:35:00,62.5,38.0,29.41,NNE,19,2.2,2.7,40,-99.99,,,0.00,0,rob ver 1B,2013-03-19 11:35:00,
2013-03-19 04:36:00,62.4,38.1,29.44,NNE,12,2.2,2.6,40,-99.99,,,0.00,0,rob ver 1B,2013-03-19 11:36:00,
2013-03-19 04:37:00,59.7,38.8,29.38,NNW,336,3.0,3.5,45,-99.99,,,0.00,0,rob ver 1A,2013-03-19 11:37:00,
2013-03-19 04:38:00,62.2,38.3,29.44,NNE,23,1.7,1.9,41,-99.99,,,0.00,0,rob ver 1B,2013-03-19 11:38:00,
2013-03-19 04:39:00,62.2,38.3,29.44,NNE,24,1.6,1.9,41,-99.99,,,0.00,0,rob ver 1B,2013-03-19 11:39:00,
2013-03-19 04:40:00,62.2,38.5,29.44,NNE,23,2.0,2.2,41,-99.99,,,0.00,0,rob ver 1B,2013-03-19 11:40:00,
2013-03-19 04:41:00,62.2,38.6,29.44,NNE,18,2.1,2.3,41,-99.99,,,0.00,0,rob ver 1B,2013-03-19 11:41:00,
2013-03-19 04:42:00,60.2,39.4,29.38,SE,145,1.1,1.4,45,-99.99,,,0.00,0,rob ver 1A,2013-03-19 11:42:00,
2013-03-19 04:43:00,62.3,38.4,29.44,NNE,12,2.3,2.4,41,-99.99,,,0.00,0,rob ver 1B,2013-03-19 11:43:00,
2013-03-19 04:44:00,62.3,38.4,29.44,NNE,15,2.4,2.6,41,-99.99,,,0.00,0,rob ver 1B,2013-03-19 11:44:00,
2013-03-19 04:45:00,62.3,38.4,29.44,NNE,18,2.8,3.0,41,-99.99,,,0.00,0,rob ver 1B,2013-03-19 11:45:00,
2013-03-19 04:46:00,62.3,38.3,29.44,NNE,21,3.1,3.5,41,-99.99,,,0.00,0,rob ver 1B,2013-03-19 11:46:00,
2013-03-19 04:47:00,62.2,38.3,29.44,NNE,16,3.4,3.7,40,-99.99,,,0.00,0,rob ver 1B,2013-03-19 11:47:00,
2013-03-19 04:48:00,61.8,38.8,29.38,WSW,243,2.2,2.7,42,-99.99,,,0.00,0,rob ver 1A,2013-03-19 11:48:00,
2013-03-19 04:49:00,62.0,38.4,29.41,North,11,3.3,3.6,41,-99.99,,,0.00,0,rob ver 1B,2013-03-19 11:49:00,
2013-03-19 04:50:00,62.1,38.5,29.44,NNE,12,3.2,3.4,41,-99.99,,,0.00,0,rob ver 1B,2013-03-19 11:50:00,
2013-03-19 04:51:00,62.2,38.7,29.44,NNE,15,2.8,3.2,41,-99.99,,,0.00,0,rob ver 1B,2013-03-19 11:51:00,
2013-03-19 04:52:00,62.5,38.7,29.44,North,11,3.0,3.3,40,-99.99,,,0.00,0,rob ver 1B,2013-03-19 11:52:00,
2013-03-19 04:53:00,60.3,38.7,29.38,NW,325,3.9,4.7,45,-99.99,,,0.00,0,rob ver 1A,2013-03-19 11:53:00,
2013-03-19 04:54:00,62.6,38.4,29.41,North,11,3.5,3.6,41,-99.99,,,0.00,0,rob ver 1B,2013-03-19 11:54:00,
2013-03-19 04:55:00,62.6,38.7,29.41,North,7,3.6,3.8,41,-99.99,,,0.00,0,rob ver 1B,2013-03-19 11:55:00,
2013-03-19 04:56:00,62.8,38.8,29.44,North,6,3.7,3.8,40,-99.99,,,0.00,0,rob ver 1B,2013-03-19 11:56:00,
2013-03-19 04:57:00,63.0,38.7,29.44,North,10,3.7,4.0,40,-99.99,,,0.00,0,rob ver 1B,2013-03-19 11:57:00,
2013-03-19 04:58:00,60.1,38.6,29.38,NW,326,3.4,3.8,44,-99.99,,,0.00,0,rob ver 1A,2013-03-19 11:58:00,
2013-03-19 04:59:00,63.1,38.5,29.41,NNE,19,3.8,4.0,39,-99.99,,,0.00,0,rob ver 1B,2013-03-19 11:59:00,
2013-03-19 05:00:00,62.9,38.3,29.44,NNE,21,3.7,3.9,40,-99.99,,,0.00,0,rob ver 1B,2013-03-19 12:00:00,
2013-03-19 05:01:00,62.6,38.4,29.44,NNE,20,3.8,3.9,41,-99.99,,,0.00,0,rob ver 1B,2013-03-19 12:01:00,
2013-03-19 05:02:00,62.6,38.9,29.41,NNE,19,3.9,4.0,41,-99.99,,,0.00,0,rob ver 1B,2013-03-19 12:02:00,
2013-03-19 05:03:00,60.0,38.2,29.38,WNW,290,3.7,4.7,44,-99.99,,,0.00,0,rob ver 1A,2013-03-19 12:03:00,
2013-03-19 05:04:00,62.6,38.7,29.44,NNE,26,3.6,3.7,41,-99.99,,,0.00,0,rob ver 1B,2013-03-19 12:04:00,
2013-03-19 05:05:00,62.6,38.9,29.44,NE,42,3.1,3.6,41,-99.99,,,0.00,0,rob ver 1B,2013-03-19 12:05:00,
2013-03-19 05:06:00,62.7,39.1,29.44,NE,42,3.4,3.9,41,-99.99,,,0.00,0,rob ver 1B,2013-03-19 12:06:00,
2013-03-19 05:07:00,62.9,39.2,29.44,NE,38,3.2,3.4,42,-99.99,,,0.00,0,rob ver 1B,2013-03-19 12:07:00,
2013-03-19 05:08:00,60.8,37.8,29.38,WSW,257,3.6,4.0,41,-99.99,,,0.00,0,rob ver 1A,2013-03-19 12:08:00,
2013-03-19 05:09:00,63.4,39.3,29.44,NE,38,2.5,2.8,41,-99.99,,,0.00,0,rob ver 1B,2013-03-19 12:09:00,
2013-03-19 05:10:00,63.6,39.1,29.44,NE,46,3.0,3.5,39,-99.99,,,0.00,0,rob ver 1B,2013-03-19 12:10:00,
2013-03-19 05:11:00,63.5,38.9,29.44,NE,48,2.7,3.3,40,-99.99,,,0.00,0,rob ver 1B,2013-03-19 12:11:00,
2013-03-19 05:12:00,63.4,38.7,29.41,NE,38,3.3,3.6,39,-99.99,,,0.00,0,rob ver 1B,2013-03-19 12:12:00,
2013-03-19 05:13:00,62.1,36.5,29.38,SW,218,4.5,5.2,38,-99.99,,,0.00,0,rob ver 1A,2013-03-19 12:13:00,
2013-03-19 05:14:00,62.9,38.3,29.44,NE,39,3.9,4.0,40,-99.99,,,0.00,0,rob ver 1B,2013-03-19 12:14:00,
2013-03-19 05:15:00,62.6,38.3,29.44,NE,41,3.6,3.9,40,-99.99,,,0.00,0,rob ver 1B,2013-03-19 12:15:00,
2013-03-19 05:16:00,62.4,38.6,29.41,NE,40,3.5,3.8,41,-99.99,,,0.00,0,rob ver 1B,2013-03-19 12:16:00,
2013-03-19 05:17:00,62.4,38.9,29.41,NE,42,3.0,3.2,41,-99.99,,,0.00,0,rob ver 1B,2013-03-19 12:17:00,
2013-03-19 05:18:00,61.8,35.9,29.38,SW,223,6.3,7.3,38,-99.99,,,0.00,0,rob ver 1A,2013-03-19 12:18:00,
2013-03-19 05:19:00,62.8,39.0,29.41,NE,45,2.7,3.0,40,-99.99,,,0.00,0,rob ver 1B,2013-03-19 12:19:00,
2013-03-19 05:20:00,62.9,38.6,29.44,NE,54,2.7,3.1,40,-99.99,,,0.00,0,rob ver 1B,2013-03-19 12:20:00,
2013-03-19 05:21:00,62.8,38.5,29.41,ENE,66,2.4,2.7,40,-99.99,,,0.00,0,rob ver 1B,2013-03-19 12:21:00,
2013-03-19 05:22:00,62.6,38.6,29.41,ENE,76,2.5,2.9,42,-99.99,,,0.00,0,rob ver 1B,2013-03-19 12:22:00,
2013-03-19 05:23:00,60.9,35.9,29.38,SSW,198,3.7,4.4,39,-99.99,,,0.00,0,rob ver 1A,2013-03-19 12:23:00,
2013-03-19 05:24:00,62.5,38.3,29.44,East,85,2.2,2.5,40,-99.99,,,0.00,0,rob ver 1B,2013-03-19 12:24:00,
2013-03-19 05:25:00,62.3,37.9,29.44,East,95,1.6,1.9,40,-99.99,,,0.00,0,rob ver 1B,2013-03-19 12:25:00,
2013-03-19 05:26:00,61.8,38.1,29.44,ESE,103,1.6,1.9,41,-99.99,,,0.00,0,rob ver 1B,2013-03-19 12:26:00,
2013-03-19 05:27:00,61.6,37.9,29.44,ESE,109,1.4,1.7,41,-99.99,,,0.00,0,rob ver 1B,2013-03-19 12:27:00,
2013-03-19 05:28:00,60.4,36.9,29.38,NNW,343,4.5,5.8,41,-99.99,,,0.00,0,rob ver 1A,2013-03-19 12:28:00,
2013-03-19 05:29:00,61.0,37.7,29.44,SE,146,1.9,2.3,42,-99.99,,,0.00,0,rob ver 1B,2013-03-19 12:29:00,
2013-03-19 05:30:00,60.9,37.7,29.44,ESE,118,2.3,2.7,42,-99.99,,,0.00,0,rob ver 1B,2013-03-19 12:30:00,
2013-03-19 05:31:00,60.8,37.7,29.44,ESE,104,2.3,2.7,42,-99.99,,,0.00,0,rob ver 1B,2013-03-19 12:31:00,
2013-03-19 05:32:00,60.5,37.5,29.44,SE,128,2.0,2.2,42,-99.99,,,0.00,0,rob ver 1B,2013-03-19 12:32:00,
2013-03-19 05:33:00,61.1,36.6,29.38,NNW,336,2.2,2.8,39,-99.99,,,0.00,0,rob ver 1A,2013-03-19 12:33:00,
2013-03-19 05:34:00,60.3,37.7,29.44,SE,126,1.9,2.1,43,-99.99,,,0.00,0,rob ver 1B,2013-03-19 12:34:00,
2013-03-19 05:35:00,60.3,37.9,29.44,ESE,120,2.2,2.4,43,-99.99,,,0.00,0,rob ver 1B,2013-03-19 12:35:00,
2013-03-19 05:36:00,60.4,38.1,29.44,ESE,120,2.2,2.5,43,-99.99,,,0.00,0,rob ver 1B,2013-03-19 12:36:00,
2013-03-19 05:37:00,60.4,37.9,29.44,ESE,118,2.1,2.2,43,-99.99,,,0.00,0,rob ver 1B,2013-03-19 12:37:00,
2013-03-19 05:38:00,61.5,36.3,29.41,West,264,2.7,3.7,39,-99.99,,,0.00,0,rob ver 1A,2013-03-19 12:38:00,
2013-03-19 05:39:00,60.2,37.9,29.44,East,93,2.2,2.5,43,-99.99,,,0.00,0,rob ver 1B,2013-03-19 12:39:00,
2013-03-19 05:40:00,60.3,38.1,29.44,ENE,78,2.7,3.2,43,-99.99,,,0.00,0,rob ver 1B,2013-03-19 12:40:00,
2013-03-19 05:41:00,60.3,38.2,29.44,ENE,73,3.1,3.5,43,-99.99,,,0.00,0,rob ver 1B,2013-03-19 12:41:00,
2013-03-19 05:42:00,60.4,38.2,29.44,ENE,67,2.5,3.8,43,-99.99,,,0.00,0,rob ver 1B,2013-03-19 12:42:00,
2013-03-19 05:43:00,61.5,36.5,29.41,NW,315,3.6,5.0,39,-99.99,,,0.00,0,rob ver 1A,2013-03-19 12:43:00,
2013-03-19 05:44:00,60.4,38.3,29.44,ENE,63,3.8,4.6,43,-99.99,,,0.00,0,rob ver 1B,2013-03-19 12:44:00,
2013-03-19 05:45:00,61.4,36.5,29.41,NW,322,5.0,5.8,39,-99.99,,,0.00,0,rob ver 1A,2013-03-19 12:45:00,
2013-03-19 05:46:00,61.0,36.4,29.41,NNW,340,4.9,5.9,40,-99.99,,,0.00,0,rob ver 1A,2013-03-19 12:46:00,
2013-03-19 05:47:00,60.6,38.3,29.44,NE,45,5.0,5.7,43,-99.99,,,0.00,0,rob ver 1B,2013-03-19 12:47:00,
2013-03-19 05:48:00,60.5,38.3,29.44,NE,43,5.2,6.1,43,-99.99,,,0.00,0,rob ver 1B,2013-03-19 12:48:00,
2013-03-19 05:49:00,61.4,36.5,29.41,NW,322,5.0,5.8,39,-99.99,,,0.00,0,rob ver 1A,2013-03-19 12:49:00,
2013-03-19 05:50:00,60.5,38.4,29.44,NE,45,5.4,6.2,43,-99.99,,,0.00,0,rob ver 1B,2013-03-19 12:50:00,
2013-03-19 05:51:00,60.5,38.4,29.44,NE,45,5.1,5.9,43,-99.99,,,0.00,0,rob ver 1B,2013-03-19 12:51:00,
2013-03-19 05:52:00,60.6,38.5,29.44,NE,47,4.6,5.6,43,-99.99,,,0.00,0,rob ver 1B,2013-03-19 12:52:00,
2013-03-19 05:53:00,60.7,38.5,29.44,NE,48,5.1,5.9,43,-99.99,,,0.00,0,rob ver 1B,2013-03-19 12:53:00,
2013-03-19 05:54:00,61.4,36.5,29.41,NW,322,5.0,5.8,39,-99.99,,,0.00,0,rob ver 1A,2013-03-19 12:54:00,
2013-03-19 05:55:00,60.9,38.5,29.44,NE,41,4.3,5.3,43,-99.99,,,0.00,0,rob ver 1B,2013-03-19 12:55:00,
2013-03-19 05:56:00,60.9,38.6,29.44,NE,40,3.6,4.1,43,-99.99,,,0.00,0,rob ver 1B,2013-03-19 12:56:00,
2013-03-19 05:57:00,61.0,38.7,29.44,NE,38,3.6,3.9,43,-99.99,,,0.00,0,rob ver 1B,2013-03-19 12:57:00,
2013-03-19 05:58:00,61.1,38.8,29.44,NE,41,4.4,5.4,43,-99.99,,,0.00,0,rob ver 1B,2013-03-19 12:58:00,
2013-03-19 05:59:00,60.1,37.0,29.41,North,2,2.7,3.1,41,-99.99,,,0.00,0,rob ver 1A,2013-03-19 12:59:00,
2013-03-19 06:00:00,61.2,38.7,29.44,NE,42,5.7,6.7,43,-99.99,,,0.00,0,rob ver 1B,2013-03-19 13:00:00,
2013-03-19 06:01:00,61.3,38.7,29.44,NE,41,5.8,6.7,42,-99.99,,,0.00,0,rob ver 1B,2013-03-19 13:01:00,
2013-03-19 06:02:00,61.2,38.6,29.44,NE,41,4.9,5.5,43,-99.99,,,0.00,0,rob ver 1B,2013-03-19 13:02:00,
2013-03-19 06:03:00,61.1,38.6,29.44,NE,42,4.2,5.1,43,-99.99,,,0.00,0,rob ver 1B,2013-03-19 13:03:00,
2013-03-19 06:04:00,60.3,36.6,29.41,SSE,149,1.2,1.9,41,-99.99,,,0.00,0,rob ver 1A,2013-03-19 13:04:00,
2013-03-19 06:05:00,61.2,38.8,29.44,NE,44,4.3,4.9,43,-99.99,,,0.00,0,rob ver 1B,2013-03-19 13:05:00,
2013-03-19 06:06:00,61.3,38.9,29.44,NE,47,4.0,4.9,43,-99.99,,,0.00,0,rob ver 1B,2013-03-19 13:06:00,
2013-03-19 06:07:00,61.4,38.9,29.44,NE,44,4.0,4.8,43,-99.99,,,0.00,0,rob ver 1B,2013-03-19 13:07:00,
2013-03-19 06:08:00,61.5,38.9,29.41,NE,44,4.2,4.7,43,-99.99,,,0.00,0,rob ver 1B,2013-03-19 13:08:00,
2013-03-19 06:09:00,60.0,36.5,29.41,North,9,0.7,1.0,41,-99.99,,,0.00,0,rob ver 1A,2013-03-19 13:09:00,
2013-03-19 06:10:00,61.7,39.0,29.44,NE,45,3.6,4.1,42,-99.99,,,0.00,0,rob ver 1B,2013-03-19 13:10:00,
2013-03-19 06:11:00,61.7,38.9,29.44,NE,41,3.4,3.9,42,-99.99,,,0.00,0,rob ver 1B,2013-03-19 13:11:00,
2013-03-19 06:12:00,61.8,39.0,29.41,NE,39,3.2,3.6,42,-99.99,,,0.00,0,rob ver 1B,2013-03-19 13:12:00,
2013-03-19 06:13:00,61.8,39.1,29.41,NE,36,2.9,3.3,42,-99.99,,,0.00,0,rob ver 1B,2013-03-19 13:13:00,
2013-03-19 06:14:00,60.3,36.3,29.41,SSE,162,0.6,1.2,40,-99.99,,,0.00,0,rob ver 1A,2013-03-19 13:14:00,
2013-03-19 06:15:00,62.1,39.1,29.44,NNE,32,3.0,3.4,42,-99.99,,,0.00,0,rob ver 1B,2013-03-19 13:15:00,
2013-03-19 06:16:00,62.2,39.2,29.44,NNE,30,3.1,3.4,42,-99.99,,,0.00,0,rob ver 1B,2013-03-19 13:16:00,
2013-03-19 06:17:00,62.3,39.3,29.44,NNE,25,2.8,3.0,42,-99.99,,,0.00,0,rob ver 1B,2013-03-19 13:17:00,
2013-03-19 06:18:00,62.5,39.4,29.44,NNE,27,2.5,2.9,42,-99.99,,,0.00,0,rob ver 1B,2013-03-19 13:18:00,
2013-03-19 06:19:00,60.4,35.9,29.41,SSW,211,1.4,2.5,39,-99.99,,,0.00,0,rob ver 1A,2013-03-19 13:19:00,
2013-03-19 06:20:00,63.0,39.5,29.44,North,9,1.9,2.1,41,-99.99,,,0.00,0,rob ver 1B,2013-03-19 13:20:00,
2013-03-19 06:21:00,63.2,39.4,29.44,NNW,348,1.5,1.7,40,-99.99,,,0.00,0,rob ver 1B,2013-03-19 13:21:00,
2013-03-19 06:22:00,60.6,35.9,29.41,SSW,208,1.4,1.8,39,-99.99,,,0.00,0,rob ver 1A,2013-03-19 13:22:00,
2013-03-19 06:23:00,63.4,39.3,29.44,NW,305,1.1,1.4,40,-99.99,,,0.00,0,rob ver 1B,2013-03-19 13:23:00,
2013-03-19 06:24:00,60.7,35.8,29.41,SW,221,1.7,2.7,38,-99.99,,,0.00,0,rob ver 1A,2013-03-19 13:24:00,
2013-03-19 06:25:00,63.5,39.4,29.44,East,87,0.9,1.5,41,-99.99,,,0.00,.164,rob ver 1B,2013-03-19 13:25:00,
2013-03-19 06:26:00,63.6,39.7,29.44,East,95,2.0,3.0,41,-99.99,,,0.00,.328,rob ver 1B,2013-03-19 13:26:00,
2013-03-19 06:27:00,64.0,39.9,29.44,East,97,2.5,3.0,40,-99.99,,,0.00,.328,rob ver 1B,2013-03-19 13:27:00,
2013-03-19 06:28:00,64.4,39.9,29.44,East,99,2.0,2.7,40,-99.99,,,0.00,.328,rob ver 1B,2013-03-19 13:28:00,
2013-03-19 06:29:00,60.6,35.5,29.41,SSW,199,2.1,2.6,38,-99.99,,,0.00,.328,rob ver 1A,2013-03-19 13:29:00,
2013-03-19 06:30:00,64.1,39.1,29.44,ESE,118,1.6,2.1,40,-99.99,,,0.00,.328,rob ver 1B,2013-03-19 13:30:00,
2013-03-19 06:31:00,63.8,38.4,29.44,SE,138,2.0,2.5,39,-99.99,,,0.00,.328,rob ver 1B,2013-03-19 13:31:00,
2013-03-19 06:32:00,63.0,38.1,29.44,SE,129,2.5,3.0,39,-99.99,,,0.00,.328,rob ver 1B,2013-03-19 13:32:00,
2013-03-19 06:33:00,62.2,37.9,29.44,ESE,116,3.2,3.7,40,-99.99,,,0.00,.328,rob ver 1B,2013-03-19 13:33:00,
2013-03-19 06:34:00,60.8,35.3,29.41,SW,217,1.6,2.1,38,-99.99,,,0.00,.657,rob ver 1A,2013-03-19 13:34:00,
2013-03-19 06:35:00,60.9,37.9,29.44,ESE,103,4.1,4.4,42,-99.99,,,0.00,.821,rob ver 1B,2013-03-19 13:35:00,
2013-03-19 06:36:00,60.7,35.3,29.41,WSW,244,0.9,1.5,38,-99.99,,,0.00,.821,rob ver 1A,2013-03-19 13:36:00,
2013-03-19 06:37:00,60.3,38.0,29.44,East,98,3.9,4.3,43,-99.99,,,0.00,.985,rob ver 1B,2013-03-19 13:37:00,
2013-03-19 06:38:00,60.1,38.2,29.44,East,93,4.0,4.2,44,-99.99,,,0.00,.985,rob ver 1B,2013-03-19 13:38:00,
2013-03-19 06:39:00,60.0,38.2,29.44,East,81,3.8,4.6,44,-99.99,,,0.00,1.149,rob ver 1B,2013-03-19 13:39:00,
2013-03-19 06:40:00,60.5,35.5,29.41,NW,321,2.6,2.8,39,-99.99,,,0.00,1.15,rob ver 1A,2013-03-19 13:40:00,
2013-03-19 06:41:00,59.8,38.1,29.44,ENE,65,3.4,4.2,44,-99.99,,,0.00,1.642,rob ver 1B,2013-03-19 13:41:00,
2013-03-19 06:42:00,59.7,38.0,29.44,ENE,60,3.8,4.7,44,-99.99,,,0.00,1.97,rob ver 1B,2013-03-19 13:42:00,
2013-03-19 06:43:00,59.6,37.9,29.44,ENE,68,3.4,4.3,44,-99.99,,,0.00,2.299,rob ver 1B,2013-03-19 13:43:00,
2013-03-19 06:44:00,59.5,38.0,29.44,ENE,60,3.9,4.7,44,-99.99,,,0.00,3.284,rob ver 1B,2013-03-19 13:44:00,
2013-03-19 06:45:00,59.4,35.5,29.41,North,358,1.4,1.8,40,-99.99,,,0.00,2.299,rob ver 1A,2013-03-19 13:45:00,
2013-03-19 06:46:00,59.4,38.1,29.44,NE,49,3.0,4.3,45,-99.99,,,0.00,4.597,rob ver 1B,2013-03-19 13:46:00,
2013-03-19 06:47:00,59.5,38.3,29.44,NE,53,3.6,4.2,45,-99.99,,,0.00,5.582,rob ver 1B,2013-03-19 13:47:00,
2013-03-19 06:48:00,59.5,38.3,29.44,ENE,60,3.2,4.1,45,-99.99,,,0.00,6.567,rob ver 1B,2013-03-19 13:48:00,
2013-03-19 06:49:00,59.6,38.4,29.44,ENE,61,3.3,3.8,45,-99.99,,,0.00,7.88,rob ver 1B,2013-03-19 13:49:00,
2013-03-19 06:50:00,59.7,35.3,29.41,NE,43,2.4,2.7,39,-99.99,,,0.00,5.255,rob ver 1A,2013-03-19 13:50:00,
2013-03-19 06:51:00,59.7,38.5,29.44,ENE,72,2.0,2.5,45,-99.99,,,0.00,10.18,rob ver 1B,2013-03-19 13:51:00,
2013-03-19 06:52:00,59.8,38.5,29.44,East,80,2.1,2.5,45,-99.99,,,0.00,11.66,rob ver 1B,2013-03-19 13:52:00,
2013-03-19 06:53:00,59.8,38.5,29.44,East,85,1.9,2.4,44,-99.99,,,0.00,13.13,rob ver 1B,2013-03-19 13:53:00,
2013-03-19 06:54:00,59.9,38.5,29.44,East,97,1.9,2.3,44,-99.99,,,0.00,14.78,rob ver 1B,2013-03-19 13:54:00,
2013-03-19 06:55:00,60.3,35.2,29.41,ENE,78,1.4,1.7,38,-99.99,,,0.00,10.51,rob ver 1A,2013-03-19 13:55:00,
2013-03-19 06:56:00,59.9,38.2,29.44,SE,125,2.3,2.5,44,-99.99,,,0.00,20.36,rob ver 1B,2013-03-19 13:56:00,
2013-03-19 06:57:00,59.9,38.4,29.44,SE,128,2.5,2.7,44,-99.99,,,0.00,22,rob ver 1B,2013-03-19 13:57:00,
2013-03-19 06:58:00,60.0,38.3,29.44,SE,132,2.5,2.8,44,-99.99,,,0.00,21.67,rob ver 1B,2013-03-19 13:58:00,
2013-03-19 06:59:00,60.0,38.2,29.44,SE,130,2.6,2.9,44,-99.99,,,0.00,21.02,rob ver 1B,2013-03-19 13:59:00,
2013-03-19 07:00:00,60.6,35.0,29.41,NNE,16,2.1,2.5,38,-99.99,,,0.00,16.42,rob ver 1A,2013-03-19 14:00:00,
2013-03-19 07:01:00,60.1,38.2,29.44,SE,124,3.1,3.2,44,-99.99,,,0.00,22.99,rob ver 1B,2013-03-19 14:01:00,
2013-03-19 07:02:00,60.1,38.3,29.47,ESE,122,3.1,3.2,44,-99.99,,,0.00,24.3,rob ver 1B,2013-03-19 14:02:00,
2013-03-19 07:03:00,60.2,38.5,29.44,ESE,118,3.2,3.4,44,-99.99,,,0.00,25.61,rob ver 1B,2013-03-19 14:03:00,
2013-03-19 07:04:00,60.3,38.8,29.44,ESE,114,3.3,3.5,45,-99.99,,,0.00,26.93,rob ver 1B,2013-03-19 14:04:00,
2013-03-19 07:05:00,60.4,34.9,29.41,ENE,57,1.4,1.9,38,-99.99,,,0.00,22.99,rob ver 1A,2013-03-19 14:05:00,
2013-03-19 07:06:00,61.1,38.8,29.47,ESE,106,3.7,3.8,43,-99.99,,,0.00,29.55,rob ver 1B,2013-03-19 14:06:00,
2013-03-19 07:07:00,61.1,39.1,29.47,East,98,3.6,3.7,44,-99.99,,,0.00,31.52,rob ver 1B,2013-03-19 14:07:00,
2013-03-19 07:08:00,61.3,39.1,29.44,East,88,3.7,3.9,43,-99.99,,,0.00,32.84,rob ver 1B,2013-03-19 14:08:00,
2013-03-19 07:09:00,61.5,39.1,29.44,East,87,4.0,4.2,43,-99.99,,,0.00,34.15,rob ver 1B,2013-03-19 14:09:00,
2013-03-19 07:10:00,61.0,34.6,29.44,SSW,201,1.6,2.1,36,-99.99,,,0.00,27.43,rob ver 1A,2013-03-19 14:10:00,
2013-03-19 07:11:00,61.6,38.9,29.47,ENE,75,4.4,4.8,42,-99.99,,,0.00,36.78,rob ver 1B,2013-03-19 14:11:00,
2013-03-19 07:12:00,61.5,38.9,29.47,ENE,66,3.9,4.8,43,-99.99,,,0.00,38.09,rob ver 1B,2013-03-19 14:12:00,
2013-03-19 07:13:00,61.5,39.0,29.47,ENE,66,3.8,4.8,43,-99.99,,,0.00,39.4,rob ver 1B,2013-03-19 14:13:00,
2013-03-19 07:14:00,61.5,39.1,29.47,ENE,67,3.2,4.4,43,-99.99,,,0.00,41.05,rob ver 1B,2013-03-19 14:14:00,
2013-03-19 07:15:00,60.9,34.6,29.44,SSE,167,2.4,2.7,37,-99.99,,,0.00,31.53,rob ver 1A,2013-03-19 14:15:00,
2013-03-19 07:16:00,61.6,39.1,29.47,ENE,73,2.1,2.7,43,-99.99,,,0.00,45.32,rob ver 1B,2013-03-19 14:16:00,
2013-03-19 07:17:00,61.6,39.0,29.47,ENE,77,1.5,2.1,43,-99.99,,,0.00,49.91,rob ver 1B,2013-03-19 14:17:00,
2013-03-19 07:18:00,61.6,38.8,29.47,East,90,1.6,1.9,42,-99.99,,,0.00,61.08,rob ver 1B,2013-03-19 14:18:00,
2013-03-19 07:19:00,61.6,38.7,29.47,ESE,112,1.6,1.8,42,-99.99,,,0.00,68.96,rob ver 1B,2013-03-19 14:19:00,
2013-03-19 07:20:00,60.3,34.8,29.44,SE,142,2.1,2.3,38,-99.99,,,0.00,51.9,rob ver 1A,2013-03-19 14:20:00,
2013-03-19 07:21:00,61.5,38.6,29.47,ESE,116,1.8,2.2,42,-99.99,,,0.00,77.5,rob ver 1B,2013-03-19 14:21:00,
2013-03-19 07:22:00,61.6,38.7,29.47,ESE,108,2.0,2.3,42,-99.99,,,0.00,76.2,rob ver 1B,2013-03-19 14:22:00,
2013-03-19 07:23:00,61.6,38.7,29.47,ESE,111,2.3,2.6,42,-99.99,,,0.00,68.63,rob ver 1B,2013-03-19 14:23:00,
2013-03-19 07:24:00,61.5,38.7,29.47,ESE,107,2.6,2.9,42,-99.99,,,0.00,68.96,rob ver 1B,2013-03-19 14:24:00,
2013-03-19 07:25:00,61.4,38.7,29.47,East,93,3.2,3.6,43,-99.99,,,0.00,75.4,rob ver 1B,2013-03-19 14:25:00,
2013-03-19 07:26:00,61.2,34.8,29.44,SSE,161,1.2,1.3,37,-99.99,,,0.00,89.3,rob ver 1A,2013-03-19 14:26:00,
2013-03-19 07:27:00,61.5,39.0,29.47,ENE,74,3.3,4.0,43,-99.99,,,0.00,84.1,rob ver 1B,2013-03-19 14:27:00,
2013-03-19 07:28:00,61.7,39.1,29.47,ENE,70,2.7,3.4,42,-99.99,,,0.00,96.2,rob ver 1B,2013-03-19 14:28:00,
2013-03-19 07:29:00,61.9,39.0,29.47,ENE,69,2.7,3.9,42,-99.99,,,0.00,114.9,rob ver 1B,2013-03-19 14:29:00,
2013-03-19 07:30:00,62.2,39.0,29.47,ENE,66,2.8,3.8,42,-99.99,,,0.00,103.8,rob ver 1B,2013-03-19 14:30:00,
2013-03-19 07:31:00,61.7,34.3,29.44,ESE,122,1.8,2.1,35,-99.99,,,0.00,123.5,rob ver 1A,2013-03-19 14:31:00,
2013-03-19 07:32:00,62.4,38.9,29.47,NE,49,2.8,3.4,41,-99.99,,,0.00,126.8,rob ver 1B,2013-03-19 14:32:00,
2013-03-19 07:33:00,62.5,38.9,29.47,NE,47,2.7,3.2,41,-99.99,,,0.00,130.4,rob ver 1B,2013-03-19 14:33:00,
2013-03-19 07:34:00,62.7,38.9,29.47,NE,53,2.4,2.9,41,-99.99,,,0.00,105.2,rob ver 1B,2013-03-19 14:34:00,
2013-03-19 07:35:00,62.7,38.9,29.47,ENE,68,2.1,2.8,41,-99.99,,,0.00,107.1,rob ver 1B,2013-03-19 14:35:00,
2013-03-19 07:36:00,61.2,35.0,29.44,ESE,120,3.0,3.2,37,-99.99,,,0.00,162.9,rob ver 1A,2013-03-19 14:36:00,
2013-03-19 07:37:00,62.4,38.7,29.47,ESE,102,2.5,3.5,41,-99.99,,,0.00,154.3,rob ver 1B,2013-03-19 14:37:00,
2013-03-19 07:38:00,62.5,38.8,29.47,East,89,2.2,3.8,41,-99.99,,,0.00,142.2,rob ver 1B,2013-03-19 14:38:00,
2013-03-19 07:40:00,62.8,39.1,29.47,NE,48,1.7,3.5,41,-99.99,,,0.00,134.8,rob ver 1B,2013-03-19 14:40:00,
2013-03-19 07:41:00,62.6,35.1,29.44,ESE,108,0.4,1.4,35,-99.99,,,0.00,163.6,rob ver 1A,2013-03-19 14:41:00,
2013-03-19 07:42:00,63.1,39.1,29.47,East,94,3.1,4.0,41,-99.99,,,0.00,124.8,rob ver 1B,2013-03-19 14:42:00,
2013-03-19 07:43:00,63.1,39.1,29.47,NE,40,1.8,2.6,40,-99.99,,,0.00,123,rob ver 1B,2013-03-19 14:43:00,
2013-03-19 07:44:00,63.3,39.2,29.47,NNE,26,1.4,1.7,40,-99.99,,,0.00,131.4,rob ver 1B,2013-03-19 14:44:00,
2013-03-19 07:45:00,63.6,39.3,29.47,North,6,1.1,1.4,40,-99.99,,,0.00,151.2,rob ver 1B,2013-03-19 14:45:00,
2013-03-19 07:46:00,64.3,34.6,29.44,South,186,0.7,1.1,33,-99.99,,,0.00,146.2,rob ver 1A,2013-03-19 14:46:00,
2013-03-19 07:47:00,64.4,39.5,29.47,NNE,18,1.0,1.8,39,-99.99,,,0.00,169.4,rob ver 1B,2013-03-19 14:47:00,
2013-03-19 07:48:00,64.8,39.5,29.47,North,8,1.0,1.5,39,-99.99,,,0.00,190,rob ver 1B,2013-03-19 14:48:00,
2013-03-19 07:49:00,65.2,39.6,29.47,NNE,33,1.4,2.1,38,-99.99,,,0.00,201,rob ver 1B,2013-03-19 14:49:00,
2013-03-19 07:50:00,65.5,39.6,29.47,North,357,1.9,2.3,38,-99.99,,,0.00,211.5,rob ver 1B,2013-03-19 14:50:00,
2013-03-19 07:51:00,63.2,34.3,29.44,South,176,2.1,2.7,34,-99.99,,,0.00,139.9,rob ver 1A,2013-03-19 14:51:00,
2013-03-19 07:52:00,65.9,39.6,29.47,NW,308,1.8,2.2,38,-99.99,,,0.00,223.6,rob ver 1B,2013-03-19 14:52:00,
2013-03-19 07:53:00,66.0,39.7,29.47,NW,304,1.8,2.2,38,-99.99,,,0.00,202.9,rob ver 1B,2013-03-19 14:53:00,
2013-03-19 07:54:00,66.1,39.8,29.47,NW,321,1.6,2.2,37,-99.99,,,0.00,198.3,rob ver 1B,2013-03-19 14:54:00,
2013-03-19 07:55:00,66.2,39.9,29.47,NNW,335,1.8,2.8,38,-99.99,,,0.00,210.2,rob ver 1B,2013-03-19 14:55:00,
2013-03-19 07:56:00,64.1,34.8,29.44,SW,224,0.4,0.7,33,-99.99,,,0.00,131.4,rob ver 1A,2013-03-19 14:56:00,
2013-03-19 07:57:00,66.5,39.9,29.47,NNW,347,2.0,2.5,37,-99.99,,,0.00,222,rob ver 1B,2013-03-19 14:57:00,
2013-03-19 07:58:00,66.8,40.0,29.47,NNW,338,1.6,2.1,37,-99.99,,,0.00,218.7,rob ver 1B,2013-03-19 14:58:00,
2013-03-19 07:59:00,67.1,40.0,29.47,NNW,329,1.5,2.0,36,-99.99,,,0.00,219.7,rob ver 1B,2013-03-19 14:59:00,
2013-03-19 08:00:00,67.4,39.9,29.47,NW,309,1.5,2.1,36,-99.99,,,0.00,235.9,rob ver 1B,2013-03-19 15:00:00,
2013-03-19 08:01:00,65.6,35.0,29.44,NE,47,0.7,1.1,31,-99.99,,,0.00,169.5,rob ver 1A,2013-03-19 15:01:00,
2013-03-19 08:02:00,68.0,39.7,29.47,WNW,302,1.7,2.8,35,-99.99,,,0.00,246.3,rob ver 1B,2013-03-19 15:02:00,
2013-03-19 08:03:00,67.9,39.2,29.47,SW,232,2.7,3.3,34,-99.99,,,0.00,260.7,rob ver 1B,2013-03-19 15:03:00,
2013-03-19 08:04:00,67.5,39.3,29.47,SW,235,2.1,2.5,35,-99.99,,,0.00,273.2,rob ver 1B,2013-03-19 15:04:00,
2013-03-19 08:05:00,67.4,39.3,29.47,SW,234,1.9,2.3,35,-99.99,,,0.00,254.2,rob ver 1B,2013-03-19 15:05:00,
2013-03-19 08:06:00,65.8,35.0,29.47,NNE,30,0.9,1.1,31,-99.99,,,0.00,176,rob ver 1A,2013-03-19 15:06:00,
2013-03-19 08:07:00,67.4,39.3,29.47,SW,222,1.9,2.3,35,-99.99,,,0.00,262,rob ver 1B,2013-03-19 15:07:00,
2013-03-19 08:08:00,67.5,39.2,29.47,SSW,211,2.1,2.5,35,-99.99,,,0.00,251.5,rob ver 1B,2013-03-19 15:08:00,
2013-03-19 08:09:00,67.5,38.7,29.47,SSW,209,2.6,2.9,34,-99.99,,,0.00,259.2,rob ver 1B,2013-03-19 15:09:00,
2013-03-19 08:10:00,67.4,38.6,29.47,SSW,198,2.4,3.3,34,-99.99,,,0.00,267.9,rob ver 1B,2013-03-19 15:10:00,
2013-03-19 08:11:00,67.4,38.7,29.47,South,191,1.8,2.4,34,-99.99,,,0.00,261.4,rob ver 1B,2013-03-19 15:11:00,
2013-03-19 08:12:00,66.2,34.9,29.47,SSW,200,1.7,2.4,31,-99.99,,,0.00,244.3,rob ver 1A,2013-03-19 15:12:00,
2013-03-19 08:13:00,67.7,38.8,29.47,SSW,197,1.6,2.2,34,-99.99,,,0.00,205.6,rob ver 1B,2013-03-19 15:13:00,
2013-03-19 08:14:00,67.9,39.0,29.47,SSW,198,1.2,1.7,34,-99.99,,,0.00,218.7,rob ver 1B,2013-03-19 15:14:00,
2013-03-19 08:15:00,68.0,38.9,29.47,South,182,0.8,1.3,34,-99.99,,,0.00,243.6,rob ver 1B,2013-03-19 15:15:00,
2013-03-19 08:16:00,68.3,39.0,29.47,SSW,212,0.8,1.1,33,-99.99,,,0.00,262.7,rob ver 1B,2013-03-19 15:16:00,
2013-03-19 08:17:00,65.2,34.8,29.47,South,187,2.7,3.5,32,-99.99,,,0.00,254.8,rob ver 1A,2013-03-19 15:17:00,
2013-03-19 08:18:00,68.9,39.1,29.47,SW,236,0.5,1.1,33,-99.99,,,0.00,257.4,rob ver 1B,2013-03-19 15:18:00,
2013-03-19 08:19:00,69.2,39.3,29.47,SSW,197,0.6,0.9,33,-99.99,,,0.00,248.2,rob ver 1B,2013-03-19 15:19:00,
2013-03-19 08:20:00,69.5,39.3,29.47,SE,134,0.3,0.7,32,-99.99,,,0.00,255.4,rob ver 1B,2013-03-19 15:20:00,
2013-03-19 08:21:00,69.8,39.2,29.50,East,87,0.4,0.6,32,-99.99,,,0.00,259.4,rob ver 1B,2013-03-19 15:21:00,
2013-03-19 08:22:00,66.5,35.5,29.47,SSW,211,0.5,1.0,31,-99.99,,,0.00,281.1,rob ver 1A,2013-03-19 15:22:00,
2013-03-19 08:23:00,70.7,39.4,29.47,East,85,0.3,0.7,31,-99.99,,,0.00,294.2,rob ver 1B,2013-03-19 15:23:00,
2013-03-19 08:24:00,71.3,39.6,29.47,ENE,73,0.2,0.4,31,-99.99,,,0.00,330.9,rob ver 1B,2013-03-19 15:24:00,
2013-03-19 08:25:00,71.9,39.6,29.47,SSW,196,0.3,0.8,30,-99.99,,,0.00,330.9,rob ver 1B,2013-03-19 15:25:00,
2013-03-19 08:26:00,72.3,39.6,29.50,SSW,212,0.6,1.1,30,-99.99,,,0.00,325,rob ver 1B,2013-03-19 15:26:00,
2013-03-19 08:27:00,66.7,35.0,29.44,SE,132,1.4,2.0,31,-99.99,,,0.00,306.7,rob ver 1A,2013-03-19 15:27:00,
2013-03-19 08:28:00,72.3,39.4,29.50,WSW,257,1.5,1.7,30,-99.99,,,0.00,334.9,rob ver 1B,2013-03-19 15:28:00,
2013-03-19 08:29:00,71.8,39.4,29.50,WSW,249,1.4,2.0,31,-99.99,,,0.00,284.3,rob ver 1B,2013-03-19 15:29:00,
2013-03-19 08:30:00,71.4,39.3,29.47,West,264,1.8,2.7,31,-99.99,,,0.00,267.9,rob ver 1B,2013-03-19 15:30:00,
2013-03-19 08:31:00,70.9,39.3,29.47,West,266,2.0,2.8,31,-99.99,,,0.00,274.8,rob ver 1B,2013-03-19 15:31:00,
2013-03-19 08:32:00,65.5,35.1,29.47,SE,124,1.6,2.2,32,-99.99,,,0.00,321.1,rob ver 1A,2013-03-19 15:32:00,
2013-03-19 08:33:00,70.1,39.4,29.50,West,281,3.0,3.8,32,-99.99,,,0.00,364.4,rob ver 1B,2013-03-19 15:33:00,
2013-03-19 08:34:00,69.8,39.3,29.50,West,267,3.6,4.3,33,-99.99,,,0.00,360.5,rob ver 1B,2013-03-19 15:34:00,
2013-03-19 08:35:00,69.5,39.3,29.50,West,269,3.6,4.2,33,-99.99,,,0.00,344.1,rob ver 1B,2013-03-19 15:35:00,
2013-03-19 08:36:00,69.4,39.4,29.50,West,267,4.0,4.4,33,-99.99,,,0.00,372.3,rob ver 1B,2013-03-19 15:36:00,
2013-03-19 08:37:00,65.7,35.3,29.47,South,170,3.8,5.7,32,-99.99,,,0.00,366.6,rob ver 1A,2013-03-19 15:37:00,
2013-03-19 08:38:00,69.3,39.5,29.50,West,262,3.9,5.2,33,-99.99,,,0.00,323.7,rob ver 1B,2013-03-19 15:38:00,
2013-03-19 08:39:00,69.3,39.5,29.50,West,260,4.1,5.5,33,-99.99,,,0.00,390.7,rob ver 1B,2013-03-19 15:39:00,
2013-03-19 08:40:00,69.1,39.4,29.50,WSW,253,5.5,6.6,33,-99.99,,,0.00,405.9,rob ver 1B,2013-03-19 15:40:00,
2013-03-19 08:41:00,68.7,39.3,29.50,WSW,251,4.2,5.0,34,-99.99,,,0.00,371.6,rob ver 1B,2013-03-19 15:41:00,
2013-03-19 08:42:00,66.1,35.5,29.47,South,177,3.8,4.8,32,-99.99,,,0.00,409.3,rob ver 1A,2013-03-19 15:42:00,
2013-03-19 08:43:00,68.2,39.4,29.50,WSW,256,4.9,5.7,34,-99.99,,,0.00,430.2,rob ver 1B,2013-03-19 15:43:00,
2013-03-19 08:44:00,68.1,39.7,29.50,WSW,255,4.2,4.9,35,-99.99,,,0.00,393.3,rob ver 1B,2013-03-19 15:44:00,
2013-03-19 08:45:00,68.1,39.7,29.50,WSW,251,4.4,5.2,35,-99.99,,,0.00,378.8,rob ver 1B,2013-03-19 15:45:00,
2013-03-19 08:46:00,68.1,39.7,29.50,WSW,255,3.9,4.6,35,-99.99,,,0.00,333.2,rob ver 1B,2013-03-19 15:46:00,
2013-03-19 08:47:00,68.0,39.9,29.50,West,262,4.0,5.2,35,-99.99,,,0.00,233.1,rob ver 1B,2013-03-19 15:47:00,
2013-03-19 08:48:00,66.8,35.6,29.47,South,181,1.6,3.0,31,-99.99,,,0.00,260.2,rob ver 1A,2013-03-19 15:48:00,
2013-03-19 08:49:00,68.1,39.8,29.50,West,277,3.1,3.8,35,-99.99,,,0.00,188.4,rob ver 1B,2013-03-19 15:49:00,
2013-03-19 08:50:00,68.1,39.9,29.50,West,271,3.5,4.4,35,-99.99,,,0.00,371.4,rob ver 1B,2013-03-19 15:50:00,
2013-03-19 08:51:00,68.3,39.8,29.50,West,269,2.9,3.9,35,-99.99,,,0.00,388,rob ver 1B,2013-03-19 15:51:00,
2013-03-19 08:52:00,68.7,39.8,29.50,WNW,294,2.6,3.6,34,-99.99,,,0.00,306.2,rob ver 1B,2013-03-19 15:52:00,
2013-03-19 08:53:00,67.7,36.1,29.47,SSW,206,2.6,3.3,31,-99.99,,,0.00,426.8,rob ver 1A,2013-03-19 15:53:00,
2013-03-19 08:54:00,69.2,39.9,29.50,West,281,2.3,3.1,34,-99.99,,,0.00,382,rob ver 1B,2013-03-19 15:54:00,
2013-03-19 08:55:00,69.4,40.0,29.47,West,280,2.9,4.2,34,-99.99,,,0.00,406.8,rob ver 1B,2013-03-19 15:55:00,
2013-03-19 08:56:00,69.5,40.2,29.47,West,263,2.9,3.6,34,-99.99,,,0.00,409.3,rob ver 1B,2013-03-19 15:56:00,
2013-03-19 08:57:00,69.6,40.1,29.50,West,277,2.1,3.2,34,-99.99,,,0.00,431.2,rob ver 1B,2013-03-19 15:57:00,
2013-03-19 08:58:00,67.1,35.8,29.47,South,179,5.5,7.7,31,-99.99,,,0.00,456.3,rob ver 1A,2013-03-19 15:58:00,
2013-03-19 08:59:00,70.4,40.3,29.47,West,273,1.5,2.2,33,-99.99,,,0.00,430.1,rob ver 1B,2013-03-19 15:59:00,
2013-03-19 09:00:00,70.8,40.5,29.47,West,276,1.4,2.0,33,-99.99,,,0.00,457.3,rob ver 1B,2013-03-19 16:00:00,
2013-03-19 09:01:00,71.0,40.6,29.47,West,280,1.7,2.8,33,-99.99,,,0.00,460.8,rob ver 1B,2013-03-19 16:01:00,
2013-03-19 09:02:00,71.2,40.5,29.47,WNW,283,1.8,3.2,32,-99.99,,,0.00,456.2,rob ver 1B,2013-03-19 16:02:00,
2013-03-19 09:03:00,67.6,36.0,29.47,SSW,208,3.4,4.7,30,-99.99,,,0.00,347,rob ver 1A,2013-03-19 16:03:00,
2013-03-19 09:04:00,71.3,40.4,29.47,West,267,2.9,3.4,32,-99.99,,,0.00,445,rob ver 1B,2013-03-19 16:04:00,
2013-03-19 09:05:00,71.2,40.4,29.47,West,265,2.2,3.2,32,-99.99,,,0.00,415.5,rob ver 1B,2013-03-19 16:05:00,
2013-03-19 09:06:00,71.2,40.3,29.47,West,261,1.9,2.8,32,-99.99,,,0.00,462.4,rob ver 1B,2013-03-19 16:06:00,
2013-03-19 09:07:00,71.4,40.4,29.47,WNW,294,2.1,3.0,32,-99.99,,,0.00,463.7,rob ver 1B,2013-03-19 16:07:00,
2013-03-19 09:08:00,68.0,36.1,29.47,SW,229,3.6,4.9,30,-99.99,,,0.00,401.1,rob ver 1A,2013-03-19 16:08:00,
2013-03-19 09:09:00,72.0,40.6,29.47,NW,304,1.2,2.1,31,-99.99,,,0.00,459.6,rob ver 1B,2013-03-19 16:09:00,
2013-03-19 09:10:00,72.4,40.7,29.47,WNW,302,1.5,2.6,31,-99.99,,,0.00,457.1,rob ver 1B,2013-03-19 16:10:00,
2013-03-19 09:11:00,72.8,40.6,29.47,West,272,1.4,2.2,31,-99.99,,,0.00,468.6,rob ver 1B,2013-03-19 16:11:00,
2013-03-19 09:12:00,72.9,40.6,29.47,WSW,252,1.5,2.8,31,-99.99,,,0.00,469.3,rob ver 1B,2013-03-19 16:12:00,
2013-03-19 09:13:00,68.5,36.4,29.47,South,184,2.0,3.1,30,-99.99,,,0.00,440,rob ver 1A,2013-03-19 16:13:00,
2013-03-19 09:14:00,72.9,40.6,29.50,WNW,295,2.7,3.5,30,-99.99,,,0.00,507.3,rob ver 1B,2013-03-19 16:14:00,
2013-03-19 09:15:00,72.9,40.6,29.50,West,274,1.7,2.3,30,-99.99,,,0.00,527,rob ver 1B,2013-03-19 16:15:00,
2013-03-19 09:16:00,73.1,40.5,29.47,West,272,2.1,3.0,30,-99.99,,,0.00,522.7,rob ver 1B,2013-03-19 16:16:00,
2013-03-19 09:17:00,73.3,40.5,29.50,West,263,2.1,3.0,30,-99.99,,,0.00,514.5,rob ver 1B,2013-03-19 16:17:00,
2013-03-19 09:18:00,73.4,40.5,29.47,West,263,2.1,3.2,30,-99.99,,,0.00,470.4,rob ver 1B,2013-03-19 16:18:00,
2013-03-19 09:19:00,69.3,36.7,29.47,South,186,2.9,5.6,29,-99.99,,,0.00,418.1,rob ver 1A,2013-03-19 16:19:00,
2013-03-19 09:20:00,73.0,40.5,29.50,WSW,257,2.5,3.4,30,-99.99,,,0.00,530.6,rob ver 1B,2013-03-19 16:20:00,
2013-03-19 09:21:00,73.0,40.4,29.50,WNW,282,2.3,3.3,30,-99.99,,,0.00,515.2,rob ver 1B,2013-03-19 16:21:00,
2013-03-19 09:22:00,73.3,40.6,29.50,WNW,297,1.1,1.9,30,-99.99,,,0.00,514.5,rob ver 1B,2013-03-19 16:22:00,
2013-03-19 09:23:00,73.8,40.7,29.50,SW,222,1.9,3.0,29,-99.99,,,0.00,496.1,rob ver 1B,2013-03-19 16:23:00,
2013-03-19 09:24:00,69.2,36.9,29.47,SSW,195,6.7,9.3,30,-99.99,,,0.00,437.8,rob ver 1A,2013-03-19 16:24:00,
2013-03-19 09:25:00,73.8,40.5,29.47,WSW,244,2.1,3.2,30,-99.99,,,0.00,478.7,rob ver 1B,2013-03-19 16:25:00,
2013-03-19 09:26:00,73.7,40.8,29.50,West,270,2.7,4.1,30,-99.99,,,0.00,493.5,rob ver 1B,2013-03-19 16:26:00,
2013-03-19 09:27:00,73.8,40.8,29.50,WSW,252,2.7,4.1,30,-99.99,,,0.00,498.4,rob ver 1B,2013-03-19 16:27:00,
2013-03-19 09:28:00,73.6,40.7,29.50,SW,228,2.1,3.0,30,-99.99,,,0.00,515,rob ver 1B,2013-03-19 16:28:00,
2013-03-19 09:29:00,69.3,37.4,29.47,SSW,209,6.9,8.6,31,-99.99,,,0.00,435.6,rob ver 1A,2013-03-19 16:29:00,
2013-03-19 09:30:00,73.9,40.7,29.47,WSW,250,1.9,2.6,29,-99.99,,,0.00,540.7,rob ver 1B,2013-03-19 16:30:00,
2013-03-19 09:31:00,74.2,40.8,29.47,West,274,2.2,3.8,30,-99.99,,,0.00,521.3,rob ver 1B,2013-03-19 16:31:00,
2013-03-19 09:32:00,74.3,40.8,29.47,West,279,2.8,4.0,29,-99.99,,,0.00,532.8,rob ver 1B,2013-03-19 16:32:00,
2013-03-19 09:33:00,74.2,40.8,29.47,WSW,251,2.0,3.3,30,-99.99,,,0.00,529.9,rob ver 1B,2013-03-19 16:33:00,
2013-03-19 09:34:00,69.5,37.9,29.47,SSW,203,7.3,8.4,31,-99.99,,,0.00,464.7,rob ver 1A,2013-03-19 16:34:00,
2013-03-19 09:35:00,75.1,40.8,29.47,WNW,297,1.6,2.9,29,-99.99,,,0.00,558.1,rob ver 1B,2013-03-19 16:35:00,
2013-03-19 09:36:00,75.5,40.9,29.47,West,277,1.1,2.8,28,-99.99,,,0.00,568.1,rob ver 1B,2013-03-19 16:36:00,
2013-03-19 09:37:00,75.8,40.7,29.47,WNW,285,1.2,2.1,28,-99.99,,,0.00,570.4,rob ver 1B,2013-03-19 16:37:00,
2013-03-19 09:38:00,76.0,40.7,29.47,ESE,115,0.4,1.0,27,-99.99,,,0.00,596.4,rob ver 1B,2013-03-19 16:38:00,
2013-03-19 09:39:00,69.5,38.4,29.47,SSW,198,7.3,9.5,32,-99.99,,,0.00,524.9,rob ver 1A,2013-03-19 16:39:00,
2013-03-19 09:40:00,76.5,40.6,29.47,SW,236,1.8,2.6,27,-99.99,,,0.00,611.2,rob ver 1B,2013-03-19 16:40:00,
2013-03-19 09:41:00,76.6,40.6,29.47,SW,221,1.2,1.8,27,-99.99,,,0.00,602.3,rob ver 1B,2013-03-19 16:41:00,
2013-03-19 09:42:00,76.7,40.5,29.47,WSW,241,2.3,3.4,27,-99.99,,,0.00,610.5,rob ver 1B,2013-03-19 16:42:00,
2013-03-19 09:43:00,76.4,40.6,29.47,SW,227,1.6,2.3,28,-99.99,,,0.00,617.7,rob ver 1B,2013-03-19 16:43:00,
2013-03-19 09:44:00,70.1,38.4,29.47,SSW,203,7.6,10.4,31,-99.99,,,0.00,534.9,rob ver 1A,2013-03-19 16:44:00,
2013-03-19 09:45:00,76.5,40.5,29.47,SE,138,0.5,1.1,27,-99.99,,,0.00,653.4,rob ver 1B,2013-03-19 16:45:00,
2013-03-19 09:46:00,76.9,40.4,29.47,East,80,1.2,1.6,26,-99.99,,,0.00,666.9,rob ver 1B,2013-03-19 16:46:00,
2013-03-19 09:47:00,77.1,40.2,29.47,East,98,1.3,2.0,26,-99.99,,,0.00,690.5,rob ver 1B,2013-03-19 16:47:00,
2013-03-19 09:48:00,77.0,40.2,29.47,East,79,1.2,2.0,26,-99.99,,,0.00,720,rob ver 1B,2013-03-19 16:48:00,
2013-03-19 09:49:00,70.3,37.8,29.47,SSW,200,9.5,11.5,30,-99.99,,,0.00,385.9,rob ver 1A,2013-03-19 16:49:00,
2013-03-19 09:50:00,77.5,40.0,29.47,SE,138,1.8,3.3,25,-99.99,,,0.00,664.2,rob ver 1B,2013-03-19 16:50:00,
2013-03-19 09:51:00,77.0,39.1,29.47,South,170,2.8,4.0,26,-99.99,,,0.00,590.8,rob ver 1B,2013-03-19 16:51:00,
2013-03-19 09:52:00,76.6,39.0,29.47,South,184,2.7,3.4,26,-99.99,,,0.00,487.4,rob ver 1B,2013-03-19 16:52:00,
2013-03-19 09:53:00,76.3,39.3,29.47,South,191,2.1,3.4,26,-99.99,,,0.00,433,rob ver 1B,2013-03-19 16:53:00,
2013-03-19 09:54:00,76.3,39.5,29.47,South,173,0.5,1.7,26,-99.99,,,0.00,395.6,rob ver 1B,2013-03-19 16:54:00,
2013-03-19 09:55:00,70.5,38.2,29.47,SSE,167,6.9,8.4,30,-99.99,,,0.00,637,rob ver 1A,2013-03-19 16:55:00,
2013-03-19 09:56:00,75.8,39.6,29.47,SSE,154,2.8,3.5,27,-99.99,,,0.00,382.6,rob ver 1B,2013-03-19 16:56:00,
2013-03-19 09:57:00,75.1,39.5,29.47,SSE,163,3.0,3.9,27,-99.99,,,0.00,366.4,rob ver 1B,2013-03-19 16:57:00,
2013-03-19 09:58:00,75.0,39.6,29.47,SSE,150,2.2,4.0,27,-99.99,,,0.00,357.7,rob ver 1B,2013-03-19 16:58:00,
2013-03-19 09:59:00,74.9,39.4,29.47,SSE,160,3.5,4.6,28,-99.99,,,0.00,380.8,rob ver 1B,2013-03-19 16:59:00,
2013-03-19 10:00:00,71.1,38.6,29.47,SSW,194,7.3,9.8,30,-99.99,,,0.00,633.1,rob ver 1A,2013-03-19 17:00:00,
2013-03-19 10:01:00,74.5,39.6,29.47,SSE,150,2.2,3.0,28,-99.99,,,0.00,450,rob ver 1B,2013-03-19 17:01:00,
2013-03-19 10:02:00,74.7,39.6,29.47,East,93,1.7,2.3,28,-99.99,,,0.00,453.6,rob ver 1B,2013-03-19 17:02:00,
2013-03-19 10:03:00,74.9,39.7,29.47,ESE,113,1.3,2.2,28,-99.99,,,0.00,439.8,rob ver 1B,2013-03-19 17:03:00,
2013-03-19 10:04:00,75.3,39.6,29.47,South,186,2.4,3.7,27,-99.99,,,0.00,419.5,rob ver 1B,2013-03-19 17:04:00,
2013-03-19 10:05:00,71.0,38.2,29.47,South,186,7.8,10.1,30,-99.99,,,0.00,583.3,rob ver 1A,2013-03-19 17:05:00,
2013-03-19 10:06:00,75.3,39.4,29.47,SSE,152,1.5,2.2,27,-99.99,,,0.00,435.2,rob ver 1B,2013-03-19 17:06:00,
2013-03-19 10:07:00,75.5,39.2,29.47,SE,145,1.6,2.2,26,-99.99,,,0.00,423.7,rob ver 1B,2013-03-19 17:07:00,
2013-03-19 10:08:00,75.5,39.3,29.47,ESE,121,1.0,1.6,27,-99.99,,,0.00,390,rob ver 1B,2013-03-19 17:08:00,
2013-03-19 10:09:00,75.9,39.6,29.47,SE,143,1.7,3.6,26,-99.99,,,0.00,394.6,rob ver 1B,2013-03-19 17:09:00,
2013-03-19 10:10:00,71.4,38.2,29.47,South,169,5.5,7.3,29,-99.99,,,0.00,646,rob ver 1A,2013-03-19 17:10:00,
2013-03-19 10:11:00,75.5,39.3,29.47,SSW,208,4.2,5.3,27,-99.99,,,0.00,417.5,rob ver 1B,2013-03-19 17:11:00,
2013-03-19 10:12:00,75.7,39.5,29.47,SSW,210,3.8,5.3,26,-99.99,,,0.00,424.1,rob ver 1B,2013-03-19 17:12:00,
2013-03-19 10:13:00,75.8,39.3,29.47,SSW,204,3.3,4.2,26,-99.99,,,0.00,455.2,rob ver 1B,2013-03-19 17:13:00,
2013-03-19 10:14:00,75.9,39.5,29.47,SSW,203,2.4,3.3,27,-99.99,,,0.00,481.4,rob ver 1B,2013-03-19 17:14:00,
2013-03-19 10:15:00,72.2,38.7,29.47,SSW,202,6.9,8.5,29,-99.99,,,0.00,674.2,rob ver 1A,2013-03-19 17:15:00,
2013-03-19 10:16:00,76.7,39.7,29.47,SSW,207,2.6,3.8,26,-99.99,,,0.00,567.6,rob ver 1B,2013-03-19 17:16:00,
2013-03-19 10:17:00,77.0,39.7,29.47,South,187,1.8,2.4,26,-99.99,,,0.00,588.8,rob ver 1B,2013-03-19 17:17:00,
2013-03-19 10:18:00,77.4,39.6,29.47,SSW,201,3.3,4.8,25,-99.99,,,0.00,587,rob ver 1B,2013-03-19 17:18:00,
2013-03-19 10:19:00,77.4,39.4,29.47,SW,220,2.0,3.4,25,-99.99,,,0.00,602,rob ver 1B,2013-03-19 17:19:00,
2013-03-19 10:20:00,71.9,38.9,29.47,South,186,4.6,6.2,30,-99.99,,,0.00,682.2,rob ver 1A,2013-03-19 17:20:00,
2013-03-19 10:21:00,77.6,39.3,29.47,SW,232,2.9,4.7,25,-99.99,,,0.00,546.6,rob ver 1B,2013-03-19 17:21:00,
2013-03-19 10:22:00,77.4,39.2,29.47,SW,223,4.1,6.1,25,-99.99,,,0.00,577.1,rob ver 1B,2013-03-19 17:22:00,
2013-03-19 10:23:00,77.3,38.8,29.47,SW,217,1.7,2.6,24,-99.99,,,0.00,532.2,rob ver 1B,2013-03-19 17:23:00,
2013-03-19 10:24:00,77.6,39.0,29.47,West,260,1.0,1.8,25,-99.99,,,0.00,578.4,rob ver 1B,2013-03-19 17:24:00,
2013-03-19 10:25:00,72.4,39.1,29.47,SSW,204,7.7,10.4,29,-99.99,,,0.00,694.7,rob ver 1A,2013-03-19 17:25:00,
2013-03-19 10:26:00,78.6,39.5,29.47,SW,236,1.3,3.4,24,-99.99,,,0.00,695,rob ver 1B,2013-03-19 17:26:00,
2013-03-19 10:27:00,78.6,38.8,29.47,SW,221,4.5,5.9,23,-99.99,,,0.00,688.7,rob ver 1B,2013-03-19 17:27:00,
2013-03-19 10:28:00,78.1,38.0,29.47,SW,219,3.6,5.5,23,-99.99,,,0.00,724,rob ver 1B,2013-03-19 17:28:00,
2013-03-19 10:29:00,78.0,38.2,29.47,SW,215,4.3,5.3,23,-99.99,,,0.00,697.7,rob ver 1B,2013-03-19 17:29:00,
2013-03-19 10:30:00,72.3,39.2,29.47,SW,226,5.7,7.7,30,-99.99,,,0.00,707,rob ver 1A,2013-03-19 17:30:00,
2013-03-19 10:31:00,78.5,38.1,29.47,SW,219,2.7,3.9,23,-99.99,,,0.00,710,rob ver 1B,2013-03-19 17:31:00,
2013-03-19 10:32:00,78.5,37.8,29.47,SSW,198,2.3,3.7,23,-99.99,,,0.00,707,rob ver 1B,2013-03-19 17:32:00,
2013-03-19 10:33:00,78.5,37.5,29.47,SSE,165,2.5,3.9,22,-99.99,,,0.00,697.4,rob ver 1B,2013-03-19 17:33:00,
2013-03-19 10:34:00,78.7,37.6,29.47,South,183,1.1,1.8,22,-99.99,,,0.00,716,rob ver 1B,2013-03-19 17:34:00,
2013-03-19 10:35:00,72.5,39.3,29.47,South,182,4.2,5.9,29,-99.99,,,0.00,712,rob ver 1A,2013-03-19 17:35:00,
2013-03-19 10:36:00,79.6,37.7,29.47,SSE,168,2.4,3.9,22,-99.99,,,0.00,708,rob ver 1B,2013-03-19 17:36:00,
2013-03-19 10:37:00,79.4,37.8,29.47,SE,125,0.8,1.9,22,-99.99,,,0.00,735,rob ver 1B,2013-03-19 17:37:00,
2013-03-19 10:38:00,80.1,38.0,29.47,SSW,195,1.8,6.0,21,-99.99,,,0.00,746,rob ver 1B,2013-03-19 17:38:00,
2013-03-19 10:39:00,80.2,37.6,29.47,SSW,199,5.4,6.7,21,-99.99,,,0.00,769,rob ver 1B,2013-03-19 17:39:00,
2013-03-19 10:40:00,79.7,37.4,29.47,SSW,195,4.2,5.5,21,-99.99,,,0.00,737,rob ver 1B,2013-03-19 17:40:00,
2013-03-19 10:41:00,73.0,39.4,29.47,SW,217,6.1,7.4,29,-99.99,,,0.00,729,rob ver 1A,2013-03-19 17:41:00,
2013-03-19 10:42:00,79.4,37.2,29.47,SW,217,4.6,7.6,22,-99.99,,,0.00,710,rob ver 1B,2013-03-19 17:42:00,
2013-03-19 10:43:00,79.2,37.2,29.47,SSW,207,4.4,5.5,22,-99.99,,,0.00,758,rob ver 1B,2013-03-19 17:43:00,
2013-03-19 10:44:00,79.1,36.9,29.47,SSW,209,3.9,5.5,21,-99.99,,,0.00,778,rob ver 1B,2013-03-19 17:44:00,
2013-03-19 10:45:00,79.2,36.9,29.47,WSW,245,1.4,3.1,21,-99.99,,,0.00,784,rob ver 1B,2013-03-19 17:45:00,
2013-03-19 10:46:00,73.6,40.0,29.47,SSW,208,6.2,8.7,29,-99.99,,,0.00,744,rob ver 1A,2013-03-19 17:46:00,
2013-03-19 10:47:00,79.5,36.7,29.47,SW,231,4.3,5.6,21,-99.99,,,0.00,780,rob ver 1B,2013-03-19 17:47:00,
2013-03-19 10:48:00,79.4,36.7,29.47,SW,216,2.4,3.4,21,-99.99,,,0.00,728,rob ver 1B,2013-03-19 17:48:00,
2013-03-19 10:49:00,79.6,36.8,29.47,SW,222,2.5,3.9,22,-99.99,,,0.00,742,rob ver 1B,2013-03-19 17:49:00,
2013-03-19 10:50:00,79.6,37.0,29.47,SSE,166,3.4,5.2,21,-99.99,,,0.00,767,rob ver 1B,2013-03-19 17:50:00,
2013-03-19 10:51:00,74.2,39.9,29.47,SW,227,6.1,8.6,28,-99.99,,,0.00,753,rob ver 1A,2013-03-19 17:51:00,
2013-03-19 10:52:00,79.4,36.6,29.47,South,173,4.4,6.1,20,-99.99,,,0.00,770,rob ver 1B,2013-03-19 17:52:00,
2013-03-19 10:53:00,79.6,36.5,29.47,South,191,4.5,6.7,20,-99.99,,,0.00,755,rob ver 1B,2013-03-19 17:53:00,
2013-03-19 10:54:00,79.9,36.3,29.47,South,178,4.4,5.7,20,-99.99,,,0.00,735,rob ver 1B,2013-03-19 17:54:00,
2013-03-19 10:55:00,79.8,36.3,29.47,South,185,3.3,7.1,20,-99.99,,,0.00,733,rob ver 1B,2013-03-19 17:55:00,
2013-03-19 10:56:00,73.3,38.9,29.47,SW,231,5.9,7.6,28,-99.99,,,0.00,762,rob ver 1A,2013-03-19 17:56:00,
2013-03-19 10:57:00,79.7,35.5,29.47,SSW,200,3.0,4.1,20,-99.99,,,0.00,769,rob ver 1B,2013-03-19 17:57:00,
2013-03-19 10:58:00,80.1,36.1,29.47,South,174,3.8,5.2,20,-99.99,,,0.00,773,rob ver 1B,2013-03-19 17:58:00,
2013-03-19 10:59:00,80.2,36.1,29.47,SSW,210,3.8,5.8,20,-99.99,,,0.00,775,rob ver 1B,2013-03-19 17:59:00,
2013-03-19 11:00:00,80.5,36.7,29.47,SSW,209,4.8,6.9,20,-99.99,,,0.00,769,rob ver 1B,2013-03-19 18:00:00,
2013-03-19 11:01:00,75.4,39.6,29.47,North,356,1.2,2.4,27,-99.99,,,0.00,773,rob ver 1A,2013-03-19 18:01:00,
2013-03-19 11:02:00,80.5,36.5,29.47,SSW,204,3.7,5.5,20,-99.99,,,0.00,807,rob ver 1B,2013-03-19 18:02:00,
2013-03-19 11:03:00,80.5,36.2,29.47,SSW,200,5.1,6.7,20,-99.99,,,0.00,793,rob ver 1B,2013-03-19 18:03:00,
2013-03-19 11:04:00,80.3,36.1,29.47,South,189,2.5,6.1,20,-99.99,,,0.00,783,rob ver 1B,2013-03-19 18:04:00,
2013-03-19 11:05:00,80.7,36.6,29.47,SSE,166,2.4,7.1,20,-99.99,,,0.00,792,rob ver 1B,2013-03-19 18:05:00,
2013-03-19 11:06:00,74.4,38.9,29.47,South,191,4.4,5.8,27,-99.99,,,0.00,780,rob ver 1A,2013-03-19 18:06:00,
2013-03-19 11:07:00,80.3,36.2,29.47,South,171,4.4,6.4,20,-99.99,,,0.00,751,rob ver 1B,2013-03-19 18:07:00,
2013-03-19 11:08:00,80.1,36.2,29.47,SE,143,2.5,3.9,20,-99.99,,,0.00,807,rob ver 1B,2013-03-19 18:08:00,
2013-03-19 11:09:00,80.2,36.6,29.47,SE,133,2.0,3.1,20,-99.99,,,0.00,793,rob ver 1B,2013-03-19 18:09:00,
2013-03-19 11:10:00,80.6,36.7,29.47,SSW,194,4.1,6.8,20,-99.99,,,0.00,784,rob ver 1B,2013-03-19 18:10:00,
2013-03-19 11:11:00,75.6,39.1,29.47,WSW,239,4.1,6.1,26,-99.99,,,0.00,767,rob ver 1A,2013-03-19 18:11:00,
2013-03-19 11:12:00,80.4,36.5,29.47,South,180,3.9,6.2,20,-99.99,,,0.00,798,rob ver 1B,2013-03-19 18:12:00,
2013-03-19 11:13:00,80.3,36.6,29.47,SSE,163,4.2,6.2,20,-99.99,,,0.00,792,rob ver 1B,2013-03-19 18:13:00,
2013-03-19 11:14:00,80.4,36.7,29.47,SW,218,1.9,6.4,20,-99.99,,,0.00,828,rob ver 1B,2013-03-19 18:14:00,
2013-03-19 11:15:00,80.6,36.6,29.47,SE,142,3.3,4.6,20,-99.99,,,0.00,769,rob ver 1B,2013-03-19 18:15:00,
2013-03-19 11:16:00,80.5,36.3,29.47,SSE,163,3.3,4.3,20,-99.99,,,0.00,772,rob ver 1B,2013-03-19 18:16:00,
2013-03-19 11:17:00,74.9,39.0,29.47,SSE,152,2.4,5.0,27,-99.99,,,0.00,788,rob ver 1A,2013-03-19 18:17:00,
2013-03-19 11:18:00,80.7,35.8,29.47,SW,223,7.2,9.0,19,-99.99,,,0.00,848,rob ver 1B,2013-03-19 18:18:00,
2013-03-19 11:19:00,80.6,36.1,29.47,SW,220,3.6,5.6,19,-99.99,,,0.00,844,rob ver 1B,2013-03-19 18:19:00,
2013-03-19 11:20:00,80.9,35.7,29.47,WSW,255,4.5,6.5,19,-99.99,,,0.00,813,rob ver 1B,2013-03-19 18:20:00,
2013-03-19 11:21:00,80.9,35.9,29.47,WNW,283,3.6,5.0,19,-99.99,,,0.00,699.6,rob ver 1B,2013-03-19 18:21:00,
2013-03-19 11:22:00,75.9,38.6,29.47,South,189,5.1,6.9,25,-99.99,,,0.00,787,rob ver 1A,2013-03-19 18:22:00,
2013-03-19 11:23:00,81.3,36.0,29.47,SW,224,2.0,3.0,19,-99.99,,,0.00,761,rob ver 1B,2013-03-19 18:23:00,
2013-03-19 11:24:00,81.7,36.4,29.47,WSW,247,3.1,5.7,19,-99.99,,,0.00,799,rob ver 1B,2013-03-19 18:24:00,
2013-03-19 11:25:00,81.9,36.1,29.47,SW,232,4.5,6.2,19,-99.99,,,0.00,790,rob ver 1B,2013-03-19 18:25:00,
2013-03-19 11:26:00,81.5,35.9,29.47,SW,224,3.2,5.2,19,-99.99,,,0.00,707,rob ver 1B,2013-03-19 18:26:00,
2013-03-19 11:27:00,78.1,38.4,29.47,West,278,2.5,4.2,23,-99.99,,,0.00,810,rob ver 1A,2013-03-19 18:27:00,
2013-03-19 11:28:00,81.5,35.6,29.47,SSW,203,5.2,7.0,19,-99.99,,,0.00,749,rob ver 1B,2013-03-19 18:28:00,
2013-03-19 11:29:00,81.3,35.8,29.47,WSW,238,4.4,6.3,19,-99.99,,,0.00,751,rob ver 1B,2013-03-19 18:29:00,
2013-03-19 11:30:00,81.1,36.2,29.47,SW,216,3.2,4.4,19,-99.99,,,0.00,808,rob ver 1B,2013-03-19 18:30:00,
2013-03-19 11:31:00,81.2,36.4,29.47,South,190,2.7,4.7,19,-99.99,,,0.00,793,rob ver 1B,2013-03-19 18:31:00,
2013-03-19 11:32:00,77.4,37.1,29.47,SSE,151,1.8,2.6,23,-99.99,,,0.00,827,rob ver 1A,2013-03-19 18:32:00,
2013-03-19 11:33:00,81.8,36.2,29.47,South,170,2.0,3.3,19,-99.99,,,0.00,791,rob ver 1B,2013-03-19 18:33:00,
2013-03-19 11:34:00,82.1,36.5,29.47,South,190,2.0,3.2,19,-99.99,,,0.00,826,rob ver 1B,2013-03-19 18:34:00,
2013-03-19 11:35:00,82.4,36.5,29.47,SSE,147,3.6,5.6,19,-99.99,,,0.00,813,rob ver 1B,2013-03-19 18:35:00,
2013-03-19 11:36:00,81.9,36.0,29.47,SSE,150,5.1,7.0,19,-99.99,,,0.00,717,rob ver 1B,2013-03-19 18:36:00,
2013-03-19 11:37:00,81.4,36.2,29.47,SSE,164,5.9,7.5,19,-99.99,,,0.00,662.2,rob ver 1B,2013-03-19 18:37:00,
2013-03-19 11:38:00,77.4,37.3,29.47,SW,214,6.0,7.7,23,-99.99,,,0.00,834,rob ver 1A,2013-03-19 18:38:00,
2013-03-19 11:39:00,80.9,36.1,29.47,SE,139,3.6,5.3,19,-99.99,,,0.00,771,rob ver 1B,2013-03-19 18:39:00,
2013-03-19 11:40:00,80.9,36.0,29.47,SSE,152,3.5,4.9,20,-99.99,,,0.00,743,rob ver 1B,2013-03-19 18:40:00,
2013-03-19 11:41:00,81.2,36.2,29.47,South,183,4.6,6.0,19,-99.99,,,0.00,741,rob ver 1B,2013-03-19 18:41:00,
2013-03-19 11:42:00,81.7,36.0,29.47,SW,231,4.2,5.5,19,-99.99,,,0.00,862,rob ver 1B,2013-03-19 18:42:00,
2013-03-19 11:43:00,77.5,36.8,29.47,NNW,332,6.3,8.0,22,-99.99,,,0.00,851,rob ver 1A,2013-03-19 18:43:00,
2013-03-19 11:44:00,81.7,35.9,29.44,SSW,213,3.9,5.7,19,-99.99,,,0.00,882,rob ver 1B,2013-03-19 18:44:00,
2013-03-19 11:45:00,81.9,36.0,29.44,SW,236,1.7,3.6,19,-99.99,,,0.00,906,rob ver 1B,2013-03-19 18:45:00,
2013-03-19 11:46:00,82.5,36.1,29.47,SW,228,2.2,3.5,18,-99.99,,,0.00,853,rob ver 1B,2013-03-19 18:46:00,
2013-03-19 11:47:00,83.0,36.1,29.47,South,174,3.3,5.4,18,-99.99,,,0.00,865,rob ver 1B,2013-03-19 18:47:00,
2013-03-19 11:48:00,79.0,36.3,29.47,SW,221,3.9,6.6,21,-99.99,,,0.00,863,rob ver 1A,2013-03-19 18:48:00,
2013-03-19 11:49:00,82.8,35.6,29.44,South,187,7.0,9.0,18,-99.99,,,0.00,698,rob ver 1B,2013-03-19 18:49:00,
2013-03-19 11:50:00,82.6,35.2,29.44,SSW,198,7.4,9.1,18,-99.99,,,0.00,712,rob ver 1B,2013-03-19 18:50:00,
2013-03-19 11:51:00,82.3,35.3,29.44,SW,219,4.5,7.1,18,-99.99,,,0.00,731,rob ver 1B,2013-03-19 18:51:00,
2013-03-19 11:52:00,82.2,35.1,29.44,SW,230,2.1,4.3,18,-99.99,,,0.00,716,rob ver 1B,2013-03-19 18:52:00,
2013-03-19 11:53:00,78.2,34.9,29.47,West,274,5.3,7.4,20,-99.99,,,0.00,798,rob ver 1A,2013-03-19 18:53:00,
2013-03-19 11:54:00,82.6,35.2,29.44,SSW,209,8.3,10.3,18,-99.99,,,0.00,861,rob ver 1B,2013-03-19 18:54:00,
2013-03-19 11:55:00,82.3,34.9,29.44,South,184,7.3,9.1,18,-99.99,,,0.00,863,rob ver 1B,2013-03-19 18:55:00,
2013-03-19 11:56:00,82.0,34.7,29.44,South,185,5.4,6.9,18,-99.99,,,0.00,886,rob ver 1B,2013-03-19 18:56:00,
2013-03-19 11:57:00,82.2,35.1,29.44,SW,220,3.2,4.7,18,-99.99,,,0.00,753,rob ver 1B,2013-03-19 18:57:00,
2013-03-19 11:58:00,78.5,37.0,29.47,WSW,242,2.0,6.1,22,-99.99,,,0.00,725,rob ver 1A,2013-03-19 18:58:00,
2013-03-19 11:59:00,82.5,34.5,29.44,SSE,153,2.4,4.2,17,-99.99,,,0.00,849,rob ver 1B,2013-03-19 18:59:00,
2013-03-19 12:00:00,82.4,34.6,29.44,SE,143,3.5,4.5,17,-99.99,,,0.00,918,rob ver 1B,2013-03-19 19:00:00,
2013-03-19 12:01:00,82.1,34.6,29.44,SE,134,1.8,3.3,18,-99.99,,,0.00,901,rob ver 1B,2013-03-19 19:01:00,
2013-03-19 12:02:00,82.7,35.2,29.44,NE,56,0.8,2.0,17,-99.99,,,0.00,905,rob ver 1B,2013-03-19 19:02:00,
2013-03-19 12:03:00,83.7,35.6,29.44,South,174,2.8,6.0,17,-99.99,,,0.00,884,rob ver 1B,2013-03-19 19:03:00,
2013-03-19 12:04:00,78.9,36.1,29.47,North,359,2.4,4.7,20,-99.99,,,0.00,706,rob ver 1A,2013-03-19 19:04:00,
2013-03-19 12:05:00,83.6,35.3,29.44,SSW,197,4.6,7.4,17,-99.99,,,0.00,820,rob ver 1B,2013-03-19 19:05:00,
2013-03-19 12:06:00,83.7,34.3,29.44,SW,222,6.4,8.3,17,-99.99,,,0.00,710,rob ver 1B,2013-03-19 19:06:00,
2013-03-19 12:07:00,83.2,34.3,29.44,South,175,6.4,8.4,17,-99.99,,,0.00,870,rob ver 1B,2013-03-19 19:07:00,
2013-03-19 12:08:00,82.8,34.4,29.44,South,170,6.0,7.6,17,-99.99,,,0.00,789,rob ver 1B,2013-03-19 19:08:00,
2013-03-19 12:09:00,80.0,33.3,29.47,WNW,285,6.0,7.9,18,-99.99,,,0.00,840,rob ver 1A,2013-03-19 19:09:00,
2013-03-19 12:10:00,83.0,34.1,29.44,South,174,8.2,10.2,17,-99.99,,,0.00,453.4,rob ver 1B,2013-03-19 19:10:00,
2013-03-19 12:11:00,82.4,34.1,29.44,SSE,150,5.6,7.2,17,-99.99,,,0.00,870,rob ver 1B,2013-03-19 19:11:00,
2013-03-19 12:12:00,82.1,34.5,29.44,SE,127,4.4,6.1,18,-99.99,,,0.00,912,rob ver 1B,2013-03-19 19:12:00,
2013-03-19 12:13:00,82.2,34.4,29.44,SE,141,3.2,5.8,18,-99.99,,,0.00,848,rob ver 1B,2013-03-19 19:13:00,
2013-03-19 12:14:00,79.5,32.7,29.47,West,276,4.3,6.2,18,-99.99,,,0.00,896,rob ver 1A,2013-03-19 19:14:00,
2013-03-19 12:15:00,82.7,34.4,29.44,South,187,5.8,8.2,17,-99.99,,,0.00,794,rob ver 1B,2013-03-19 19:15:00,
2013-03-19 12:16:00,83.2,34.6,29.44,SW,228,7.9,9.3,17,-99.99,,,0.00,797,rob ver 1B,2013-03-19 19:16:00,
2013-03-19 12:17:00,83.3,34.5,29.44,WSW,240,4.5,6.2,17,-99.99,,,0.00,869,rob ver 1B,2013-03-19 19:17:00,
2013-03-19 12:18:00,83.5,34.9,29.44,SSW,211,4.6,6.7,17,-99.99,,,0.00,891,rob ver 1B,2013-03-19 19:18:00,
2013-03-19 12:19:00,81.1,33.4,29.47,West,271,1.8,2.7,18,-99.99,,,0.00,854,rob ver 1A,2013-03-19 19:19:00,
2013-03-19 12:20:00,83.9,33.6,29.44,South,171,6.1,7.9,16,-99.99,,,0.00,891,rob ver 1B,2013-03-19 19:20:00,
2013-03-19 12:21:00,84.0,33.2,29.44,South,173,9.0,11.5,16,-99.99,,,0.00,895,rob ver 1B,2013-03-19 19:21:00,
2013-03-19 12:22:00,83.9,33.6,29.44,SSE,162,7.1,11.1,16,-99.99,,,0.00,901,rob ver 1B,2013-03-19 19:22:00,
2013-03-19 12:23:00,83.3,34.1,29.44,SSE,147,5.9,8.4,17,-99.99,,,0.00,900,rob ver 1B,2013-03-19 19:23:00,
2013-03-19 12:24:00,79.6,32.6,29.47,SW,235,4.4,7.4,18,-99.99,,,0.00,894,rob ver 1A,2013-03-19 19:24:00,
2013-03-19 12:25:00,83.8,33.7,29.44,South,173,8.3,11.5,16,-99.99,,,0.00,886,rob ver 1B,2013-03-19 19:25:00,
2013-03-19 12:26:00,83.4,33.7,29.44,South,169,6.9,9.2,16,-99.99,,,0.00,898,rob ver 1B,2013-03-19 19:26:00,
2013-03-19 12:27:00,83.6,33.9,29.44,SW,217,9.7,11.9,16,-99.99,,,0.00,876,rob ver 1B,2013-03-19 19:27:00,
2013-03-19 12:28:00,83.8,34.1,29.44,SW,221,8.4,10.7,16,-99.99,,,0.00,835,rob ver 1B,2013-03-19 19:28:00,
2013-03-19 12:29:00,80.6,32.8,29.47,WNW,288,4.4,6.7,18,-99.99,,,0.00,820,rob ver 1A,2013-03-19 19:29:00,
2013-03-19 12:30:00,83.4,34.7,29.44,WSW,242,6.7,8.8,17,-99.99,,,0.00,891,rob ver 1B,2013-03-19 19:30:00,
2013-03-19 12:31:00,83.3,34.8,29.44,WSW,237,7.0,11.0,17,-99.99,,,0.00,884,rob ver 1B,2013-03-19 19:31:00,
2013-03-19 12:32:00,83.2,34.7,29.44,SW,230,7.3,10.4,17,-99.99,,,0.00,848,rob ver 1B,2013-03-19 19:32:00,
2013-03-19 12:33:00,83.3,34.9,29.44,SSW,209,5.4,7.1,17,-99.99,,,0.00,870,rob ver 1B,2013-03-19 19:33:00,
2013-03-19 12:34:00,80.8,31.8,29.47,SW,222,6.7,9.4,16,-99.99,,,0.00,877,rob ver 1A,2013-03-19 19:34:00,
2013-03-19 12:35:00,83.7,34.9,29.44,SSW,205,2.9,6.7,17,-99.99,,,0.00,890,rob ver 1B,2013-03-19 19:35:00,
2013-03-19 12:36:00,84.1,34.6,29.44,South,189,7.6,14.8,16,-99.99,,,0.00,870,rob ver 1B,2013-03-19 19:36:00,
2013-03-19 12:37:00,84.0,34.5,29.44,SSE,167,12.8,15.2,16,-99.99,,,0.00,883,rob ver 1B,2013-03-19 19:37:00,
2013-03-19 12:38:00,84.1,34.0,29.44,SSE,162,10.5,14.1,16,-99.99,,,0.00,879,rob ver 1B,2013-03-19 19:38:00,
2013-03-19 12:39:00,79.7,31.5,29.47,WSW,257,7.6,12.8,16,-99.99,,,0.00,867,rob ver 1A,2013-03-19 19:39:00,
2013-03-19 12:40:00,84.0,33.8,29.44,South,173,3.5,4.8,16,-99.99,,,0.00,913,rob ver 1B,2013-03-19 19:40:00,
2013-03-19 12:41:00,84.3,33.9,29.44,South,186,5.1,7.3,15,-99.99,,,0.00,912,rob ver 1B,2013-03-19 19:41:00,
2013-03-19 12:42:00,84.3,32.9,29.41,SSE,162,6.5,9.0,15,-99.99,,,0.00,944,rob ver 1B,2013-03-19 19:42:00,
2013-03-19 12:43:00,84.1,32.6,29.41,South,182,4.1,6.3,15,-99.99,,,0.00,933,rob ver 1B,2013-03-19 19:43:00,
2013-03-19 12:44:00,84.4,32.2,29.41,South,187,6.5,9.8,14,-99.99,,,0.00,864,rob ver 1B,2013-03-19 19:44:00,
2013-03-19 12:45:00,80.5,31.0,29.47,WSW,253,7.6,9.6,16,-99.99,,,0.00,891,rob ver 1A,2013-03-19 19:45:00,
2013-03-19 12:46:00,84.0,31.0,29.44,SSE,159,7.7,10.9,14,-99.99,,,0.00,867,rob ver 1B,2013-03-19 19:46:00,
2013-03-19 12:47:00,84.1,30.9,29.44,South,170,7.4,10.6,14,-99.99,,,0.00,916,rob ver 1B,2013-03-19 19:47:00,
2013-03-19 12:48:00,84.6,30.5,29.41,SSE,163,10.9,13.8,14,-99.99,,,0.00,827,rob ver 1B,2013-03-19 19:48:00,
2013-03-19 12:49:00,84.1,30.5,29.41,SSE,151,8.3,11.0,14,-99.99,,,0.00,919,rob ver 1B,2013-03-19 19:49:00,
2013-03-19 12:50:00,80.8,30.4,29.44,West,272,4.9,7.9,15,-99.99,,,0.00,860,rob ver 1A,2013-03-19 19:50:00,
2013-03-19 12:51:00,84.0,30.6,29.41,SSE,160,6.1,9.8,14,-99.99,,,0.00,485.8,rob ver 1B,2013-03-19 19:51:00,
2013-03-19 12:52:00,83.8,31.0,29.41,SSE,150,4.1,7.8,14,-99.99,,,0.00,418.8,rob ver 1B,2013-03-19 19:52:00,
2013-03-19 12:53:00,84.0,30.6,29.41,South,183,8.1,10.6,14,-99.99,,,0.00,419.6,rob ver 1B,2013-03-19 19:53:00,
2013-03-19 12:54:00,84.3,30.2,29.44,SSW,192,6.7,9.7,13,-99.99,,,0.00,565.4,rob ver 1B,2013-03-19 19:54:00,
2013-03-19 12:55:00,81.7,30.3,29.44,North,355,5.3,7.6,15,-99.99,,,0.00,864,rob ver 1A,2013-03-19 19:55:00,
2013-03-19 12:56:00,84.4,29.9,29.41,South,176,8.5,12.8,14,-99.99,,,0.00,520.5,rob ver 1B,2013-03-19 19:56:00,
2013-03-19 12:57:00,84.4,30.6,29.41,South,177,12.2,16.4,14,-99.99,,,0.00,809,rob ver 1B,2013-03-19 19:57:00,
2013-03-19 12:58:00,84.0,31.0,29.41,SSE,163,10.1,13.4,14,-99.99,,,0.00,932,rob ver 1B,2013-03-19 19:58:00,
2013-03-19 12:59:00,84.3,31.2,29.41,South,180,11.7,14.3,14,-99.99,,,0.00,984,rob ver 1B,2013-03-19 19:59:00,
2013-03-19 13:00:00,82.2,29.5,29.44,West,260,6.3,7.6,15,-99.99,,,0.00,883,rob ver 1A,2013-03-19 20:00:00,
2013-03-19 13:01:00,84.4,31.5,29.41,SSW,195,10.9,15.5,14,-99.99,,,0.00,905,rob ver 1B,2013-03-19 20:01:00,
2013-03-19 13:02:00,84.7,32.4,29.41,South,186,9.5,11.5,15,-99.99,,,0.00,771,rob ver 1B,2013-03-19 20:02:00,
2013-03-19 13:03:00,85.0,33.3,29.41,South,189,12.4,15.2,15,-99.99,,,0.00,807,rob ver 1B,2013-03-19 20:03:00,
2013-03-19 13:04:00,84.8,33.4,29.41,South,176,12.4,14.5,15,-99.99,,,0.00,492.5,rob ver 1B,2013-03-19 20:04:00,
2013-03-19 13:05:00,81.9,29.5,29.44,WSW,247,4.5,6.8,14,-99.99,,,0.00,896,rob ver 1A,2013-03-19 20:05:00,
2013-03-19 13:06:00,84.5,33.0,29.41,SSE,164,9.1,12.6,15,-99.99,,,0.00,901,rob ver 1B,2013-03-19 20:06:00,
2013-03-19 13:07:00,84.6,33.0,29.41,South,180,12.6,17.3,15,-99.99,,,0.00,873,rob ver 1B,2013-03-19 20:07:00,
2013-03-19 13:08:00,84.8,33.3,29.41,South,170,13.5,17.6,15,-99.99,,,0.00,859,rob ver 1B,2013-03-19 20:08:00,
2013-03-19 13:09:00,84.7,33.4,29.41,South,179,14.9,17.7,15,-99.99,,,0.00,841,rob ver 1B,2013-03-19 20:09:00,
2013-03-19 13:10:00,81.9,27.0,29.44,WSW,250,4.9,8.1,13,-99.99,,,0.00,722,rob ver 1A,2013-03-19 20:10:00,
2013-03-19 13:11:00,84.8,33.1,29.41,South,181,12.2,15.7,15,-99.99,,,0.00,855,rob ver 1B,2013-03-19 20:11:00,
2013-03-19 13:12:00,84.6,33.4,29.41,South,177,12.2,14.6,16,-99.99,,,0.00,866,rob ver 1B,2013-03-19 20:12:00,
2013-03-19 13:13:00,84.7,34.0,29.41,South,185,11.0,13.7,16,-99.99,,,0.00,868,rob ver 1B,2013-03-19 20:13:00,
2013-03-19 13:14:00,84.9,33.4,29.41,South,180,13.8,17.4,15,-99.99,,,0.00,868,rob ver 1B,2013-03-19 20:14:00,
2013-03-19 13:15:00,81.9,27.2,29.44,WNW,292,9.2,13.1,13,-99.99,,,0.00,836,rob ver 1A,2013-03-19 20:15:00,
2013-03-19 13:16:00,84.9,33.6,29.41,South,177,13.0,15.9,15,-99.99,,,0.00,859,rob ver 1B,2013-03-19 20:16:00,
2013-03-19 13:17:00,84.7,33.3,29.41,South,176,11.8,13.6,15,-99.99,,,0.00,871,rob ver 1B,2013-03-19 20:17:00,
2013-03-19 13:18:00,85.0,33.8,29.41,SSW,197,13.3,16.8,15,-99.99,,,0.00,900,rob ver 1B,2013-03-19 20:18:00,
2013-03-19 13:19:00,85.2,33.3,29.41,SW,224,9.7,13.4,15,-99.99,,,0.00,904,rob ver 1B,2013-03-19 20:19:00,
2013-03-19 13:20:00,81.6,30.8,29.44,SW,222,6.3,9.7,15,-99.99,,,0.00,850,rob ver 1A,2013-03-19 20:20:00,
2013-03-19 13:21:00,85.4,31.0,29.41,SSW,212,18.1,21.1,14,-99.99,,,0.00,889,rob ver 1B,2013-03-19 20:21:00,
2013-03-19 13:22:00,84.9,31.2,29.41,SSW,211,14.0,18.0,14,-99.99,,,0.00,881,rob ver 1B,2013-03-19 20:22:00,
2013-03-19 13:23:00,85.3,32.1,29.41,SW,215,16.4,19.6,14,-99.99,,,0.00,858,rob ver 1B,2013-03-19 20:23:00,
2013-03-19 13:24:00,85.1,32.5,29.41,SW,214,15.2,21.4,15,-99.99,,,0.00,877,rob ver 1B,2013-03-19 20:24:00,
2013-03-19 13:25:00,82.7,28.5,29.44,NE,40,1.4,2.5,13,-99.99,,,0.00,865,rob ver 1A,2013-03-19 20:25:00,
2013-03-19 13:26:00,85.4,33.3,29.41,SSW,204,12.6,16.0,15,-99.99,,,0.00,863,rob ver 1B,2013-03-19 20:26:00,
2013-03-19 13:27:00,85.5,32.6,29.41,SSW,204,13.5,15.7,15,-99.99,,,0.00,821,rob ver 1B,2013-03-19 20:27:00,
2013-03-19 13:28:00,85.4,31.5,29.41,SSW,193,15.3,20.2,14,-99.99,,,0.00,731,rob ver 1B,2013-03-19 20:28:00,
2013-03-19 13:29:00,85.2,31.1,29.41,SSW,202,13.3,20.5,14,-99.99,,,0.00,765,rob ver 1B,2013-03-19 20:29:00,
2013-03-19 13:30:00,82.3,28.9,29.44,SSE,150,9.1,11.1,14,-99.99,,,0.00,849,rob ver 1A,2013-03-19 20:30:00,
2013-03-19 13:31:00,85.0,31.7,29.41,SW,214,15.6,19.8,15,-99.99,,,0.00,860,rob ver 1B,2013-03-19 20:31:00,
2013-03-19 13:32:00,85.0,32.4,29.41,SSW,196,13.3,17.7,15,-99.99,,,0.00,844,rob ver 1B,2013-03-19 20:32:00,
2013-03-19 13:33:00,85.1,32.4,29.41,SSW,199,17.1,21.7,15,-99.99,,,0.00,836,rob ver 1B,2013-03-19 20:33:00,
2013-03-19 13:34:00,85.1,32.1,29.41,SSW,194,14.5,18.4,14,-99.99,,,0.00,755,rob ver 1B,2013-03-19 20:34:00,
2013-03-19 13:35:00,82.1,29.8,29.44,SW,215,2.6,3.9,14,-99.99,,,0.00,837,rob ver 1A,2013-03-19 20:35:00,
2013-03-19 13:36:00,85.1,31.5,29.41,SSW,202,9.1,11.3,14,-99.99,,,0.00,888,rob ver 1B,2013-03-19 20:36:00,
2013-03-19 13:37:00,85.3,31.0,29.41,South,190,10.9,15.6,14,-99.99,,,0.00,878,rob ver 1B,2013-03-19 20:37:00,
2013-03-19 13:38:00,85.5,31.0,29.41,SSW,192,14.6,17.1,14,-99.99,,,0.00,881,rob ver 1B,2013-03-19 20:38:00,
2013-03-19 13:39:00,85.7,31.1,29.41,SSW,198,12.7,15.4,13,-99.99,,,0.00,855,rob ver 1B,2013-03-19 20:39:00,
2013-03-19 13:40:00,83.3,27.9,29.44,NNW,335,2.8,4.6,13,-99.99,,,0.00,848,rob ver 1A,2013-03-19 20:40:00,
2013-03-19 13:41:00,85.6,30.7,29.41,South,182,13.4,17.8,13,-99.99,,,0.00,879,rob ver 1B,2013-03-19 20:41:00,
2013-03-19 13:42:00,85.3,30.3,29.41,South,180,12.0,15.9,13,-99.99,,,0.00,847,rob ver 1B,2013-03-19 20:42:00,
2013-03-19 13:43:00,85.3,30.2,29.41,South,178,13.9,17.7,13,-99.99,,,0.00,762,rob ver 1B,2013-03-19 20:43:00,
2013-03-19 13:44:00,85.4,30.3,29.41,South,180,13.1,16.4,13,-99.99,,,0.00,840,rob ver 1B,2013-03-19 20:44:00,
2013-03-19 13:45:00,85.4,30.4,29.41,SSW,196,10.1,13.8,13,-99.99,,,0.00,865,rob ver 1B,2013-03-19 20:45:00,
2013-03-19 13:46:00,83.5,28.6,29.44,ESE,112,3.0,5.4,13,-99.99,,,0.00,837,rob ver 1A,2013-03-19 20:46:00,
2013-03-19 13:47:00,85.3,30.1,29.41,South,174,13.0,15.8,13,-99.99,,,0.00,831,rob ver 1B,2013-03-19 20:47:00,
2013-03-19 13:48:00,85.7,31.1,29.41,SSW,199,13.5,19.2,13,-99.99,,,0.00,842,rob ver 1B,2013-03-19 20:48:00,
2013-03-19 13:49:00,85.3,31.0,29.41,SSW,206,15.0,19.6,14,-99.99,,,0.00,877,rob ver 1B,2013-03-19 20:49:00,
2013-03-19 13:50:00,85.0,31.5,29.41,SSW,202,13.7,18.2,14,-99.99,,,0.00,865,rob ver 1B,2013-03-19 20:50:00,
2013-03-19 13:51:00,82.9,31.2,29.44,SSW,211,10.4,14.2,15,-99.99,,,0.00,838,rob ver 1A,2013-03-19 20:51:00,
2013-03-19 13:52:00,85.1,31.3,29.41,SSW,199,9.2,12.8,14,-99.99,,,0.00,841,rob ver 1B,2013-03-19 20:52:00,
2013-03-19 13:53:00,85.1,30.7,29.38,South,181,10.1,15.4,14,-99.99,,,0.00,838,rob ver 1B,2013-03-19 20:53:00,
2013-03-19 13:54:00,85.2,31.0,29.41,SSE,164,10.5,13.2,14,-99.99,,,0.00,846,rob ver 1B,2013-03-19 20:54:00,
2013-03-19 13:55:00,84.9,31.1,29.41,South,182,9.4,10.8,14,-99.99,,,0.00,838,rob ver 1B,2013-03-19 20:55:00,
2013-03-19 13:56:00,83.1,31.1,29.41,South,186,5.6,7.6,15,-99.99,,,0.00,735,rob ver 1A,2013-03-19 20:56:00,
2013-03-19 13:57:00,85.5,30.1,29.38,SSW,211,10.9,14.4,13,-99.99,,,0.00,853,rob ver 1B,2013-03-19 20:57:00,
2013-03-19 13:58:00,85.8,29.8,29.38,SSW,202,9.5,13.9,13,-99.99,,,0.00,854,rob ver 1B,2013-03-19 20:58:00,
2013-03-19 13:59:00,85.7,30.1,29.38,South,178,8.9,12.6,13,-99.99,,,0.00,863,rob ver 1B,2013-03-19 20:59:00,
2013-03-19 14:00:00,86.6,30.5,29.38,South,189,13.6,20.2,13,-99.99,,,0.00,776,rob ver 1B,2013-03-19 21:00:00,
2013-03-19 14:01:00,82.9,31.0,29.41,South,180,6.0,8.5,15,-99.99,,,0.00,792,rob ver 1A,2013-03-19 21:01:00,
2013-03-19 14:02:00,86.4,30.8,29.38,SSW,193,10.9,15.1,13,-99.99,,,0.00,841,rob ver 1B,2013-03-19 21:02:00,
2013-03-19 14:03:00,86.4,30.6,29.38,SSW,203,9.7,12.8,13,-99.99,,,0.00,819,rob ver 1B,2013-03-19 21:03:00,
2013-03-19 14:04:00,86.1,29.9,29.38,South,183,11.9,15.3,13,-99.99,,,0.00,820,rob ver 1B,2013-03-19 21:04:00,
2013-03-19 14:05:00,85.9,29.7,29.38,SSE,164,13.9,16.8,13,-99.99,,,0.00,823,rob ver 1B,2013-03-19 21:05:00,
2013-03-19 14:06:00,82.9,31.4,29.41,South,177,6.5,8.9,15,-99.99,,,0.00,821,rob ver 1A,2013-03-19 21:06:00,
2013-03-19 14:07:00,85.5,29.0,29.38,South,170,12.2,16.3,13,-99.99,,,0.00,818,rob ver 1B,2013-03-19 21:07:00,
2013-03-19 14:08:00,85.3,29.4,29.38,SSE,166,10.7,17.0,13,-99.99,,,0.00,830,rob ver 1B,2013-03-19 21:08:00,
2013-03-19 14:09:00,85.6,29.1,29.38,South,179,12.0,16.0,13,-99.99,,,0.00,814,rob ver 1B,2013-03-19 21:09:00,
2013-03-19 14:10:00,85.3,29.0,29.38,SSW,201,9.5,11.9,13,-99.99,,,0.00,796,rob ver 1B,2013-03-19 21:10:00,
2013-03-19 14:11:00,83.7,27.9,29.41,SW,231,4.7,7.5,13,-99.99,,,0.00,763,rob ver 1A,2013-03-19 21:11:00,
2013-03-19 14:12:00,85.4,27.5,29.38,South,181,10.3,12.6,12,-99.99,,,0.00,797,rob ver 1B,2013-03-19 21:12:00,
2013-03-19 14:13:00,85.5,27.0,29.38,SSW,200,12.1,15.1,11,-99.99,,,0.00,781,rob ver 1B,2013-03-19 21:13:00,
2013-03-19 14:14:00,85.6,26.3,29.38,SSW,202,9.9,12.5,11,-99.99,,,0.00,783,rob ver 1B,2013-03-19 21:14:00,
2013-03-19 14:15:00,85.7,28.0,29.38,SSW,197,10.9,15.4,12,-99.99,,,0.00,789,rob ver 1B,2013-03-19 21:15:00,
2013-03-19 14:16:00,84.4,30.7,29.41,SSW,205,7.3,9.3,15,-99.99,,,0.00,758,rob ver 1A,2013-03-19 21:16:00,
2013-03-19 14:17:00,85.2,29.0,29.38,SSE,168,9.6,12.7,12,-99.99,,,0.00,791,rob ver 1B,2013-03-19 21:17:00,
2013-03-19 14:18:00,85.4,29.3,29.38,SSW,201,12.7,15.2,13,-99.99,,,0.00,803,rob ver 1B,2013-03-19 21:18:00,
2013-03-19 14:19:00,85.2,29.6,29.38,SSW,202,9.7,13.0,13,-99.99,,,0.00,771,rob ver 1B,2013-03-19 21:19:00,
2013-03-19 14:20:00,85.2,29.8,29.38,SSW,192,11.6,15.3,13,-99.99,,,0.00,775,rob ver 1B,2013-03-19 21:20:00,
2013-03-19 14:21:00,83.0,29.6,29.41,South,172,5.7,10.4,14,-99.99,,,0.00,776,rob ver 1A,2013-03-19 21:21:00,
2013-03-19 14:22:00,85.5,29.9,29.38,SSE,163,10.1,13.3,13,-99.99,,,0.00,771,rob ver 1B,2013-03-19 21:22:00,
2013-03-19 14:23:00,85.7,29.6,29.38,South,169,13.0,19.3,12,-99.99,,,0.00,808,rob ver 1B,2013-03-19 21:23:00,
2013-03-19 14:24:00,86.0,29.3,29.38,South,173,17.1,21.3,13,-99.99,,,0.00,803,rob ver 1B,2013-03-19 21:24:00,
2013-03-19 14:25:00,85.7,29.3,29.38,South,174,15.3,17.3,13,-99.99,,,0.00,808,rob ver 1B,2013-03-19 21:25:00,
2013-03-19 14:26:00,83.6,30.3,29.41,South,189,7.6,9.1,14,-99.99,,,0.00,766,rob ver 1A,2013-03-19 21:26:00,
2013-03-19 14:27:00,85.5,29.4,29.35,SSE,168,13.8,16.5,13,-99.99,,,0.00,809,rob ver 1B,2013-03-19 21:27:00,
2013-03-19 14:28:00,85.6,29.7,29.38,SSE,165,13.0,15.3,13,-99.99,,,0.00,804,rob ver 1B,2013-03-19 21:28:00,
2013-03-19 14:29:00,85.9,30.0,29.35,South,173,12.5,15.4,13,-99.99,,,0.00,799,rob ver 1B,2013-03-19 21:29:00,
2013-03-19 14:30:00,85.9,30.2,29.38,SSE,162,12.8,15.1,13,-99.99,,,0.00,804,rob ver 1B,2013-03-19 21:30:00,
2013-03-19 14:31:00,83.6,29.9,29.41,SSW,192,6.0,8.5,14,-99.99,,,0.00,812,rob ver 1A,2013-03-19 21:31:00,
2013-03-19 14:32:00,86.5,28.8,29.35,SSW,196,16.6,23.3,12,-99.99,,,0.00,786,rob ver 1B,2013-03-19 21:32:00,
2013-03-19 14:33:00,86.5,29.0,29.35,SSW,193,13.7,16.9,12,-99.99,,,0.00,762,rob ver 1B,2013-03-19 21:33:00,
2013-03-19 14:34:00,86.5,29.4,29.35,SSW,198,11.2,15.4,12,-99.99,,,0.00,774,rob ver 1B,2013-03-19 21:34:00,
2013-03-19 14:35:00,86.6,29.7,29.35,SSW,201,10.6,14.0,12,-99.99,,,0.00,781,rob ver 1B,2013-03-19 21:35:00,
2013-03-19 14:36:00,86.6,30.0,29.35,South,175,15.7,18.7,13,-99.99,,,0.00,769,rob ver 1B,2013-03-19 21:36:00,
2013-03-19 14:37:00,84.1,30.5,29.41,SW,227,10.2,14.2,14,-99.99,,,0.00,794,rob ver 1A,2013-03-19 21:37:00,
2013-03-19 14:38:00,86.1,30.0,29.35,SSE,159,14.4,16.8,13,-99.99,,,0.00,802,rob ver 1B,2013-03-19 21:38:00,
2013-03-19 14:39:00,85.7,30.0,29.35,SSE,157,9.7,12.8,13,-99.99,,,0.00,784,rob ver 1B,2013-03-19 21:39:00,
2013-03-19 14:40:00,86.0,30.5,29.35,South,182,12.6,16.1,13,-99.99,,,0.00,805,rob ver 1B,2013-03-19 21:40:00,
2013-03-19 14:41:00,86.1,30.7,29.35,South,180,13.2,18.6,13,-99.99,,,0.00,829,rob ver 1B,2013-03-19 21:41:00,
2013-03-19 14:42:00,83.8,30.4,29.41,SSW,197,8.4,12.8,14,-99.99,,,0.00,723,rob ver 1A,2013-03-19 21:42:00,
2013-03-19 14:43:00,86.5,30.6,29.35,SSW,211,11.4,15.9,13,-99.99,,,0.00,802,rob ver 1B,2013-03-19 21:43:00,
2013-03-19 14:44:00,86.3,30.7,29.35,SSW,204,12.1,17.4,13,-99.99,,,0.00,807,rob ver 1B,2013-03-19 21:44:00,
2013-03-19 14:45:00,87.0,30.9,29.35,SSW,195,13.7,22.7,13,-99.99,,,0.00,783,rob ver 1B,2013-03-19 21:45:00,
2013-03-19 14:46:00,87.2,30.9,29.35,SSW,207,15.5,20.4,13,-99.99,,,0.00,779,rob ver 1B,2013-03-19 21:46:00,
2013-03-19 14:47:00,83.4,31.0,29.41,South,186,10.5,14.7,14,-99.99,,,0.00,681.6,rob ver 1A,2013-03-19 21:47:00,
2013-03-19 14:48:00,86.9,30.8,29.35,South,191,11.9,16.5,13,-99.99,,,0.00,764,rob ver 1B,2013-03-19 21:48:00,
2013-03-19 14:49:00,86.5,30.7,29.35,SSW,197,9.4,12.3,13,-99.99,,,0.00,639.6,rob ver 1B,2013-03-19 21:49:00,
2013-03-19 14:50:00,86.5,30.9,29.35,SSW,204,13.1,17.2,13,-99.99,,,0.00,598,rob ver 1B,2013-03-19 21:50:00,
2013-03-19 14:51:00,87.0,31.1,29.35,SSW,195,14.6,19.0,13,-99.99,,,0.00,435.4,rob ver 1B,2013-03-19 21:51:00,
2013-03-19 14:52:00,84.3,31.0,29.41,South,179,9.7,12.6,14,-99.99,,,0.00,747,rob ver 1A,2013-03-19 21:52:00,
2013-03-19 14:53:00,86.4,30.9,29.35,South,181,9.3,15.3,13,-99.99,,,0.00,388.9,rob ver 1B,2013-03-19 21:53:00,
2013-03-19 14:54:00,86.3,31.0,29.35,South,185,11.3,14.9,13,-99.99,,,0.00,428.8,rob ver 1B,2013-03-19 21:54:00,
2013-03-19 14:55:00,86.2,30.9,29.35,South,178,12.8,15.7,13,-99.99,,,0.00,424.6,rob ver 1B,2013-03-19 21:55:00,
2013-03-19 14:56:00,85.8,31.2,29.35,South,177,11.5,17.8,14,-99.99,,,0.00,331.2,rob ver 1B,2013-03-19 21:56:00,
2013-03-19 14:57:00,84.4,30.0,29.41,SW,229,9.6,14.0,14,-99.99,,,0.00,689.6,rob ver 1A,2013-03-19 21:57:00,
2013-03-19 14:58:00,86.1,31.6,29.35,South,183,13.1,16.9,14,-99.99,,,0.00,532.7,rob ver 1B,2013-03-19 21:58:00,
2013-03-19 14:59:00,86.0,31.9,29.35,SSW,205,14.1,18.5,14,-99.99,,,0.00,688.9,rob ver 1B,2013-03-19 21:59:00,
2013-03-19 15:00:00,86.1,31.7,29.35,SSW,193,11.7,16.6,14,-99.99,,,0.00,795,rob ver 1B,2013-03-19 22:00:00,
2013-03-19 15:01:00,85.7,31.8,29.35,South,185,8.3,14.1,14,-99.99,,,0.00,783,rob ver 1B,2013-03-19 22:01:00,
2013-03-19 15:02:00,84.3,31.9,29.41,South,188,12.4,16.9,15,-99.99,,,0.00,690.1,rob ver 1A,2013-03-19 22:02:00,
2013-03-19 15:03:00,85.9,32.1,29.35,South,182,12.6,14.5,14,-99.99,,,0.00,728,rob ver 1B,2013-03-19 22:03:00,
2013-03-19 15:04:00,85.7,32.0,29.35,South,186,11.4,14.4,14,-99.99,,,0.00,726,rob ver 1B,2013-03-19 22:04:00,
2013-03-19 15:05:00,85.8,31.5,29.35,SSW,203,13.1,17.0,14,-99.99,,,0.00,708,rob ver 1B,2013-03-19 22:05:00,
2013-03-19 15:06:00,85.7,31.7,29.35,South,184,8.4,10.4,14,-99.99,,,0.00,682.4,rob ver 1B,2013-03-19 22:06:00,
2013-03-19 15:07:00,84.1,31.5,29.41,South,185,7.9,15.2,15,-99.99,,,0.00,600.5,rob ver 1A,2013-03-19 22:07:00,
2013-03-19 15:08:00,86.0,31.5,29.35,South,174,8.9,15.3,14,-99.99,,,0.00,673.2,rob ver 1B,2013-03-19 22:08:00,
2013-03-19 15:09:00,86.7,31.6,29.35,SSE,163,11.1,14.0,13,-99.99,,,0.00,702,rob ver 1B,2013-03-19 22:09:00,
2013-03-19 15:10:00,86.6,31.5,29.35,SSE,162,12.5,15.5,13,-99.99,,,0.00,702,rob ver 1B,2013-03-19 22:10:00,
2013-03-19 15:11:00,86.1,31.4,29.35,South,170,10.7,13.0,14,-99.99,,,0.00,717,rob ver 1B,2013-03-19 22:11:00,
2013-03-19 15:12:00,84.2,32.0,29.41,SSW,202,10.6,13.3,15,-99.99,,,0.00,567.1,rob ver 1A,2013-03-19 22:12:00,
2013-03-19 15:13:00,86.6,32.2,29.35,SSW,212,12.0,15.4,14,-99.99,,,0.00,543.6,rob ver 1B,2013-03-19 22:13:00,
2013-03-19 15:14:00,86.5,32.0,29.35,South,183,11.0,17.9,14,-99.99,,,0.00,630.6,rob ver 1B,2013-03-19 22:14:00,
2013-03-19 15:15:00,86.3,31.9,29.35,South,175,9.6,13.1,14,-99.99,,,0.00,533.8,rob ver 1B,2013-03-19 22:15:00,
2013-03-19 15:16:00,86.2,32.4,29.35,South,173,13.2,17.9,14,-99.99,,,0.00,468.8,rob ver 1B,2013-03-19 22:16:00,
2013-03-19 15:17:00,84.2,32.5,29.41,South,184,5.9,8.5,15,-99.99,,,0.00,688.3,rob ver 1A,2013-03-19 22:17:00,
2013-03-19 15:18:00,85.8,33.0,29.35,South,180,14.3,20.1,15,-99.99,,,0.00,624.2,rob ver 1B,2013-03-19 22:18:00,
2013-03-19 15:19:00,86.7,33.0,29.35,SSW,193,12.1,14.7,14,-99.99,,,0.00,663.4,rob ver 1B,2013-03-19 22:19:00,
2013-03-19 15:20:00,87.2,32.3,29.35,South,188,10.0,14.0,14,-99.99,,,0.00,714,rob ver 1B,2013-03-19 22:20:00,
2013-03-19 15:21:00,86.8,32.2,29.35,South,176,11.9,15.4,14,-99.99,,,0.00,696.8,rob ver 1B,2013-03-19 22:21:00,
2013-03-19 15:22:00,86.3,32.5,29.35,South,170,8.4,13.0,14,-99.99,,,0.00,661.3,rob ver 1B,2013-03-19 22:22:00,
2013-03-19 15:23:00,84.7,33.0,29.41,SSW,200,10.1,15.7,15,-99.99,,,0.00,690.4,rob ver 1A,2013-03-19 22:23:00,
2013-03-19 15:24:00,86.3,32.3,29.35,SSW,193,10.2,12.5,14,-99.99,,,0.00,729,rob ver 1B,2013-03-19 22:24:00,
2013-03-19 15:25:00,86.6,32.2,29.35,South,188,10.6,13.2,14,-99.99,,,0.00,747,rob ver 1B,2013-03-19 22:25:00,
2013-03-19 15:26:00,86.8,32.1,29.35,SSW,202,11.8,14.8,14,-99.99,,,0.00,747,rob ver 1B,2013-03-19 22:26:00,
2013-03-19 15:27:00,86.7,32.3,29.35,South,190,13.0,16.1,14,-99.99,,,0.00,725,rob ver 1B,2013-03-19 22:27:00,
2013-03-19 15:28:00,84.5,33.5,29.41,SSW,206,8.7,11.6,16,-99.99,,,0.00,643.9,rob ver 1A,2013-03-19 22:28:00,
2013-03-19 15:29:00,87.3,32.4,29.35,South,180,12.2,16.1,14,-99.99,,,0.00,547.6,rob ver 1B,2013-03-19 22:29:00,
2013-03-19 15:30:00,87.1,32.4,29.35,South,187,9.2,11.2,14,-99.99,,,0.00,650.4,rob ver 1B,2013-03-19 22:30:00,
2013-03-19 15:31:00,86.8,32.6,29.35,South,189,10.3,13.7,14,-99.99,,,0.00,367.9,rob ver 1B,2013-03-19 22:31:00,
2013-03-19 15:32:00,86.4,33.6,29.35,SSW,193,11.8,15.6,15,-99.99,,,0.00,369.9,rob ver 1B,2013-03-19 22:32:00,
2013-03-19 15:33:00,85.1,34.2,29.41,SSW,200,13.8,19.9,16,-99.99,,,0.00,609.8,rob ver 1A,2013-03-19 22:33:00,
2013-03-19 15:34:00,86.1,34.1,29.35,SSW,201,16.0,18.5,15,-99.99,,,0.00,545.3,rob ver 1B,2013-03-19 22:34:00,
2013-03-19 15:35:00,86.4,33.9,29.35,SSW,208,15.8,18.9,15,-99.99,,,0.00,540.9,rob ver 1B,2013-03-19 22:35:00,
2013-03-19 15:36:00,86.0,33.9,29.35,SSW,203,13.2,16.5,15,-99.99,,,0.00,513,rob ver 1B,2013-03-19 22:36:00,
2013-03-19 15:37:00,86.0,34.0,29.35,SSW,208,12.0,17.2,15,-99.99,,,0.00,539.2,rob ver 1B,2013-03-19 22:37:00,
2013-03-19 15:38:00,84.6,34.6,29.38,SSW,206,15.8,18.2,16,-99.99,,,0.00,676.2,rob ver 1A,2013-03-19 22:38:00,
2013-03-19 15:39:00,85.8,34.3,29.35,SSE,162,10.1,13.4,15,-99.99,,,0.00,569.7,rob ver 1B,2013-03-19 22:39:00,
2013-03-19 15:40:00,85.8,34.2,29.35,SSE,157,8.7,10.2,15,-99.99,,,0.00,544.5,rob ver 1B,2013-03-19 22:40:00,
2013-03-19 15:41:00,85.6,33.9,29.35,SSE,158,7.5,8.7,15,-99.99,,,0.00,547.7,rob ver 1B,2013-03-19 22:41:00,
2013-03-19 15:42:00,85.5,34.0,29.35,SSE,166,11.9,15.2,15,-99.99,,,0.00,545,rob ver 1B,2013-03-19 22:42:00,
2013-03-19 15:43:00,84.5,34.9,29.41,South,179,11.7,15.0,16,-99.99,,,0.00,645.5,rob ver 1A,2013-03-19 22:43:00,
2013-03-19 15:44:00,86.0,34.0,29.35,SSW,211,12.8,17.1,15,-99.99,,,0.00,643.2,rob ver 1B,2013-03-19 22:44:00,
2013-03-19 15:45:00,86.3,33.9,29.32,SSW,195,12.9,17.2,15,-99.99,,,0.00,538.9,rob ver 1B,2013-03-19 22:45:00,
2013-03-19 15:46:00,86.6,33.9,29.35,South,189,12.3,15.6,15,-99.99,,,0.00,388,rob ver 1B,2013-03-19 22:46:00,
2013-03-19 15:47:00,86.4,33.6,29.35,South,179,11.3,13.5,15,-99.99,,,0.00,321.4,rob ver 1B,2013-03-19 22:47:00,
2013-03-19 15:48:00,84.4,34.9,29.38,SSW,199,12.1,14.4,16,-99.99,,,0.00,603.4,rob ver 1A,2013-03-19 22:48:00,
2013-03-19 15:49:00,86.2,33.8,29.35,South,190,10.8,14.8,15,-99.99,,,0.00,225.7,rob ver 1B,2013-03-19 22:49:00,
2013-03-19 15:50:00,86.0,34.4,29.35,South,182,11.5,15.2,15,-99.99,,,0.00,221.9,rob ver 1B,2013-03-19 22:50:00,
2013-03-19 15:51:00,86.0,34.4,29.35,SSW,193,13.8,17.0,15,-99.99,,,0.00,234.9,rob ver 1B,2013-03-19 22:51:00,
2013-03-19 15:52:00,85.9,34.5,29.35,South,191,11.4,13.6,15,-99.99,,,0.00,253.9,rob ver 1B,2013-03-19 22:52:00,
2013-03-19 15:53:00,86.1,34.4,29.35,South,184,11.5,14.7,15,-99.99,,,0.00,284.7,rob ver 1B,2013-03-19 22:53:00,
2013-03-19 15:54:00,85.0,35.0,29.41,South,174,11.7,17.6,16,-99.99,,,0.00,522,rob ver 1A,2013-03-19 22:54:00,
2013-03-19 15:55:00,85.9,34.5,29.35,South,180,8.0,10.3,15,-99.99,,,0.00,345,rob ver 1B,2013-03-19 22:55:00,
2013-03-19 15:56:00,85.9,34.6,29.35,South,172,9.6,14.1,16,-99.99,,,0.00,319.7,rob ver 1B,2013-03-19 22:56:00,
2013-03-19 15:57:00,85.7,34.8,29.35,SSE,162,12.0,15.4,16,-99.99,,,0.00,328.6,rob ver 1B,2013-03-19 22:57:00,
2013-03-19 15:58:00,85.6,34.9,29.35,South,169,8.9,10.9,16,-99.99,,,0.00,311.5,rob ver 1B,2013-03-19 22:58:00,
2013-03-19 15:59:00,83.7,34.0,29.41,South,181,3.8,6.8,16,-99.99,,,0.00,411.1,rob ver 1A,2013-03-19 22:59:00,
2013-03-19 16:00:00,85.7,34.7,29.35,SSW,212,8.9,11.7,16,-99.99,,,0.00,289.9,rob ver 1B,2013-03-19 23:00:00,
2013-03-19 16:01:00,85.9,34.9,29.35,SSW,204,10.4,14.3,16,-99.99,,,0.00,288.1,rob ver 1B,2013-03-19 23:01:00,
2013-03-19 16:02:00,85.8,35.2,29.32,South,187,10.2,11.9,16,-99.99,,,0.00,303.8,rob ver 1B,2013-03-19 23:02:00,
2013-03-19 16:03:00,85.9,35.2,29.32,South,182,11.7,17.2,16,-99.99,,,0.00,291.2,rob ver 1B,2013-03-19 23:03:00,
2013-03-19 16:04:00,83.9,34.3,29.41,South,174,7.3,10.6,16,-99.99,,,0.00,450.8,rob ver 1A,2013-03-19 23:04:00,
2013-03-19 16:05:00,86.2,34.8,29.32,South,184,11.2,14.5,15,-99.99,,,0.00,301.6,rob ver 1B,2013-03-19 23:05:00,
2013-03-19 16:06:00,86.4,34.7,29.32,South,182,10.8,15.2,15,-99.99,,,0.00,313.2,rob ver 1B,2013-03-19 23:06:00,
2013-03-19 16:07:00,86.5,34.5,29.32,South,187,14.1,17.3,15,-99.99,,,0.00,304.3,rob ver 1B,2013-03-19 23:07:00,
2013-03-19 16:08:00,86.2,34.4,29.32,South,186,14.2,16.2,15,-99.99,,,0.00,291.2,rob ver 1B,2013-03-19 23:08:00,
2013-03-19 16:09:00,85.0,34.8,29.41,South,187,7.7,9.8,16,-99.99,,,0.00,365.9,rob ver 1A,2013-03-19 23:09:00,
2013-03-19 16:10:00,85.9,34.4,29.32,SSE,163,13.3,16.2,15,-99.99,,,0.00,281.4,rob ver 1B,2013-03-19 23:10:00,
2013-03-19 16:11:00,85.7,34.2,29.32,SSE,168,13.0,15.6,15,-99.99,,,0.00,277.6,rob ver 1B,2013-03-19 23:11:00,
2013-03-19 16:12:00,85.7,34.2,29.32,SSE,162,10.4,13.4,15,-99.99,,,0.00,274.2,rob ver 1B,2013-03-19 23:12:00,
2013-03-19 16:13:00,85.9,34.2,29.32,South,181,12.5,15.7,15,-99.99,,,0.00,274.2,rob ver 1B,2013-03-19 23:13:00,
2013-03-19 16:14:00,84.1,34.4,29.41,SSW,205,9.5,12.2,16,-99.99,,,0.00,498.8,rob ver 1A,2013-03-19 23:14:00,
2013-03-19 16:15:00,86.1,34.3,29.32,SSW,197,15.1,17.4,15,-99.99,,,0.00,271.6,rob ver 1B,2013-03-19 23:15:00,
2013-03-19 16:16:00,86.1,34.1,29.32,SSW,196,14.5,17.5,15,-99.99,,,0.00,273.5,rob ver 1B,2013-03-19 23:16:00,
2013-03-19 16:17:00,86.0,34.3,29.32,SSW,192,12.9,15.7,16,-99.99,,,0.00,273.9,rob ver 1B,2013-03-19 23:17:00,
2013-03-19 16:18:00,85.8,34.6,29.32,South,191,10.2,12.4,16,-99.99,,,0.00,269,rob ver 1B,2013-03-19 23:18:00,
2013-03-19 16:19:00,84.1,34.9,29.41,SSW,193,9.8,11.9,17,-99.99,,,0.00,579.5,rob ver 1A,2013-03-19 23:19:00,
2013-03-19 16:20:00,85.9,34.7,29.32,South,172,11.9,13.7,16,-99.99,,,0.00,260.4,rob ver 1B,2013-03-19 23:20:00,
2013-03-19 16:21:00,85.8,34.6,29.32,South,171,12.3,15.6,16,-99.99,,,0.00,258.8,rob ver 1B,2013-03-19 23:21:00,
2013-03-19 16:22:00,86.1,34.4,29.32,SSW,198,12.9,15.0,15,-99.99,,,0.00,260.5,rob ver 1B,2013-03-19 23:22:00,
2013-03-19 16:23:00,85.9,34.1,29.32,SSW,202,12.8,14.7,15,-99.99,,,0.00,257.8,rob ver 1B,2013-03-19 23:23:00,
2013-03-19 16:24:00,84.4,34.9,29.41,South,171,7.2,9.3,17,-99.99,,,0.00,513.2,rob ver 1A,2013-03-19 23:24:00,
2013-03-19 16:25:00,85.8,34.4,29.32,SSW,203,12.8,15.5,16,-99.99,,,0.00,255.2,rob ver 1B,2013-03-19 23:25:00,
2013-03-19 16:26:00,85.9,34.5,29.32,SSW,199,9.7,13.0,15,-99.99,,,0.00,254.9,rob ver 1B,2013-03-19 23:26:00,
2013-03-19 16:27:00,86.3,34.9,29.32,South,176,10.1,13.4,16,-99.99,,,0.00,253.6,rob ver 1B,2013-03-19 23:27:00,
2013-03-19 16:28:00,86.0,34.8,29.32,South,172,10.5,14.7,16,-99.99,,,0.00,251.9,rob ver 1B,2013-03-19 23:28:00,
2013-03-19 16:29:00,84.5,35.0,29.41,South,183,7.2,10.1,16,-99.99,,,0.00,489.6,rob ver 1A,2013-03-19 23:29:00,
2013-03-19 16:30:00,85.5,35.3,29.32,South,171,11.8,14.0,16,-99.99,,,0.00,259.1,rob ver 1B,2013-03-19 23:30:00,
2013-03-19 16:31:00,85.6,35.6,29.32,South,175,11.0,12.9,16,-99.99,,,0.00,267,rob ver 1B,2013-03-19 23:31:00,
2013-03-19 16:32:00,85.7,35.5,29.32,South,184,13.1,15.6,16,-99.99,,,0.00,269.6,rob ver 1B,2013-03-19 23:32:00,
2013-03-19 16:33:00,85.7,35.6,29.32,South,188,12.2,15.3,16,-99.99,,,0.00,272.1,rob ver 1B,2013-03-19 23:33:00,
2013-03-19 16:34:00,84.4,34.9,29.41,South,174,8.8,12.4,16,-99.99,,,0.00,379.1,rob ver 1A,2013-03-19 23:34:00,
2013-03-19 16:35:00,85.7,35.9,29.32,South,182,10.3,13.9,16,-99.99,,,0.00,254.4,rob ver 1B,2013-03-19 23:35:00,
2013-03-19 16:36:00,85.7,36.0,29.32,South,179,11.1,13.6,17,-99.99,,,0.00,250.8,rob ver 1B,2013-03-19 23:36:00,
2013-03-19 16:37:00,85.7,36.2,29.32,South,181,10.8,15.1,17,-99.99,,,0.00,252.6,rob ver 1B,2013-03-19 23:37:00,
2013-03-19 16:38:00,85.9,36.0,29.32,South,188,10.5,14.4,16,-99.99,,,0.00,259.2,rob ver 1B,2013-03-19 23:38:00,
2013-03-19 16:39:00,85.9,35.7,29.32,South,176,12.1,14.6,16,-99.99,,,0.00,267.7,rob ver 1B,2013-03-19 23:39:00,
2013-03-19 16:40:00,84.3,35.1,29.41,SSW,199,5.9,8.9,17,-99.99,,,0.00,332.4,rob ver 1A,2013-03-19 23:40:00,
2013-03-19 16:41:00,86.1,35.8,29.32,SSW,197,10.7,15.4,16,-99.99,,,0.00,253.9,rob ver 1B,2013-03-19 23:41:00,
2013-03-19 16:42:00,86.3,35.9,29.32,South,189,10.6,13.0,16,-99.99,,,0.00,268.3,rob ver 1B,2013-03-19 23:42:00,
2013-03-19 16:43:00,86.1,35.8,29.32,SSW,193,10.7,13.8,16,-99.99,,,0.00,269.3,rob ver 1B,2013-03-19 23:43:00,
2013-03-19 16:44:00,86.1,35.5,29.32,SSW,193,11.8,14.6,16,-99.99,,,0.00,282.1,rob ver 1B,2013-03-19 23:44:00,
2013-03-19 16:45:00,84.3,34.6,29.41,SSE,167,4.8,7.1,16,-99.99,,,0.00,431.3,rob ver 1A,2013-03-19 23:45:00,
2013-03-19 16:46:00,85.7,35.9,29.32,SSW,200,13.4,15.6,16,-99.99,,,0.00,281.8,rob ver 1B,2013-03-19 23:46:00,
2013-03-19 16:47:00,85.8,35.9,29.32,SSW,197,10.8,14.4,16,-99.99,,,0.00,276.5,rob ver 1B,2013-03-19 23:47:00,
2013-03-19 16:48:00,85.9,35.9,29.32,South,184,11.0,14.4,16,-99.99,,,0.00,288.8,rob ver 1B,2013-03-19 23:48:00,
2013-03-19 16:49:00,85.7,35.8,29.32,South,171,10.6,13.2,16,-99.99,,,0.00,289.6,rob ver 1B,2013-03-19 23:49:00,
2013-03-19 16:50:00,84.7,34.3,29.41,SSW,203,4.0,6.6,16,-99.99,,,0.00,407.4,rob ver 1A,2013-03-19 23:50:00,
2013-03-19 16:51:00,85.6,35.8,29.32,South,176,10.5,13.2,17,-99.99,,,0.00,291.3,rob ver 1B,2013-03-19 23:51:00,
2013-03-19 16:52:00,85.7,35.9,29.32,South,175,10.3,14.0,16,-99.99,,,0.00,252,rob ver 1B,2013-03-19 23:52:00,
2013-03-19 16:53:00,85.8,35.7,29.32,South,171,12.9,17.4,16,-99.99,,,0.00,263.4,rob ver 1B,2013-03-19 23:53:00,
2013-03-19 16:54:00,85.9,35.6,29.32,South,190,12.2,14.9,16,-99.99,,,0.00,288.8,rob ver 1B,2013-03-19 23:54:00,
2013-03-19 16:55:00,84.8,34.4,29.41,SSW,195,7.3,9.4,16,-99.99,,,0.00,349.9,rob ver 1A,2013-03-19 23:55:00,
2013-03-19 16:56:00,85.7,35.8,29.32,South,184,10.1,12.5,16,-99.99,,,0.00,267.4,rob ver 1B,2013-03-19 23:56:00,
2013-03-19 16:57:00,85.9,36.2,29.32,South,186,11.1,14.9,17,-99.99,,,0.00,279.7,rob ver 1B,2013-03-19 23:57:00,
2013-03-19 16:58:00,85.8,36.2,29.32,South,178,11.2,13.7,17,-99.99,,,0.00,287.4,rob ver 1B,2013-03-19 23:58:00,
2013-03-19 16:59:00,85.8,36.1,29.32,South,191,11.3,15.0,16,-99.99,,,0.00,286.7,rob ver 1B,2013-03-19 23:59:00,
2013-03-19 17:00:00,85.3,34.3,29.41,SSW,210,8.0,10.4,16,-99.99,,,0.00,348.3,rob ver 1A,2013-03-20 00:00:00,
2013-03-19 17:01:00,85.8,35.5,29.32,SSW,195,11.1,12.8,16,-99.99,,,0.00,243.1,rob ver 1B,2013-03-20 00:01:00,
2013-03-19 17:02:00,85.7,35.5,29.32,South,189,10.5,12.9,16,-99.99,,,0.00,214.5,rob ver 1B,2013-03-20 00:02:00,
2013-03-19 17:03:00,85.8,35.3,29.32,South,179,10.6,14.3,16,-99.99,,,0.00,210.4,rob ver 1B,2013-03-20 00:03:00,
2013-03-19 17:04:00,85.6,35.2,29.32,South,176,10.3,12.9,16,-99.99,,,0.00,209.4,rob ver 1B,2013-03-20 00:04:00,
2013-03-19 17:05:00,85.0,34.5,29.38,SSW,199,9.8,13.1,16,-99.99,,,0.00,273.4,rob ver 1A,2013-03-20 00:05:00,
2013-03-19 17:06:00,85.7,35.5,29.32,South,185,9.5,11.6,16,-99.99,,,0.00,202.5,rob ver 1B,2013-03-20 00:06:00,
2013-03-19 17:07:00,86.0,35.6,29.32,South,183,10.3,13.4,16,-99.99,,,0.00,206.6,rob ver 1B,2013-03-20 00:07:00,
2013-03-19 17:08:00,86.1,35.6,29.32,South,176,10.7,15.1,16,-99.99,,,0.00,221.2,rob ver 1B,2013-03-20 00:08:00,
2013-03-19 17:09:00,85.9,35.7,29.32,South,187,12.0,15.2,16,-99.99,,,0.00,221.5,rob ver 1B,2013-03-20 00:09:00,
2013-03-19 17:10:00,84.6,34.8,29.41,South,185,9.3,13.1,16,-99.99,,,0.00,279.6,rob ver 1A,2013-03-20 00:10:00,
2013-03-19 17:11:00,85.9,35.8,29.32,SSW,192,9.1,11.7,16,-99.99,,,0.00,195.5,rob ver 1B,2013-03-20 00:11:00,
2013-03-19 17:12:00,85.8,35.9,29.32,SSW,196,10.8,14.2,16,-99.99,,,0.00,188.1,rob ver 1B,2013-03-20 00:12:00,
2013-03-19 17:13:00,85.8,36.1,29.32,South,190,12.3,15.8,17,-99.99,,,0.00,193.3,rob ver 1B,2013-03-20 00:13:00,
2013-03-19 17:14:00,85.7,36.0,29.32,South,180,11.6,14.0,17,-99.99,,,0.00,174.5,rob ver 1B,2013-03-20 00:14:00,
2013-03-19 17:15:00,85.7,36.2,29.32,South,183,10.4,12.8,17,-99.99,,,0.00,164.8,rob ver 1B,2013-03-20 00:15:00,
2013-03-19 17:16:00,84.6,34.9,29.41,South,178,8.1,9.8,16,-99.99,,,0.00,355.2,rob ver 1A,2013-03-20 00:16:00,
2013-03-19 17:17:00,85.6,36.3,29.32,SSE,164,10.8,12.7,17,-99.99,,,0.00,147.8,rob ver 1B,2013-03-20 00:17:00,
2013-03-19 17:18:00,85.6,36.4,29.32,SSE,166,9.7,12.5,17,-99.99,,,0.00,145.8,rob ver 1B,2013-03-20 00:18:00,
2013-03-19 17:19:00,85.6,36.5,29.32,South,170,9.2,11.5,17,-99.99,,,0.00,142.7,rob ver 1B,2013-03-20 00:19:00,
2013-03-19 17:20:00,85.5,36.3,29.32,South,172,9.1,11.0,17,-99.99,,,0.00,141.2,rob ver 1B,2013-03-20 00:20:00,
2013-03-19 17:21:00,84.5,34.7,29.41,South,172,7.5,8.7,16,-99.99,,,0.00,335.8,rob ver 1A,2013-03-20 00:21:00,
2013-03-19 17:22:00,85.7,36.2,29.32,SSW,199,9.3,10.6,17,-99.99,,,0.00,157.1,rob ver 1B,2013-03-20 00:22:00,
2013-03-19 17:23:00,85.7,36.3,29.32,SSW,196,8.3,10.1,17,-99.99,,,0.00,153.4,rob ver 1B,2013-03-20 00:23:00,
2013-03-19 17:24:00,85.8,36.5,29.32,SSW,192,8.0,10.0,17,-99.99,,,0.00,163.8,rob ver 1B,2013-03-20 00:24:00,
2013-03-19 17:25:00,85.9,36.5,29.32,South,187,8.1,10.3,17,-99.99,,,0.00,145.5,rob ver 1B,2013-03-20 00:25:00,
2013-03-19 17:26:00,84.6,34.5,29.41,SW,215,7.5,9.9,16,-99.99,,,0.00,279.5,rob ver 1A,2013-03-20 00:26:00,
2013-03-19 17:27:00,85.9,36.0,29.32,SW,222,10.4,12.4,16,-99.99,,,0.00,181.2,rob ver 1B,2013-03-20 00:27:00,
2013-03-19 17:28:00,85.9,34.7,29.32,SW,219,9.6,11.9,16,-99.99,,,0.00,181.9,rob ver 1B,2013-03-20 00:28:00,
2013-03-19 17:29:00,86.0,35.7,29.32,SW,216,9.4,11.9,17,-99.99,,,0.00,206.8,rob ver 1B,2013-03-20 00:29:00,
2013-03-19 17:30:00,86.1,36.5,29.32,SSW,206,10.4,13.0,17,-99.99,,,0.00,178.6,rob ver 1B,2013-03-20 00:30:00,
2013-03-19 17:31:00,84.9,34.8,29.41,SSW,198,8.8,11.1,16,-99.99,,,0.00,245.4,rob ver 1A,2013-03-20 00:31:00,
2013-03-19 17:32:00,86.0,36.3,29.32,SSW,200,9.3,11.8,17,-99.99,,,0.00,187.8,rob ver 1B,2013-03-20 00:32:00,
2013-03-19 17:33:00,85.9,36.4,29.32,SSW,197,10.5,12.9,17,-99.99,,,0.00,200.2,rob ver 1B,2013-03-20 00:33:00,
2013-03-19 17:34:00,85.9,36.2,29.32,SSW,196,10.9,13.0,17,-99.99,,,0.00,168.6,rob ver 1B,2013-03-20 00:34:00,
2013-03-19 17:35:00,85.9,36.4,29.32,SSW,204,10.0,11.4,17,-99.99,,,0.00,130.4,rob ver 1B,2013-03-20 00:35:00,
2013-03-19 17:36:00,84.7,34.6,29.41,South,184,8.1,9.1,16,-99.99,,,0.00,185.8,rob ver 1A,2013-03-20 00:36:00,
2013-03-19 17:37:00,85.9,36.2,29.32,SSW,195,13.3,15.0,17,-99.99,,,0.00,126.2,rob ver 1B,2013-03-20 00:37:00,
2013-03-19 17:38:00,85.8,36.2,29.32,SSW,210,11.8,14.1,17,-99.99,,,0.00,107.1,rob ver 1B,2013-03-20 00:38:00,
2013-03-19 17:39:00,85.7,36.1,29.32,SSW,198,11.8,14.6,16,-99.99,,,0.00,100.9,rob ver 1B,2013-03-20 00:39:00,
2013-03-19 17:40:00,85.6,35.6,29.32,SSW,194,12.1,15.5,16,-99.99,,,0.00,98,rob ver 1B,2013-03-20 00:40:00,
2013-03-19 17:41:00,84.7,34.6,29.41,SSW,192,9.2,12.0,16,-99.99,,,0.00,200.2,rob ver 1A,2013-03-20 00:41:00,
2013-03-19 17:42:00,85.4,34.9,29.32,SSW,204,13.1,18.6,15,-99.99,,,0.00,91.7,rob ver 1B,2013-03-20 00:42:00,
2013-03-19 17:43:00,85.6,32.3,29.32,SW,219,16.4,20.5,13,-99.99,,,0.00,88.6,rob ver 1B,2013-03-20 00:43:00,
2013-03-19 17:44:00,85.9,30.6,29.32,SW,220,16.7,20.4,13,-99.99,,,0.00,85.2,rob ver 1B,2013-03-20 00:44:00,
2013-03-19 17:45:00,86.0,30.5,29.32,SW,226,16.3,19.4,13,-99.99,,,0.00,83.4,rob ver 1B,2013-03-20 00:45:00,
2013-03-19 17:46:00,84.3,34.7,29.41,SSW,208,7.1,8.1,16,-99.99,,,0.00,162,rob ver 1A,2013-03-20 00:46:00,
2013-03-19 17:47:00,86.1,30.6,29.29,SW,226,15.0,17.5,13,-99.99,,,0.00,77.3,rob ver 1B,2013-03-20 00:47:00,
2013-03-19 17:48:00,86.1,30.6,29.29,SW,224,14.9,17.1,13,-99.99,,,0.00,77,rob ver 1B,2013-03-20 00:48:00,
2013-03-19 17:49:00,86.1,30.6,29.29,SW,234,14.1,16.4,13,-99.99,,,0.00,77,rob ver 1B,2013-03-20 00:49:00,
2013-03-19 17:50:00,86.1,30.6,29.29,WSW,242,12.9,15.7,13,-99.99,,,0.00,77.3,rob ver 1B,2013-03-20 00:50:00,
2013-03-19 17:51:00,84.1,34.6,29.41,SSW,198,7.9,9.9,16,-99.99,,,0.00,119.3,rob ver 1A,2013-03-20 00:51:00,
2013-03-19 17:52:00,86.0,30.8,29.29,WSW,243,14.3,17.8,13,-99.99,,,0.00,78.3,rob ver 1B,2013-03-20 00:52:00,
2013-03-19 17:53:00,86.0,30.9,29.29,WSW,242,14.0,17.1,13,-99.99,,,0.00,78,rob ver 1B,2013-03-20 00:53:00,
2013-03-19 17:54:00,86.0,31.0,29.29,WSW,249,14.1,16.6,13,-99.99,,,0.00,73.1,rob ver 1B,2013-03-20 00:54:00,
2013-03-19 17:55:00,85.9,31.0,29.29,WSW,238,14.2,18.6,13,-99.99,,,0.00,69.3,rob ver 1B,2013-03-20 00:55:00,
2013-03-19 17:56:00,84.0,34.6,29.41,South,183,7.8,9.4,17,-99.99,,,0.00,116.6,rob ver 1A,2013-03-20 00:56:00,
2013-03-19 17:57:00,85.9,31.0,29.29,WSW,239,12.8,15.1,13,-99.99,,,0.00,70.1,rob ver 1B,2013-03-20 00:57:00,
2013-03-19 17:58:00,85.8,31.0,29.32,WSW,245,10.8,13.6,13,-99.99,,,0.00,72.1,rob ver 1B,2013-03-20 00:58:00,
2013-03-19 17:59:00,85.9,31.0,29.32,WSW,247,12.8,17.5,13,-99.99,,,0.00,66.85,rob ver 1B,2013-03-20 00:59:00,
2013-03-19 18:00:00,85.8,30.9,29.32,WSW,239,14.1,16.5,13,-99.99,,,0.00,62.91,rob ver 1B,2013-03-20 01:00:00,
2013-03-19 18:01:00,83.6,34.7,29.41,SSW,201,6.5,9.5,17,-99.99,,,0.00,69.63,rob ver 1A,2013-03-20 01:01:00,
2013-03-19 18:02:00,85.8,30.9,29.32,SW,227,12.8,14.6,13,-99.99,,,0.00,63.57,rob ver 1B,2013-03-20 01:02:00,
2013-03-19 18:03:00,85.8,31.0,29.29,SW,223,11.8,14.3,13,-99.99,,,0.00,65.21,rob ver 1B,2013-03-20 01:03:00,
2013-03-19 18:04:00,85.7,31.6,29.32,SW,219,9.6,11.2,14,-99.99,,,0.00,67.01,rob ver 1B,2013-03-20 01:04:00,
2013-03-19 18:05:00,85.6,35.1,29.32,SSW,212,8.7,10.2,17,-99.99,,,0.00,68.81,rob ver 1B,2013-03-20 01:05:00,
2013-03-19 18:06:00,83.4,34.6,29.41,SSW,201,6.6,9.1,17,-99.99,,,0.00,60.29,rob ver 1A,2013-03-20 01:06:00,
2013-03-19 18:07:00,85.1,34.0,29.32,SW,225,7.2,8.6,15,-99.99,,,0.00,69.96,rob ver 1B,2013-03-20 01:07:00,
2013-03-19 18:08:00,85.3,32.0,29.32,SW,224,6.8,8.2,14,-99.99,,,0.00,69.3,rob ver 1B,2013-03-20 01:08:00,
2013-03-19 18:09:00,85.4,31.3,29.32,SW,226,8.8,11.1,14,-99.99,,,0.00,67.83,rob ver 1B,2013-03-20 01:09:00,
2013-03-19 18:10:00,85.5,31.4,29.32,SW,233,11.0,15.0,14,-99.99,,,0.00,66.19,rob ver 1B,2013-03-20 01:10:00,
2013-03-19 18:11:00,83.3,35.1,29.41,SSW,192,7.4,9.5,17,-99.99,,,0.00,60.29,rob ver 1A,2013-03-20 01:11:00,
2013-03-19 18:12:00,85.5,31.7,29.32,SW,231,11.8,17.7,14,-99.99,,,0.00,61.6,rob ver 1B,2013-03-20 01:12:00,
2013-03-19 18:13:00,85.5,31.9,29.32,SW,226,10.0,12.0,14,-99.99,,,0.00,58.98,rob ver 1B,2013-03-20 01:13:00,
2013-03-19 18:14:00,85.4,32.1,29.32,SW,229,10.1,11.6,14,-99.99,,,0.00,56.69,rob ver 1B,2013-03-20 01:14:00,
2013-03-19 18:15:00,85.4,32.2,29.32,SW,225,10.4,12.9,14,-99.99,,,0.00,56.69,rob ver 1B,2013-03-20 01:15:00,
2013-03-19 18:16:00,85.4,32.3,29.32,SW,224,10.8,12.8,14,-99.99,,,0.00,60.79,rob ver 1B,2013-03-20 01:16:00,
2013-03-19 18:17:00,82.9,35.5,29.41,South,171,7.7,9.4,18,-99.99,,,0.00,57.02,rob ver 1A,2013-03-20 01:17:00,
2013-03-19 18:18:00,85.3,32.4,29.29,SW,224,13.1,14.9,14,-99.99,,,0.00,61.6,rob ver 1B,2013-03-20 01:18:00,
2013-03-19 18:19:00,85.3,32.5,29.29,SW,223,12.6,15.7,15,-99.99,,,0.00,48.82,rob ver 1B,2013-03-20 01:19:00,
2013-03-19 18:20:00,85.3,32.6,29.29,SW,222,13.1,15.0,15,-99.99,,,0.00,42.6,rob ver 1B,2013-03-20 01:20:00,
2013-03-19 18:21:00,85.2,32.7,29.32,SW,222,13.0,15.0,15,-99.99,,,0.00,38.34,rob ver 1B,2013-03-20 01:21:00,
2013-03-19 18:22:00,82.6,35.5,29.41,South,173,8.5,9.9,18,-99.99,,,0.00,44.89,rob ver 1A,2013-03-20 01:22:00,
2013-03-19 18:23:00,85.1,32.9,29.32,SW,224,13.0,16.1,15,-99.99,,,0.00,34.57,rob ver 1B,2013-03-20 01:23:00,
2013-03-19 18:24:00,85.1,32.9,29.32,SW,230,12.3,15.1,15,-99.99,,,0.00,39.32,rob ver 1B,2013-03-20 01:24:00,
2013-03-19 18:25:00,85.1,32.9,29.32,SW,232,13.8,17.5,15,-99.99,,,0.00,41.94,rob ver 1B,2013-03-20 01:25:00,
2013-03-19 18:26:00,85.0,33.0,29.32,SW,235,12.7,15.1,15,-99.99,,,0.00,33.92,rob ver 1B,2013-03-20 01:26:00,
2013-03-19 18:27:00,82.4,35.6,29.41,South,176,6.7,9.0,18,-99.99,,,0.00,30.8,rob ver 1A,2013-03-20 01:27:00,
2013-03-19 18:28:00,85.0,33.0,29.32,SW,234,11.0,14.9,15,-99.99,,,0.00,26.21,rob ver 1B,2013-03-20 01:28:00,
2013-03-19 18:29:00,84.9,33.0,29.32,SW,235,9.6,11.4,15,-99.99,,,0.00,24.9,rob ver 1B,2013-03-20 01:29:00,
2013-03-19 18:30:00,84.8,33.1,29.32,SW,236,10.9,14.3,15,-99.99,,,0.00,24.25,rob ver 1B,2013-03-20 01:30:00,
2013-03-19 18:31:00,84.8,33.1,29.32,SW,235,11.0,13.0,15,-99.99,,,0.00,23.59,rob ver 1B,2013-03-20 01:31:00,
2013-03-19 18:32:00,82.2,35.5,29.41,South,175,7.6,9.4,18,-99.99,,,0.00,20.32,rob ver 1A,2013-03-20 01:32:00,
2013-03-19 18:33:00,84.7,33.1,29.32,SW,231,10.3,12.8,15,-99.99,,,0.00,21.63,rob ver 1B,2013-03-20 01:33:00,
2013-03-19 18:34:00,84.7,33.1,29.32,SW,231,12.2,14.3,15,-99.99,,,0.00,20.64,rob ver 1B,2013-03-20 01:34:00,
2013-03-19 18:35:00,84.7,33.1,29.32,SW,235,10.4,12.9,15,-99.99,,,0.00,19.33,rob ver 1B,2013-03-20 01:35:00,
2013-03-19 18:36:00,84.7,33.2,29.32,SW,231,9.8,12.4,15,-99.99,,,0.00,18.68,rob ver 1B,2013-03-20 01:36:00,
2013-03-19 18:37:00,81.9,35.7,29.41,South,170,7.8,9.7,19,-99.99,,,0.00,13.11,rob ver 1A,2013-03-20 01:37:00,
2013-03-19 18:38:00,84.5,33.3,29.32,WSW,237,11.9,15.7,15,-99.99,,,0.00,18.68,rob ver 1B,2013-03-20 01:38:00,
2013-03-19 18:39:00,84.6,33.4,29.32,WSW,242,14.0,17.9,15,-99.99,,,0.00,21.79,rob ver 1B,2013-03-20 01:39:00,
2013-03-19 18:40:00,84.6,33.4,29.32,SW,234,13.7,17.2,15,-99.99,,,0.00,20.81,rob ver 1B,2013-03-20 01:40:00,
2013-03-19 18:41:00,84.5,33.4,29.32,WSW,241,14.1,17.6,16,-99.99,,,0.00,19.66,rob ver 1B,2013-03-20 01:41:00,
2013-03-19 18:42:00,81.7,36.0,29.41,South,174,8.3,10.4,19,-99.99,,,0.00,6.554,rob ver 1A,2013-03-20 01:42:00,
2013-03-19 18:43:00,84.5,33.5,29.32,WSW,237,14.6,18.6,16,-99.99,,,0.00,11.14,rob ver 1B,2013-03-20 01:43:00,
2013-03-19 18:44:00,84.5,33.5,29.32,WSW,239,13.0,16.1,16,-99.99,,,0.00,9.5,rob ver 1B,2013-03-20 01:44:00,
2013-03-19 18:45:00,84.5,33.5,29.32,WSW,238,16.3,20.2,16,-99.99,,,0.00,7.21,rob ver 1B,2013-03-20 01:45:00,
2013-03-19 18:46:00,84.5,33.5,29.32,WSW,243,15.6,19.3,16,-99.99,,,0.00,5.898,rob ver 1B,2013-03-20 01:46:00,
2013-03-19 18:47:00,81.5,36.0,29.41,South,173,7.9,9.4,19,-99.99,,,0.00,2.294,rob ver 1A,2013-03-20 01:47:00,
2013-03-19 18:48:00,84.4,33.5,29.32,WSW,246,14.3,17.9,16,-99.99,,,0.00,4.26,rob ver 1B,2013-03-20 01:48:00,
2013-03-19 18:49:00,84.4,33.6,29.32,WSW,245,14.3,17.7,16,-99.99,,,0.00,3.441,rob ver 1B,2013-03-20 01:49:00,
2013-03-19 18:50:00,84.3,33.6,29.32,WSW,239,13.4,17.3,16,-99.99,,,0.00,3.277,rob ver 1B,2013-03-20 01:50:00,
2013-03-19 18:51:00,84.2,33.7,29.32,WSW,245,12.0,15.0,16,-99.99,,,0.00,3.277,rob ver 1B,2013-03-20 01:51:00,
2013-03-19 18:52:00,84.0,33.7,29.32,WSW,244,10.9,13.4,16,-99.99,,,0.00,3.277,rob ver 1B,2013-03-20 01:52:00,
2013-03-19 18:53:00,81.1,36.0,29.41,SSE,163,6.0,7.1,19,-99.99,,,0.00,1.147,rob ver 1A,2013-03-20 01:53:00,
2013-03-19 18:54:00,83.9,33.8,29.32,WSW,244,13.2,16.4,16,-99.99,,,0.00,2.949,rob ver 1B,2013-03-20 01:54:00,
2013-03-19 18:55:00,84.0,33.8,29.32,WSW,250,12.6,15.4,16,-99.99,,,0.00,2.458,rob ver 1B,2013-03-20 01:55:00,
2013-03-19 18:56:00,83.9,33.8,29.32,WSW,239,12.1,16.3,16,-99.99,,,0.00,1.639,rob ver 1B,2013-03-20 01:56:00,
2013-03-19 18:57:00,83.8,33.8,29.32,WSW,248,14.9,18.6,16,-99.99,,,0.00,.983,rob ver 1B,2013-03-20 01:57:00,
2013-03-19 18:58:00,80.9,36.0,29.41,South,169,5.7,7.5,19,-99.99,,,0.00,.656,rob ver 1A,2013-03-20 01:58:00,
2013-03-19 18:59:00,83.8,33.8,29.32,WSW,245,12.1,16.6,16,-99.99,,,0.00,.655,rob ver 1B,2013-03-20 01:59:00,
2013-03-19 19:00:00,83.7,33.8,29.32,WSW,245,13.6,16.7,16,-99.99,,,0.00,.492,rob ver 1B,2013-03-20 02:00:00,
2013-03-19 19:01:00,83.7,33.8,29.32,WSW,241,11.7,13.4,16,-99.99,,,0.00,.328,rob ver 1B,2013-03-20 02:01:00,
2013-03-19 19:02:00,83.6,33.9,29.32,WSW,241,10.9,14.0,16,-99.99,,,0.00,.328,rob ver 1B,2013-03-20 02:02:00,
2013-03-19 19:03:00,80.7,36.0,29.41,South,173,5.2,6.4,20,-99.99,,,0.00,0,rob ver 1A,2013-03-20 02:03:00,
2013-03-19 19:04:00,83.6,34.0,29.32,WSW,244,12.8,16.5,16,-99.99,,,0.00,0,rob ver 1B,2013-03-20 02:04:00,
2013-03-19 19:05:00,83.6,34.0,29.32,WSW,241,13.8,17.5,16,-99.99,,,0.00,0,rob ver 1B,2013-03-20 02:05:00,
2013-03-19 19:06:00,83.6,34.1,29.32,WSW,238,13.2,17.9,16,-99.99,,,0.00,.164,rob ver 1B,2013-03-20 02:06:00,
2013-03-19 19:07:00,83.5,34.1,29.32,WSW,241,11.3,13.8,17,-99.99,,,0.00,0,rob ver 1B,2013-03-20 02:07:00,
2013-03-19 19:08:00,80.4,36.2,29.41,South,172,5.4,6.6,20,-99.99,,,0.00,0,rob ver 1A,2013-03-20 02:08:00,
2013-03-19 19:09:00,83.5,34.3,29.32,WSW,246,13.4,15.6,17,-99.99,,,0.00,0,rob ver 1B,2013-03-20 02:09:00,
2013-03-19 19:10:00,83.5,34.3,29.32,WSW,245,11.8,14.4,17,-99.99,,,0.00,0,rob ver 1B,2013-03-20 02:10:00,
2013-03-19 19:11:00,83.4,34.3,29.32,WSW,244,11.7,14.0,17,-99.99,,,0.00,0,rob ver 1B,2013-03-20 02:11:00,
2013-03-19 19:12:00,83.3,34.3,29.32,WSW,242,10.6,13.2,17,-99.99,,,0.00,0,rob ver 1B,2013-03-20 02:12:00,
2013-03-19 19:13:00,80.1,36.2,29.41,South,169,5.7,6.9,20,-99.99,,,0.00,0,rob ver 1A,2013-03-20 02:13:00,
2013-03-19 19:14:00,83.2,34.5,29.32,WSW,243,12.6,16.0,17,-99.99,,,0.00,0,rob ver 1B,2013-03-20 02:14:00,
2013-03-19 19:15:00,83.3,34.6,29.32,WSW,244,12.6,16.7,17,-99.99,,,0.00,0,rob ver 1B,2013-03-20 02:15:00,
2013-03-19 19:16:00,83.4,34.6,29.32,WSW,239,12.1,16.5,17,-99.99,,,0.00,0,rob ver 1B,2013-03-20 02:16:00,
2013-03-19 19:17:00,83.2,34.6,29.32,WSW,239,10.6,13.0,17,-99.99,,,0.00,0,rob ver 1B,2013-03-20 02:17:00,
2013-03-19 19:18:00,79.8,36.2,29.41,SSE,167,6.3,7.4,20,-99.99,,,0.00,0,rob ver 1A,2013-03-20 02:18:00,
2013-03-19 19:19:00,83.0,34.6,29.32,WSW,239,9.5,11.7,17,-99.99,,,0.00,0,rob ver 1B,2013-03-20 02:19:00,
2013-03-19 19:20:00,83.0,34.7,29.32,WSW,247,9.1,12.8,17,-99.99,,,0.00,0,rob ver 1B,2013-03-20 02:20:00,
2013-03-19 19:21:00,82.9,34.7,29.32,WSW,239,10.2,12.6,17,-99.99,,,0.00,0,rob ver 1B,2013-03-20 02:21:00,
2013-03-19 19:22:00,82.9,34.8,29.32,WSW,239,9.2,11.3,17,-99.99,,,0.00,0,rob ver 1B,2013-03-20 02:22:00,
2013-03-19 19:23:00,79.6,36.2,29.41,SSE,164,4.8,5.6,20,-99.99,,,0.00,0,rob ver 1A,2013-03-20 02:23:00,
2013-03-19 19:24:00,83.0,35.0,29.32,WSW,247,11.0,12.8,17,-99.99,,,0.00,0,rob ver 1B,2013-03-20 02:24:00,
2013-03-19 19:25:00,82.9,35.2,29.32,WSW,248,12.3,16.1,18,-99.99,,,0.00,0,rob ver 1B,2013-03-20 02:25:00,
2013-03-19 19:26:00,83.0,35.3,29.32,WSW,244,13.5,17.0,18,-99.99,,,0.00,0,rob ver 1B,2013-03-20 02:26:00,
2013-03-19 19:27:00,83.0,35.5,29.32,WSW,246,13.7,16.2,18,-99.99,,,0.00,0,rob ver 1B,2013-03-20 02:27:00,
2013-03-19 19:28:00,79.3,36.2,29.41,SSE,168,5.1,6.1,21,-99.99,,,0.00,0,rob ver 1A,2013-03-20 02:28:00,
2013-03-19 19:29:00,82.9,35.5,29.32,WSW,244,10.8,13.2,18,-99.99,,,0.00,0,rob ver 1B,2013-03-20 02:29:00,
2013-03-19 19:30:00,82.8,35.5,29.32,WSW,243,11.5,13.4,18,-99.99,,,0.00,0,rob ver 1B,2013-03-20 02:30:00,
2013-03-19 19:31:00,82.8,35.5,29.32,WSW,241,10.8,13.1,18,-99.99,,,0.00,0,rob ver 1B,2013-03-20 02:31:00,
2013-03-19 19:32:00,82.7,35.5,29.32,SW,236,13.5,18.8,18,-99.99,,,0.00,0,rob ver 1B,2013-03-20 02:32:00,
2013-03-19 19:33:00,79.1,36.3,29.41,SSE,164,5.3,6.1,21,-99.99,,,0.00,0,rob ver 1A,2013-03-20 02:33:00,
2013-03-19 19:34:00,82.8,35.6,29.32,WSW,246,13.0,15.4,18,-99.99,,,0.00,0,rob ver 1B,2013-03-20 02:34:00,
2013-03-19 19:35:00,82.8,35.6,29.32,WSW,243,12.7,15.3,18,-99.99,,,0.00,0,rob ver 1B,2013-03-20 02:35:00,
2013-03-19 19:36:00,82.8,35.6,29.32,WSW,242,11.8,14.3,18,-99.99,,,0.00,0,rob ver 1B,2013-03-20 02:36:00,
2013-03-19 19:37:00,82.7,35.6,29.32,WSW,244,11.7,14.9,18,-99.99,,,0.00,0,rob ver 1B,2013-03-20 02:37:00,
2013-03-19 19:38:00,78.8,36.2,29.41,SSE,162,4.6,5.7,21,-99.99,,,0.00,0,rob ver 1A,2013-03-20 02:38:00,
2013-03-19 19:39:00,82.5,35.7,29.32,WSW,239,11.2,13.5,18,-99.99,,,0.00,0,rob ver 1B,2013-03-20 02:39:00,
2013-03-19 19:40:00,82.5,35.8,29.32,WSW,238,11.3,15.1,18,-99.99,,,0.00,0,rob ver 1B,2013-03-20 02:40:00,
2013-03-19 19:41:00,82.4,35.8,29.32,WSW,237,9.6,13.8,18,-99.99,,,0.00,0,rob ver 1B,2013-03-20 02:41:00,
2013-03-19 19:42:00,82.2,35.9,29.32,SW,234,10.7,13.2,19,-99.99,,,0.00,0,rob ver 1B,2013-03-20 02:42:00,
2013-03-19 19:43:00,78.5,36.3,29.41,SSE,155,3.3,3.9,21,-99.99,,,0.00,0,rob ver 1A,2013-03-20 02:43:00,
2013-03-19 19:44:00,82.1,36.1,29.32,SW,234,11.0,15.2,19,-99.99,,,0.00,0,rob ver 1B,2013-03-20 02:44:00,
2013-03-19 19:45:00,82.1,36.1,29.32,WSW,237,10.6,13.0,19,-99.99,,,0.00,0,rob ver 1B,2013-03-20 02:45:00,
2013-03-19 19:46:00,82.0,36.2,29.32,SW,235,10.9,13.7,19,-99.99,,,0.00,0,rob ver 1B,2013-03-20 02:46:00,
2013-03-19 19:47:00,82.0,36.3,29.32,SW,234,11.1,13.3,19,-99.99,,,0.00,0,rob ver 1B,2013-03-20 02:47:00,
2013-03-19 19:48:00,78.3,36.2,29.41,SSE,162,2.3,2.7,21,-99.99,,,0.00,0,rob ver 1A,2013-03-20 02:48:00,
2013-03-19 19:49:00,82.1,36.6,29.32,SW,233,12.0,16.9,19,-99.99,,,0.00,0,rob ver 1B,2013-03-20 02:49:00,
2013-03-19 19:50:00,81.9,36.6,29.32,WSW,237,11.2,14.6,19,-99.99,,,0.00,0,rob ver 1B,2013-03-20 02:50:00,
2013-03-19 19:51:00,81.9,36.7,29.32,SW,233,12.0,14.4,19,-99.99,,,0.00,0,rob ver 1B,2013-03-20 02:51:00,
2013-03-19 19:52:00,81.9,36.8,29.32,SW,235,12.4,15.4,19,-99.99,,,0.00,0,rob ver 1B,2013-03-20 02:52:00,
2013-03-19 19:53:00,82.0,36.8,29.32,SW,231,12.1,14.6,19,-99.99,,,0.00,0,rob ver 1B,2013-03-20 02:53:00,
2013-03-19 19:54:00,78.1,36.2,29.41,SSE,151,2.0,2.8,22,-99.99,,,0.00,0,rob ver 1A,2013-03-20 02:54:00,
2013-03-19 19:55:00,82.0,36.8,29.32,SW,234,13.2,15.8,19,-99.99,,,0.00,0,rob ver 1B,2013-03-20 02:55:00,
2013-03-19 19:56:00,82.0,36.7,29.32,SW,234,12.2,15.5,19,-99.99,,,0.00,0,rob ver 1B,2013-03-20 02:56:00,
2013-03-19 19:57:00,81.9,36.6,29.32,SW,229,12.1,14.4,19,-99.99,,,0.00,0,rob ver 1B,2013-03-20 02:57:00,
2013-03-19 19:58:00,81.8,36.3,29.32,SW,229,11.8,14.0,19,-99.99,,,0.00,0,rob ver 1B,2013-03-20 02:58:00,
2013-03-19 19:59:00,78.0,36.1,29.41,SE,137,2.0,2.7,22,-99.99,,,0.00,0,rob ver 1A,2013-03-20 02:59:00,
2013-03-19 20:00:00,81.7,35.2,29.32,SW,231,13.2,16.5,18,-99.99,,,0.00,0,rob ver 1B,2013-03-20 03:00:00,
2013-03-19 20:01:00,81.7,35.1,29.32,SW,231,12.7,15.1,18,-99.99,,,0.00,0,rob ver 1B,2013-03-20 03:01:00,
2013-03-19 20:02:00,81.6,34.0,29.32,SW,232,14.9,19.2,17,-99.99,,,0.00,0,rob ver 1B,2013-03-20 03:02:00,
2013-03-19 20:03:00,81.8,32.8,29.32,SW,233,14.0,16.7,16,-99.99,,,0.00,0,rob ver 1B,2013-03-20 03:03:00,
2013-03-19 20:04:00,77.5,36.1,29.41,ESE,102,1.4,1.8,22,-99.99,,,0.00,0,rob ver 1A,2013-03-20 03:04:00,
2013-03-19 20:05:00,81.7,32.3,29.32,SW,234,13.0,15.7,16,-99.99,,,0.00,0,rob ver 1B,2013-03-20 03:05:00,
2013-03-19 20:06:00,81.7,32.0,29.32,SW,234,14.0,16.6,16,-99.99,,,0.00,0,rob ver 1B,2013-03-20 03:06:00,
2013-03-19 20:07:00,81.7,31.7,29.32,SW,236,13.3,16.5,16,-99.99,,,0.00,0,rob ver 1B,2013-03-20 03:07:00,
2013-03-19 20:08:00,81.6,31.7,29.32,SW,234,11.9,13.8,16,-99.99,,,0.00,0,rob ver 1B,2013-03-20 03:08:00,
2013-03-19 20:09:00,77.3,36.1,29.41,East,97,0.7,1.3,22,-99.99,,,0.00,0,rob ver 1A,2013-03-20 03:09:00,
2013-03-19 20:10:00,81.5,31.6,29.32,SW,229,14.5,18.5,16,-99.99,,,0.00,0,rob ver 1B,2013-03-20 03:10:00,
2013-03-19 20:11:00,81.5,31.9,29.32,SW,227,13.2,16.5,16,-99.99,,,0.00,0,rob ver 1B,2013-03-20 03:11:00,
2013-03-19 20:12:00,81.4,32.1,29.32,SW,226,11.9,14.5,16,-99.99,,,0.00,0,rob ver 1B,2013-03-20 03:12:00,
2013-03-19 20:13:00,81.2,32.1,29.32,SW,223,12.8,16.0,16,-99.99,,,0.00,0,rob ver 1B,2013-03-20 03:13:00,
2013-03-19 20:14:00,77.3,36.0,29.41,ENE,64,0.7,1.0,22,-99.99,,,0.00,0,rob ver 1A,2013-03-20 03:14:00,
2013-03-19 20:15:00,81.1,32.2,29.32,SW,222,12.8,15.2,16,-99.99,,,0.00,0,rob ver 1B,2013-03-20 03:15:00,
2013-03-19 20:16:00,81.0,32.0,29.32,SW,226,13.3,17.0,16,-99.99,,,0.00,0,rob ver 1B,2013-03-20 03:16:00,
2013-03-19 20:17:00,81.0,32.0,29.32,SW,227,12.3,16.5,16,-99.99,,,0.00,0,rob ver 1B,2013-03-20 03:17:00,
2013-03-19 20:18:00,80.9,32.0,29.32,SW,225,12.3,14.5,16,-99.99,,,0.00,0,rob ver 1B,2013-03-20 03:18:00,
2013-03-19 20:19:00,77.4,36.0,29.44,NE,52,1.2,1.9,22,-99.99,,,0.00,0,rob ver 1A,2013-03-20 03:19:00,
2013-03-19 20:20:00,80.5,32.0,29.32,SW,218,11.0,14.1,17,-99.99,,,0.00,0,rob ver 1B,2013-03-20 03:20:00,
2013-03-19 20:21:00,80.5,31.7,29.32,SW,225,12.8,15.2,16,-99.99,,,0.00,0,rob ver 1B,2013-03-20 03:21:00,
2013-03-19 20:22:00,80.6,31.5,29.32,SW,224,12.3,15.1,16,-99.99,,,0.00,0,rob ver 1B,2013-03-20 03:22:00,
2013-03-19 20:23:00,80.5,31.8,29.32,SW,222,10.6,12.9,17,-99.99,,,0.00,0,rob ver 1B,2013-03-20 03:23:00,
2013-03-19 20:24:00,77.8,35.9,29.44,ENE,60,1.3,1.7,21,-99.99,,,0.00,0,rob ver 1A,2013-03-20 03:24:00,
2013-03-19 20:25:00,80.3,32.5,29.32,SW,222,10.0,12.2,17,-99.99,,,0.00,0,rob ver 1B,2013-03-20 03:25:00,
2013-03-19 20:26:00,80.2,32.7,29.32,SW,224,9.5,12.0,17,-99.99,,,0.00,0,rob ver 1B,2013-03-20 03:26:00,
2013-03-19 20:27:00,80.1,32.7,29.32,SW,228,11.7,14.6,17,-99.99,,,0.00,0,rob ver 1B,2013-03-20 03:27:00,
2013-03-19 20:28:00,80.3,32.6,29.32,SW,230,12.1,15.6,17,-99.99,,,0.00,0,rob ver 1B,2013-03-20 03:28:00,
2013-03-19 20:29:00,77.8,35.8,29.44,ESE,119,2.6,4.6,21,-99.99,,,0.00,0,rob ver 1A,2013-03-20 03:29:00,
2013-03-19 20:30:00,80.2,32.4,29.32,SW,231,12.8,16.8,17,-99.99,,,0.00,0,rob ver 1B,2013-03-20 03:30:00,
2013-03-19 20:31:00,80.3,32.4,29.32,SW,231,12.6,16.6,17,-99.99,,,0.00,0,rob ver 1B,2013-03-20 03:31:00,
2013-03-19 20:32:00,80.4,32.4,29.32,SW,235,11.4,15.9,17,-99.99,,,0.00,0,rob ver 1B,2013-03-20 03:32:00,
2013-03-19 20:33:00,80.3,32.3,29.32,SW,232,13.1,16.6,17,-99.99,,,0.00,0,rob ver 1B,2013-03-20 03:33:00,
2013-03-19 20:34:00,80.5,32.2,29.32,SW,235,12.4,15.9,17,-99.99,,,0.00,0,rob ver 1B,2013-03-20 03:34:00,
2013-03-19 20:35:00,78.1,35.8,29.44,ESE,116,1.2,1.6,21,-99.99,,,0.00,0,rob ver 1A,2013-03-20 03:35:00,
2013-03-19 20:36:00,80.5,32.0,29.32,SW,231,12.4,15.4,17,-99.99,,,0.00,0,rob ver 1B,2013-03-20 03:36:00,
2013-03-19 20:37:00,80.5,32.1,29.32,SW,234,9.6,13.5,17,-99.99,,,0.00,0,rob ver 1B,2013-03-20 03:37:00,
2013-03-19 20:38:00,80.3,32.1,29.32,SW,234,9.9,12.0,17,-99.99,,,0.00,0,rob ver 1B,2013-03-20 03:38:00,
2013-03-19 20:39:00,80.2,32.1,29.32,SW,231,9.5,12.3,17,-99.99,,,0.00,0,rob ver 1B,2013-03-20 03:39:00,
2013-03-19 20:40:00,77.9,35.7,29.44,ESE,114,1.7,2.0,21,-99.99,,,0.00,0,rob ver 1A,2013-03-20 03:40:00,
2013-03-19 20:41:00,80.2,31.9,29.32,SW,233,12.6,16.0,17,-99.99,,,0.00,0,rob ver 1B,2013-03-20 03:41:00,
2013-03-19 20:42:00,80.2,31.8,29.32,SW,229,11.4,14.5,17,-99.99,,,0.00,0,rob ver 1B,2013-03-20 03:42:00,
2013-03-19 20:43:00,80.2,31.7,29.32,SW,235,13.5,20.4,17,-99.99,,,0.00,0,rob ver 1B,2013-03-20 03:43:00,
2013-03-19 20:44:00,80.3,31.7,29.32,SW,234,16.6,19.6,17,-99.99,,,0.00,0,rob ver 1B,2013-03-20 03:44:00,
2013-03-19 20:45:00,78.0,35.7,29.44,ESE,110,2.4,2.9,21,-99.99,,,0.00,0,rob ver 1A,2013-03-20 03:45:00,
2013-03-19 20:46:00,80.3,31.4,29.32,SW,233,13.6,16.4,17,-99.99,,,0.00,0,rob ver 1B,2013-03-20 03:46:00,
2013-03-19 20:47:00,80.1,31.3,29.32,SW,234,13.4,17.7,16,-99.99,,,0.00,0,rob ver 1B,2013-03-20 03:47:00,
2013-03-19 20:48:00,80.1,31.3,29.32,WSW,237,15.3,19.9,16,-99.99,,,0.00,0,rob ver 1B,2013-03-20 03:48:00,
2013-03-19 20:49:00,80.2,31.0,29.32,WSW,237,16.6,20.4,16,-99.99,,,0.00,0,rob ver 1B,2013-03-20 03:49:00,
2013-03-19 20:50:00,78.0,35.7,29.44,ESE,104,3.1,3.6,21,-99.99,,,0.00,0,rob ver 1A,2013-03-20 03:50:00,
2013-03-19 20:51:00,80.1,30.9,29.32,SW,233,14.0,16.4,16,-99.99,,,0.00,0,rob ver 1B,2013-03-20 03:51:00,
2013-03-19 20:52:00,80.1,31.0,29.32,SW,234,14.2,18.8,16,-99.99,,,0.00,0,rob ver 1B,2013-03-20 03:52:00,
2013-03-19 20:53:00,80.0,31.1,29.32,SW,231,14.3,17.9,16,-99.99,,,0.00,0,rob ver 1B,2013-03-20 03:53:00,
2013-03-19 20:54:00,80.0,31.2,29.32,SW,230,12.9,15.6,16,-99.99,,,0.00,0,rob ver 1B,2013-03-20 03:54:00,
2013-03-19 20:55:00,77.9,35.6,29.44,ESE,120,2.6,3.1,21,-99.99,,,0.00,0,rob ver 1A,2013-03-20 03:55:00,
2013-03-19 20:56:00,79.9,31.2,29.32,SW,228,16.8,22.6,16,-99.99,,,0.00,0,rob ver 1B,2013-03-20 03:56:00,
2013-03-19 20:57:00,80.0,31.3,29.32,SW,229,15.8,18.9,16,-99.99,,,0.00,0,rob ver 1B,2013-03-20 03:57:00,
2013-03-19 20:58:00,80.0,31.3,29.32,SW,229,13.7,17.5,17,-99.99,,,0.00,0,rob ver 1B,2013-03-20 03:58:00,
2013-03-19 20:59:00,79.8,31.4,29.32,SW,226,12.4,15.7,17,-99.99,,,0.00,0,rob ver 1B,2013-03-20 03:59:00,
2013-03-19 21:00:00,77.5,35.5,29.44,ESE,111,2.0,2.3,21,-99.99,,,0.00,0,rob ver 1A,2013-03-20 04:00:00,
2013-03-19 21:01:00,77.3,35.5,29.44,ESE,114,2.2,2.4,22,-99.99,,,0.00,0,rob ver 1A,2013-03-20 04:01:00,
2013-03-19 21:02:00,79.4,31.6,29.32,SW,233,9.7,12.2,17,-99.99,,,0.00,0,rob ver 1B,2013-03-20 04:02:00,
2013-03-19 21:03:00,79.2,31.7,29.32,SW,229,8.4,10.2,17,-99.99,,,0.00,0,rob ver 1B,2013-03-20 04:03:00,
2013-03-19 21:04:00,79.1,31.8,29.32,SW,232,8.7,10.9,17,-99.99,,,0.00,0,rob ver 1B,2013-03-20 04:04:00,
2013-03-19 21:05:00,79.1,31.8,29.32,SW,230,9.5,12.0,17,-99.99,,,0.00,0,rob ver 1B,2013-03-20 04:05:00,
2013-03-19 21:06:00,79.1,31.9,29.32,SW,228,7.8,12.4,18,-99.99,,,0.00,0,rob ver 1B,2013-03-20 04:06:00,
2013-03-19 21:07:00,77.1,35.6,29.44,ESE,123,2.0,2.2,22,-99.99,,,0.00,0,rob ver 1A,2013-03-20 04:07:00,
2013-03-19 21:08:00,79.1,32.1,29.32,SW,236,7.9,11.6,18,-99.99,,,0.00,0,rob ver 1B,2013-03-20 04:08:00,
2013-03-19 21:09:00,78.9,32.0,29.32,WSW,251,6.3,8.8,18,-99.99,,,0.00,0,rob ver 1B,2013-03-20 04:09:00,
2013-03-19 21:10:00,78.8,32.0,29.32,WSW,258,5.9,7.4,18,-99.99,,,0.00,0,rob ver 1B,2013-03-20 04:10:00,
2013-03-19 21:11:00,78.7,32.0,29.32,WSW,252,5.1,6.0,18,-99.99,,,0.00,0,rob ver 1B,2013-03-20 04:11:00,
2013-03-19 21:12:00,77.1,35.6,29.44,East,92,2.5,2.7,22,-99.99,,,0.00,0,rob ver 1A,2013-03-20 04:12:00,
2013-03-19 21:13:00,78.6,32.0,29.32,WSW,250,3.7,5.0,18,-99.99,,,0.00,0,rob ver 1B,2013-03-20 04:13:00,
2013-03-19 21:14:00,78.5,32.0,29.32,WSW,247,3.0,4.1,18,-99.99,,,0.00,0,rob ver 1B,2013-03-20 04:14:00,
2013-03-19 21:15:00,78.4,32.0,29.32,WSW,245,4.2,6.5,18,-99.99,,,0.00,0,rob ver 1B,2013-03-20 04:15:00,
2013-03-19 21:16:00,78.4,32.0,29.32,WSW,244,6.6,8.1,18,-99.99,,,0.00,0,rob ver 1B,2013-03-20 04:16:00,
2013-03-19 21:17:00,77.1,35.6,29.44,East,101,2.8,3.1,22,-99.99,,,0.00,0,rob ver 1A,2013-03-20 04:17:00,
2013-03-19 21:18:00,78.4,32.0,29.32,SW,233,6.6,12.2,18,-99.99,,,0.00,0,rob ver 1B,2013-03-20 04:18:00,
2013-03-19 21:19:00,78.5,32.0,29.32,WSW,243,7.3,9.8,18,-99.99,,,0.00,0,rob ver 1B,2013-03-20 04:19:00,
2013-03-19 21:20:00,78.6,32.0,29.32,SW,224,6.3,9.9,18,-99.99,,,0.00,0,rob ver 1B,2013-03-20 04:20:00,
2013-03-19 21:21:00,78.4,31.9,29.32,SW,231,7.5,9.8,18,-99.99,,,0.00,0,rob ver 1B,2013-03-20 04:21:00,
2013-03-19 21:22:00,77.0,35.5,29.44,ESE,107,2.6,2.9,22,-99.99,,,0.00,0,rob ver 1A,2013-03-20 04:22:00,
2013-03-19 21:23:00,78.2,31.9,29.32,SW,230,6.7,8.2,18,-99.99,,,0.00,0,rob ver 1B,2013-03-20 04:23:00,
2013-03-19 21:24:00,78.0,31.9,29.32,SW,231,6.0,7.3,18,-99.99,,,0.00,0,rob ver 1B,2013-03-20 04:24:00,
2013-03-19 21:25:00,77.8,31.9,29.32,SW,225,5.3,6.7,18,-99.99,,,0.00,0,rob ver 1B,2013-03-20 04:25:00,
2013-03-19 21:26:00,77.6,31.9,29.32,SW,221,5.3,6.0,18,-99.99,,,0.00,0,rob ver 1B,2013-03-20 04:26:00,
2013-03-19 21:27:00,76.9,35.5,29.44,ESE,102,2.8,3.1,22,-99.99,,,0.00,0,rob ver 1A,2013-03-20 04:27:00,
2013-03-19 21:28:00,77.4,31.9,29.32,SW,226,5.5,7.4,18,-99.99,,,0.00,0,rob ver 1B,2013-03-20 04:28:00,
2013-03-19 21:29:00,77.4,31.9,29.32,SW,228,6.0,7.4,18,-99.99,,,0.00,0,rob ver 1B,2013-03-20 04:29:00,
2013-03-19 21:30:00,77.4,31.9,29.32,SW,223,6.7,8.6,19,-99.99,,,0.00,0,rob ver 1B,2013-03-20 04:30:00,
2013-03-19 21:31:00,77.3,31.9,29.32,SW,220,6.7,8.4,19,-99.99,,,0.00,0,rob ver 1B,2013-03-20 04:31:00,
2013-03-19 21:32:00,76.5,35.4,29.44,East,96,2.6,2.8,22,-99.99,,,0.00,0,rob ver 1A,2013-03-20 04:32:00,
2013-03-19 21:33:00,77.3,31.9,29.32,SW,223,6.5,7.8,19,-99.99,,,0.00,0,rob ver 1B,2013-03-20 04:33:00,
2013-03-19 21:34:00,77.2,31.9,29.32,SW,225,6.7,7.6,19,-99.99,,,0.00,0,rob ver 1B,2013-03-20 04:34:00,
2013-03-19 21:35:00,77.1,31.9,29.32,SW,223,7.0,8.0,19,-99.99,,,0.00,0,rob ver 1B,2013-03-20 04:35:00,
2013-03-19 21:36:00,77.0,32.0,29.32,SW,220,7.1,8.0,19,-99.99,,,0.00,0,rob ver 1B,2013-03-20 04:36:00,
2013-03-19 21:37:00,76.4,35.4,29.44,ESE,103,2.9,3.2,22,-99.99,,,0.00,0,rob ver 1A,2013-03-20 04:37:00,
2013-03-19 21:38:00,76.9,32.0,29.32,SW,219,7.3,8.7,19,-99.99,,,0.00,0,rob ver 1B,2013-03-20 04:38:00,
2013-03-19 21:39:00,76.8,32.0,29.32,SW,217,7.3,9.1,19,-99.99,,,0.00,0,rob ver 1B,2013-03-20 04:39:00,
2013-03-19 21:40:00,76.8,32.1,29.32,SW,217,8.8,10.5,19,-99.99,,,0.00,0,rob ver 1B,2013-03-20 04:40:00,
2013-03-19 21:41:00,77.0,32.1,29.32,SW,220,9.0,10.7,19,-99.99,,,0.00,0,rob ver 1B,2013-03-20 04:41:00,
2013-03-19 21:42:00,76.3,35.3,29.44,ESE,110,2.5,2.8,22,-99.99,,,0.00,0,rob ver 1A,2013-03-20 04:42:00,
2013-03-19 21:43:00,77.1,32.1,29.32,SW,218,9.0,10.3,19,-99.99,,,0.00,0,rob ver 1B,2013-03-20 04:43:00,
2013-03-19 21:44:00,77.0,32.1,29.32,SW,221,8.8,10.6,19,-99.99,,,0.00,0,rob ver 1B,2013-03-20 04:44:00,
2013-03-19 21:45:00,76.8,32.2,29.32,SW,222,9.5,11.6,19,-99.99,,,0.00,0,rob ver 1B,2013-03-20 04:45:00,
2013-03-19 21:46:00,76.8,32.2,29.32,SW,223,8.8,10.6,19,-99.99,,,0.00,0,rob ver 1B,2013-03-20 04:46:00,
2013-03-19 21:47:00,75.8,35.3,29.44,ESE,118,2.6,3.3,22,-99.99,,,0.00,0,rob ver 1A,2013-03-20 04:47:00,
2013-03-19 21:48:00,76.7,32.1,29.32,SW,224,8.9,11.2,19,-99.99,,,0.00,0,rob ver 1B,2013-03-20 04:48:00,
2013-03-19 21:49:00,76.6,32.2,29.32,SW,226,8.4,10.8,19,-99.99,,,0.00,0,rob ver 1B,2013-03-20 04:49:00,
2013-03-19 21:50:00,76.6,32.3,29.32,SW,227,8.6,10.2,19,-99.99,,,0.00,0,rob ver 1B,2013-03-20 04:50:00,
2013-03-19 21:51:00,76.6,32.3,29.32,SW,228,9.1,10.8,19,-99.99,,,0.00,0,rob ver 1B,2013-03-20 04:51:00,
2013-03-19 21:52:00,76.7,32.4,29.32,SW,223,8.6,10.2,19,-99.99,,,0.00,0,rob ver 1B,2013-03-20 04:52:00,
2013-03-19 21:53:00,75.3,35.0,29.47,SSE,154,3.9,5.1,23,-99.99,,,0.00,0,rob ver 1A,2013-03-20 04:53:00,
2013-03-19 21:54:00,76.6,32.3,29.32,SW,230,9.8,14.9,19,-99.99,,,0.00,0,rob ver 1B,2013-03-20 04:54:00,
2013-03-19 21:55:00,76.8,32.0,29.32,SW,228,11.3,14.0,19,-99.99,,,0.00,0,rob ver 1B,2013-03-20 04:55:00,
2013-03-19 21:56:00,76.9,32.2,29.32,SW,233,9.8,12.1,19,-99.99,,,0.00,0,rob ver 1B,2013-03-20 04:56:00,
2013-03-19 21:57:00,76.7,32.1,29.32,SW,232,10.2,15.0,19,-99.99,,,0.00,0,rob ver 1B,2013-03-20 04:57:00,
2013-03-19 21:58:00,75.5,35.5,29.47,South,175,8.9,11.5,23,-99.99,,,0.00,0,rob ver 1A,2013-03-20 04:58:00,
2013-03-19 21:59:00,76.6,32.0,29.32,SW,236,10.8,13.7,19,-99.99,,,0.00,0,rob ver 1B,2013-03-20 04:59:00,
2013-03-19 22:00:00,76.6,31.8,29.32,SW,235,13.0,17.9,19,-99.99,,,0.00,0,rob ver 1B,2013-03-20 05:00:00,
2013-03-19 22:01:00,76.7,31.7,29.32,SW,236,12.1,15.0,19,-99.99,,,0.00,0,rob ver 1B,2013-03-20 05:01:00,
2013-03-19 22:02:00,76.8,31.7,29.32,SW,235,12.4,14.5,19,-99.99,,,0.00,0,rob ver 1B,2013-03-20 05:02:00,
2013-03-19 22:03:00,74.8,36.7,29.47,South,180,9.4,11.3,25,-99.99,,,0.00,0,rob ver 1A,2013-03-20 05:03:00,
2013-03-19 22:04:00,76.6,31.5,29.32,SW,233,13.7,16.7,19,-99.99,,,0.00,0,rob ver 1B,2013-03-20 05:04:00,
2013-03-19 22:05:00,76.7,31.4,29.32,WSW,239,12.6,15.4,19,-99.99,,,0.00,0,rob ver 1B,2013-03-20 05:05:00,
2013-03-19 22:06:00,76.6,31.4,29.32,SW,235,12.2,14.9,19,-99.99,,,0.00,0,rob ver 1B,2013-03-20 05:06:00,
2013-03-19 22:07:00,76.5,31.3,29.32,SW,231,12.5,16.0,19,-99.99,,,0.00,0,rob ver 1B,2013-03-20 05:07:00,
2013-03-19 22:08:00,74.0,40.3,29.47,South,182,11.4,13.7,29,-99.99,,,0.00,0,rob ver 1A,2013-03-20 05:08:00,
2013-03-19 22:09:00,76.6,31.2,29.32,SW,235,15.3,21.2,18,-99.99,,,0.00,0,rob ver 1B,2013-03-20 05:09:00,
2013-03-19 22:10:00,76.6,31.1,29.32,SW,233,14.8,19.0,18,-99.99,,,0.00,0,rob ver 1B,2013-03-20 05:10:00,
2013-03-19 22:11:00,76.5,31.2,29.32,SW,236,14.7,22.9,19,-99.99,,,0.00,0,rob ver 1B,2013-03-20 05:11:00,
2013-03-19 22:12:00,76.6,31.3,29.32,SW,233,15.0,18.9,18,-99.99,,,0.00,0,rob ver 1B,2013-03-20 05:12:00,
2013-03-19 22:13:00,73.5,44.2,29.47,South,187,13.4,16.0,35,-99.99,,,0.00,0,rob ver 1A,2013-03-20 05:13:00,
2013-03-19 22:14:00,76.6,31.3,29.32,SW,231,15.7,18.8,19,-99.99,,,0.00,0,rob ver 1B,2013-03-20 05:14:00,
2013-03-19 22:15:00,76.6,31.3,29.32,SW,231,16.9,21.3,19,-99.99,,,0.00,0,rob ver 1B,2013-03-20 05:15:00,
2013-03-19 22:16:00,76.5,31.3,29.32,SW,233,15.9,18.4,19,-99.99,,,0.00,0,rob ver 1B,2013-03-20 05:16:00,
2013-03-19 22:17:00,76.4,31.4,29.32,SW,232,14.9,18.7,19,-99.99,,,0.00,0,rob ver 1B,2013-03-20 05:17:00,
2013-03-19 22:18:00,72.9,45.5,29.47,South,182,12.1,15.1,37,-99.99,,,0.00,0,rob ver 1A,2013-03-20 05:18:00,
2013-03-19 22:19:00,76.2,31.5,29.32,WSW,237,13.0,16.6,19,-99.99,,,0.00,0,rob ver 1B,2013-03-20 05:19:00,
2013-03-19 22:20:00,76.0,31.4,29.32,SW,233,11.5,13.5,19,-99.99,,,0.00,0,rob ver 1B,2013-03-20 05:20:00,
2013-03-19 22:21:00,75.9,31.4,29.32,SW,233,9.9,11.9,19,-99.99,,,0.00,0,rob ver 1B,2013-03-20 05:21:00,
2013-03-19 22:22:00,75.7,31.5,29.32,SW,234,12.8,15.4,19,-99.99,,,0.00,0,rob ver 1B,2013-03-20 05:22:00,
2013-03-19 22:23:00,72.7,46.5,29.47,South,182,12.7,15.3,39,-99.99,,,0.00,0,rob ver 1A,2013-03-20 05:23:00,
2013-03-19 22:24:00,75.7,31.6,29.32,SW,233,10.6,12.3,19,-99.99,,,0.00,0,rob ver 1B,2013-03-20 05:24:00,
2013-03-19 22:25:00,75.7,31.6,29.32,SW,233,8.8,10.7,19,-99.99,,,0.00,0,rob ver 1B,2013-03-20 05:25:00,
2013-03-19 22:26:00,75.6,31.7,29.32,SW,231,8.9,12.2,20,-99.99,,,0.00,0,rob ver 1B,2013-03-20 05:26:00,
2013-03-19 22:27:00,75.5,31.7,29.32,SW,227,9.2,13.0,19,-99.99,,,0.00,0,rob ver 1B,2013-03-20 05:27:00,
2013-03-19 22:28:00,72.4,47.4,29.47,South,183,12.9,15.0,41,-99.99,,,0.00,0,rob ver 1A,2013-03-20 05:28:00,
2013-03-19 22:29:00,75.4,31.8,29.32,SW,226,7.0,9.1,20,-99.99,,,0.00,0,rob ver 1B,2013-03-20 05:29:00,
2013-03-19 22:30:00,75.3,31.9,29.32,SW,226,7.8,9.9,20,-99.99,,,0.00,0,rob ver 1B,2013-03-20 05:30:00,
2013-03-19 22:31:00,75.3,32.0,29.32,SW,225,7.1,9.4,20,-99.99,,,0.00,0,rob ver 1B,2013-03-20 05:31:00,
2013-03-19 22:32:00,75.2,32.1,29.32,SW,227,7.3,8.7,20,-99.99,,,0.00,0,rob ver 1B,2013-03-20 05:32:00,
2013-03-19 22:33:00,72.1,46.8,29.47,South,178,13.5,15.9,40,-99.99,,,0.00,0,rob ver 1A,2013-03-20 05:33:00,
2013-03-19 22:34:00,75.2,32.2,29.32,SW,225,7.5,9.0,20,-99.99,,,0.00,0,rob ver 1B,2013-03-20 05:34:00,
2013-03-19 22:35:00,75.1,32.2,29.32,SW,227,6.8,9.7,20,-99.99,,,0.00,0,rob ver 1B,2013-03-20 05:35:00,
2013-03-19 22:36:00,75.1,32.3,29.32,SW,226,7.5,8.7,20,-99.99,,,0.00,0,rob ver 1B,2013-03-20 05:36:00,
2013-03-19 22:37:00,75.0,32.3,29.32,SW,227,7.3,9.9,20,-99.99,,,0.00,0,rob ver 1B,2013-03-20 05:37:00,
2013-03-19 22:38:00,71.9,44.8,29.47,South,187,12.5,15.7,37,-99.99,,,0.00,0,rob ver 1A,2013-03-20 05:38:00,
2013-03-19 22:39:00,75.2,32.4,29.32,SW,229,8.5,10.1,20,-99.99,,,0.00,0,rob ver 1B,2013-03-20 05:39:00,
2013-03-19 22:40:00,75.1,32.4,29.32,SW,235,8.2,12.5,20,-99.99,,,0.00,0,rob ver 1B,2013-03-20 05:40:00,
2013-03-19 22:41:00,75.1,32.5,29.32,SW,228,10.3,13.2,20,-99.99,,,0.00,0,rob ver 1B,2013-03-20 05:41:00,
2013-03-19 22:42:00,75.3,32.5,29.32,SW,221,12.1,13.8,20,-99.99,,,0.00,0,rob ver 1B,2013-03-20 05:42:00,
2013-03-19 22:43:00,71.8,43.7,29.47,SSW,192,12.5,15.4,36,-99.99,,,0.00,0,rob ver 1A,2013-03-20 05:43:00,
2013-03-19 22:44:00,75.3,32.5,29.32,SW,222,10.0,12.8,20,-99.99,,,0.00,0,rob ver 1B,2013-03-20 05:44:00,
2013-03-19 22:45:00,75.1,32.6,29.32,SW,220,11.3,16.8,21,-99.99,,,0.00,0,rob ver 1B,2013-03-20 05:45:00,
2013-03-19 22:46:00,75.2,32.8,29.32,SW,220,13.0,16.1,21,-99.99,,,0.00,0,rob ver 1B,2013-03-20 05:46:00,
2013-03-19 22:47:00,75.2,33.0,29.32,SW,225,13.1,17.5,21,-99.99,,,0.00,0,rob ver 1B,2013-03-20 05:47:00,
2013-03-19 22:48:00,71.7,42.8,29.47,South,189,11.7,14.3,35,-99.99,,,0.00,0,rob ver 1A,2013-03-20 05:48:00,
2013-03-19 22:49:00,75.0,33.0,29.32,SW,219,12.5,15.4,21,-99.99,,,0.00,0,rob ver 1B,2013-03-20 05:49:00,
2013-03-19 22:50:00,74.9,33.2,29.32,SW,221,13.1,15.0,21,-99.99,,,0.00,0,rob ver 1B,2013-03-20 05:50:00,
2013-03-19 22:51:00,74.9,33.5,29.32,SW,223,15.8,20.8,22,-99.99,,,0.00,0,rob ver 1B,2013-03-20 05:51:00,
2013-03-19 22:52:00,74.8,33.6,29.32,SW,217,15.1,18.5,22,-99.99,,,0.00,0,rob ver 1B,2013-03-20 05:52:00,
2013-03-19 22:53:00,71.7,42.4,29.47,South,185,12.1,16.1,34,-99.99,,,0.00,0,rob ver 1A,2013-03-20 05:53:00,
2013-03-19 22:54:00,74.6,33.7,29.32,SW,225,12.3,15.3,22,-99.99,,,0.00,0,rob ver 1B,2013-03-20 05:54:00,
2013-03-19 22:55:00,74.4,33.7,29.32,SW,223,13.7,16.6,22,-99.99,,,0.00,0,rob ver 1B,2013-03-20 05:55:00,
2013-03-19 22:56:00,74.3,33.8,29.32,SW,219,14.3,20.3,22,-99.99,,,0.00,0,rob ver 1B,2013-03-20 05:56:00,
2013-03-19 22:57:00,74.4,33.9,29.32,SW,220,14.8,18.7,22,-99.99,,,0.00,0,rob ver 1B,2013-03-20 05:57:00,
2013-03-19 22:58:00,74.3,34.0,29.32,SW,221,15.4,18.2,22,-99.99,,,0.00,0,rob ver 1B,2013-03-20 05:58:00,
2013-03-19 22:59:00,71.5,42.0,29.47,South,187,10.8,13.0,34,-99.99,,,0.00,0,rob ver 1A,2013-03-20 05:59:00,
2013-03-19 23:00:00,74.1,34.0,29.32,SW,222,13.5,15.4,23,-99.99,,,0.00,0,rob ver 1B,2013-03-20 06:00:00,
2013-03-19 23:01:00,74.0,34.0,29.32,SW,225,12.8,15.9,23,-99.99,,,0.00,0,rob ver 1B,2013-03-20 06:01:00,
2013-03-19 23:02:00,74.0,34.1,29.32,SW,223,13.9,17.0,23,-99.99,,,0.00,0,rob ver 1B,2013-03-20 06:02:00,
2013-03-19 23:03:00,74.0,34.2,29.32,SW,224,13.4,15.7,23,-99.99,,,0.00,0,rob ver 1B,2013-03-20 06:03:00,
2013-03-19 23:04:00,71.3,41.5,29.47,South,186,9.7,12.1,33,-99.99,,,0.00,0,rob ver 1A,2013-03-20 06:04:00,
2013-03-19 23:05:00,73.9,34.3,29.32,SW,225,13.7,17.3,23,-99.99,,,0.00,0,rob ver 1B,2013-03-20 06:05:00,
2013-03-19 23:06:00,73.9,34.4,29.32,SW,229,14.0,17.1,23,-99.99,,,0.00,0,rob ver 1B,2013-03-20 06:06:00,
2013-03-19 23:07:00,73.9,34.5,29.32,SW,233,11.5,14.7,23,-99.99,,,0.00,0,rob ver 1B,2013-03-20 06:07:00,
2013-03-19 23:08:00,73.8,34.5,29.32,SW,227,12.6,15.5,23,-99.99,,,0.00,0,rob ver 1B,2013-03-20 06:08:00,
2013-03-19 23:09:00,71.1,41.5,29.47,South,187,9.5,12.5,34,-99.99,,,0.00,0,rob ver 1A,2013-03-20 06:09:00,
2013-03-19 23:10:00,73.6,34.6,29.32,SW,225,11.2,13.0,24,-99.99,,,0.00,0,rob ver 1B,2013-03-20 06:10:00,
2013-03-19 23:11:00,73.6,34.8,29.32,SW,229,10.5,13.5,24,-99.99,,,0.00,0,rob ver 1B,2013-03-20 06:11:00,
2013-03-19 23:12:00,73.5,34.8,29.32,SW,227,10.2,13.0,24,-99.99,,,0.00,0,rob ver 1B,2013-03-20 06:12:00,
2013-03-19 23:13:00,73.5,35.0,29.32,SW,234,11.8,14.1,24,-99.99,,,0.00,0,rob ver 1B,2013-03-20 06:13:00,
2013-03-19 23:14:00,71.0,41.6,29.47,South,186,9.5,12.2,34,-99.99,,,0.00,0,rob ver 1A,2013-03-20 06:14:00,
2013-03-19 23:15:00,73.4,35.1,29.32,SW,221,10.0,12.2,24,-99.99,,,0.00,0,rob ver 1B,2013-03-20 06:15:00,
2013-03-19 23:16:00,73.3,35.1,29.32,SW,221,9.5,11.6,24,-99.99,,,0.00,0,rob ver 1B,2013-03-20 06:16:00,
2013-03-19 23:17:00,73.3,35.2,29.32,SW,220,8.1,10.3,24,-99.99,,,0.00,0,rob ver 1B,2013-03-20 06:17:00,
2013-03-19 23:18:00,73.2,35.3,29.32,SW,216,8.6,10.8,25,-99.99,,,0.00,0,rob ver 1B,2013-03-20 06:18:00,
2013-03-19 23:19:00,70.9,41.4,29.47,South,180,9.3,12.1,34,-99.99,,,0.00,0,rob ver 1A,2013-03-20 06:19:00,
2013-03-19 23:20:00,73.1,35.4,29.32,SSW,211,6.6,8.5,25,-99.99,,,0.00,0,rob ver 1B,2013-03-20 06:20:00,
2013-03-19 23:21:00,73.0,35.5,29.32,SSW,209,6.6,8.0,25,-99.99,,,0.00,0,rob ver 1B,2013-03-20 06:21:00,
2013-03-19 23:22:00,72.9,35.6,29.32,SSW,206,7.4,8.7,25,-99.99,,,0.00,0,rob ver 1B,2013-03-20 06:22:00,
2013-03-19 23:23:00,73.0,35.6,29.32,SSW,199,6.7,8.3,25,-99.99,,,0.00,0,rob ver 1B,2013-03-20 06:23:00,
2013-03-19 23:24:00,70.8,41.4,29.47,SSE,158,6.6,8.3,34,-99.99,,,0.00,0,rob ver 1A,2013-03-20 06:24:00,
2013-03-19 23:25:00,72.9,35.7,29.32,SSW,201,4.6,5.8,25,-99.99,,,0.00,0,rob ver 1B,2013-03-20 06:25:00,
2013-03-19 23:26:00,72.7,35.7,29.32,SSW,203,5.8,7.8,25,-99.99,,,0.00,0,rob ver 1B,2013-03-20 06:26:00,
2013-03-19 23:27:00,72.7,35.9,29.32,SSW,196,6.6,7.5,26,-99.99,,,0.00,0,rob ver 1B,2013-03-20 06:27:00,
2013-03-19 23:28:00,72.7,35.9,29.32,South,187,5.1,6.0,26,-99.99,,,0.00,0,rob ver 1B,2013-03-20 06:28:00,
2013-03-19 23:29:00,70.6,41.4,29.47,SE,134,6.0,7.8,34,-99.99,,,0.00,0,rob ver 1A,2013-03-20 06:29:00,
2013-03-19 23:30:00,72.7,36.0,29.32,SSW,192,4.1,5.8,26,-99.99,,,0.00,0,rob ver 1B,2013-03-20 06:30:00,
2013-03-19 23:31:00,72.7,36.0,29.32,SSW,198,4.5,6.5,26,-99.99,,,0.00,0,rob ver 1B,2013-03-20 06:31:00,
2013-03-19 23:32:00,72.7,36.0,29.32,South,191,3.8,4.9,26,-99.99,,,0.00,0,rob ver 1B,2013-03-20 06:32:00,
2013-03-19 23:33:00,72.6,36.0,29.32,South,190,4.4,6.1,26,-99.99,,,0.00,0,rob ver 1B,2013-03-20 06:33:00,
2013-03-19 23:34:00,70.3,41.8,29.47,NE,52,3.4,4.2,35,-99.99,,,0.00,0,rob ver 1A,2013-03-20 06:34:00,
2013-03-19 23:35:00,72.6,36.1,29.32,SSW,196,4.5,5.9,26,-99.99,,,0.00,0,rob ver 1B,2013-03-20 06:35:00,
2013-03-19 23:36:00,72.6,36.1,29.32,SSW,195,5.3,6.4,26,-99.99,,,0.00,0,rob ver 1B,2013-03-20 06:36:00,
2013-03-19 23:37:00,72.5,36.2,29.29,SSW,197,7.8,8.9,26,-99.99,,,0.00,0,rob ver 1B,2013-03-20 06:37:00,
2013-03-19 23:38:00,72.6,36.3,29.32,SSW,199,6.7,8.1,26,-99.99,,,0.00,0,rob ver 1B,2013-03-20 06:38:00,
2013-03-19 23:39:00,69.7,41.9,29.47,ENE,72,3.9,5.9,36,-99.99,,,0.00,0,rob ver 1A,2013-03-20 06:39:00,
2013-03-19 23:40:00,72.6,36.2,29.29,SSW,203,5.0,6.2,26,-99.99,,,0.00,0,rob ver 1B,2013-03-20 06:40:00,
2013-03-19 23:41:00,72.5,36.1,29.29,SSW,205,5.1,6.8,26,-99.99,,,0.00,0,rob ver 1B,2013-03-20 06:41:00,
2013-03-19 23:42:00,72.3,36.2,29.29,SSW,199,6.3,7.2,26,-99.99,,,0.00,0,rob ver 1B,2013-03-20 06:42:00,
2013-03-19 23:43:00,72.2,36.2,29.29,SSW,195,5.5,6.3,26,-99.99,,,0.00,0,rob ver 1B,2013-03-20 06:43:00,
2013-03-19 23:44:00,72.2,36.3,29.29,SSW,196,5.3,6.4,26,-99.99,,,0.00,0,rob ver 1B,2013-03-20 06:44:00,
2013-03-19 23:45:00,69.8,40.4,29.47,East,83,5.2,6.3,34,-99.99,,,0.00,0,rob ver 1A,2013-03-20 06:45:00,
2013-03-19 23:46:00,72.0,36.4,29.29,South,183,6.0,7.5,27,-99.99,,,0.00,0,rob ver 1B,2013-03-20 06:46:00,
2013-03-19 23:47:00,72.0,36.2,29.29,South,179,6.1,7.0,27,-99.99,,,0.00,0,rob ver 1B,2013-03-20 06:47:00,
2013-03-19 23:48:00,71.8,36.2,29.29,South,180,6.7,8.4,27,-99.99,,,0.00,0,rob ver 1B,2013-03-20 06:48:00,
2013-03-19 23:49:00,71.8,36.4,29.29,South,186,6.3,7.3,27,-99.99,,,0.00,0,rob ver 1B,2013-03-20 06:49:00,
2013-03-19 23:50:00,70.2,40.4,29.47,ESE,110,5.2,6.5,33,-99.99,,,0.00,0,rob ver 1A,2013-03-20 06:50:00,
2013-03-19 23:51:00,71.7,36.4,29.29,South,178,6.4,8.3,27,-99.99,,,0.00,0,rob ver 1B,2013-03-20 06:51:00,
2013-03-19 23:52:00,71.6,36.5,29.29,South,179,6.6,7.8,27,-99.99,,,0.00,0,rob ver 1B,2013-03-20 06:52:00,
2013-03-19 23:53:00,71.5,36.5,29.29,South,176,6.4,7.3,27,-99.99,,,0.00,0,rob ver 1B,2013-03-20 06:53:00,
2013-03-19 23:54:00,71.5,36.6,29.29,South,178,6.1,7.6,27,-99.99,,,0.00,0,rob ver 1B,2013-03-20 06:54:00,
2013-03-19 23:55:00,70.1,40.2,29.47,SE,140,3.4,4.2,33,-99.99,,,0.00,0,rob ver 1A,2013-03-20 06:55:00,
2013-03-19 23:56:00,71.5,36.9,29.29,South,188,7.4,9.4,28,-99.99,,,0.00,0,rob ver 1B,2013-03-20 06:56:00,
2013-03-19 23:57:00,71.7,37.1,29.29,South,190,6.7,8.5,28,-99.99,,,0.00,0,rob ver 1B,2013-03-20 06:57:00,
2013-03-19 23:58:00,71.7,37.0,29.29,South,183,5.9,7.4,28,-99.99,,,0.00,0,rob ver 1B,2013-03-20 06:58:00,
2013-03-19 23:59:00,71.7,37.1,29.29,South,185,6.7,9.4,28,-99.99,,,0.00,0,rob ver 1B,2013-03-20 06:59:00,